<?xml version="1.0" encoding="UTF-8" standalone="no" ?>
<gpx xmlns="http://www.topografix.com/GPX/1/1" xmlns:xsi="http://www.w3.org/2001/XMLSchema-instance" xsi:schemaLocation="http://www.topografix.com/GPX/1/1 http://www.topografix.com/GPX/1/1/gpx.xsd" version="1.1" creator="VisuGPX - https://www.visugpx.com">
  <metadata>
    <name>Crête de Saint Pancrace depuis Beaufort sur Gervanne</name>
    <desc><![CDATA[Boucle au départ de Beaufort sur Gervanne par le vieux village de Suze, la Crête de Saint Pancrace et Gigors. ]]></desc>
  </metadata>
  <trk>
    <name><![CDATA[2021-03-14 15:01:30]]></name>
    <trkseg>
      <trkpt lat="44.77888" lon="5.14291">
        <ele>376.97</ele>
        <time>2021-03-14T08:01:32Z</time>
      </trkpt>
      <trkpt lat="44.77887" lon="5.14288">
        <ele>377.45</ele>
        <time>2021-03-14T08:01:50Z</time>
      </trkpt>
      <trkpt lat="44.77885" lon="5.14289">
        <ele>377.45</ele>
        <time>2021-03-14T08:02:12Z</time>
      </trkpt>
      <trkpt lat="44.77882" lon="5.14287">
        <ele>376.49</ele>
        <time>2021-03-14T08:02:28Z</time>
      </trkpt>
      <trkpt lat="44.77875" lon="5.14288">
        <ele>376.01</ele>
        <time>2021-03-14T08:02:42Z</time>
      </trkpt>
      <trkpt lat="44.77869" lon="5.14288">
        <ele>375.53</ele>
        <time>2021-03-14T08:02:56Z</time>
      </trkpt>
      <trkpt lat="44.7787" lon="5.14289">
        <ele>376.97</ele>
        <time>2021-03-14T08:02:58Z</time>
      </trkpt>
      <trkpt lat="44.77869" lon="5.1429">
        <ele>375.53</ele>
        <time>2021-03-14T08:03:07Z</time>
      </trkpt>
      <trkpt lat="44.77858" lon="5.14285">
        <ele>375.05</ele>
        <time>2021-03-14T08:03:23Z</time>
      </trkpt>
      <trkpt lat="44.77848" lon="5.14281">
        <ele>375.05</ele>
        <time>2021-03-14T08:03:34Z</time>
      </trkpt>
      <trkpt lat="44.77837" lon="5.14273">
        <ele>374.57</ele>
        <time>2021-03-14T08:03:50Z</time>
      </trkpt>
      <trkpt lat="44.77823" lon="5.14269">
        <ele>373.61</ele>
        <time>2021-03-14T08:04:08Z</time>
      </trkpt>
      <trkpt lat="44.77818" lon="5.14261">
        <ele>373.13</ele>
        <time>2021-03-14T08:04:22Z</time>
      </trkpt>
      <trkpt lat="44.77816" lon="5.14259">
        <ele>373.13</ele>
        <time>2021-03-14T08:04:33Z</time>
      </trkpt>
      <trkpt lat="44.77811" lon="5.14252">
        <ele>372.65</ele>
        <time>2021-03-14T08:04:50Z</time>
      </trkpt>
      <trkpt lat="44.77796" lon="5.14264">
        <ele>371.69</ele>
        <time>2021-03-14T08:05:10Z</time>
      </trkpt>
      <trkpt lat="44.77783" lon="5.14262">
        <ele>370.73</ele>
        <time>2021-03-14T08:05:28Z</time>
      </trkpt>
      <trkpt lat="44.77776" lon="5.1426">
        <ele>370.24</ele>
        <time>2021-03-14T08:05:43Z</time>
      </trkpt>
      <trkpt lat="44.77768" lon="5.14242">
        <ele>369.76</ele>
        <time>2021-03-14T08:06:24Z</time>
      </trkpt>
      <trkpt lat="44.7776" lon="5.14221">
        <ele>369.76</ele>
        <time>2021-03-14T08:06:38Z</time>
      </trkpt>
      <trkpt lat="44.77753" lon="5.14188">
        <ele>369.28</ele>
        <time>2021-03-14T08:06:56Z</time>
      </trkpt>
      <trkpt lat="44.7775" lon="5.14168">
        <ele>369.28</ele>
        <time>2021-03-14T08:07:11Z</time>
      </trkpt>
      <trkpt lat="44.7775" lon="5.14165">
        <ele>369.28</ele>
        <time>2021-03-14T08:07:29Z</time>
      </trkpt>
      <trkpt lat="44.77748" lon="5.14166">
        <ele>369.76</ele>
        <time>2021-03-14T08:07:37Z</time>
      </trkpt>
      <trkpt lat="44.77744" lon="5.14165">
        <ele>368.8</ele>
        <time>2021-03-14T08:07:42Z</time>
      </trkpt>
      <trkpt lat="44.77728" lon="5.14156">
        <ele>370.24</ele>
        <time>2021-03-14T08:07:56Z</time>
      </trkpt>
      <trkpt lat="44.77712" lon="5.14144">
        <ele>371.21</ele>
        <time>2021-03-14T08:08:12Z</time>
      </trkpt>
      <trkpt lat="44.77712" lon="5.1414">
        <ele>372.65</ele>
        <time>2021-03-14T08:08:43Z</time>
      </trkpt>
      <trkpt lat="44.77718" lon="5.14129">
        <ele>370.73</ele>
        <time>2021-03-14T08:08:52Z</time>
      </trkpt>
      <trkpt lat="44.77719" lon="5.14126">
        <ele>372.17</ele>
        <time>2021-03-14T08:08:54Z</time>
      </trkpt>
      <trkpt lat="44.77729" lon="5.14105">
        <ele>373.61</ele>
        <time>2021-03-14T08:09:11Z</time>
      </trkpt>
      <trkpt lat="44.77736" lon="5.14077">
        <ele>372.17</ele>
        <time>2021-03-14T08:09:29Z</time>
      </trkpt>
      <trkpt lat="44.77738" lon="5.14049">
        <ele>375.05</ele>
        <time>2021-03-14T08:09:46Z</time>
      </trkpt>
      <trkpt lat="44.77738" lon="5.14039">
        <ele>375.05</ele>
        <time>2021-03-14T08:09:52Z</time>
      </trkpt>
      <trkpt lat="44.77739" lon="5.14008">
        <ele>375.53</ele>
        <time>2021-03-14T08:10:10Z</time>
      </trkpt>
      <trkpt lat="44.77734" lon="5.1398">
        <ele>374.09</ele>
        <time>2021-03-14T08:10:28Z</time>
      </trkpt>
      <trkpt lat="44.77733" lon="5.13979">
        <ele>374.09</ele>
        <time>2021-03-14T08:10:29Z</time>
      </trkpt>
      <trkpt lat="44.77723" lon="5.13956">
        <ele>373.61</ele>
        <time>2021-03-14T08:10:44Z</time>
      </trkpt>
      <trkpt lat="44.77711" lon="5.13926">
        <ele>373.13</ele>
        <time>2021-03-14T08:11:03Z</time>
      </trkpt>
      <trkpt lat="44.77706" lon="5.13902">
        <ele>373.61</ele>
        <time>2021-03-14T08:11:19Z</time>
      </trkpt>
      <trkpt lat="44.777" lon="5.13878">
        <ele>372.17</ele>
        <time>2021-03-14T08:11:34Z</time>
      </trkpt>
      <trkpt lat="44.77695" lon="5.13842">
        <ele>372.17</ele>
        <time>2021-03-14T08:11:54Z</time>
      </trkpt>
      <trkpt lat="44.77695" lon="5.13824">
        <ele>373.61</ele>
        <time>2021-03-14T08:12:04Z</time>
      </trkpt>
      <trkpt lat="44.77695" lon="5.13801">
        <ele>375.05</ele>
        <time>2021-03-14T08:12:19Z</time>
      </trkpt>
      <trkpt lat="44.77695" lon="5.13782">
        <ele>375.53</ele>
        <time>2021-03-14T08:12:33Z</time>
      </trkpt>
      <trkpt lat="44.77695" lon="5.13756">
        <ele>376.97</ele>
        <time>2021-03-14T08:12:51Z</time>
      </trkpt>
      <trkpt lat="44.77694" lon="5.13735">
        <ele>378.9</ele>
        <time>2021-03-14T08:13:04Z</time>
      </trkpt>
      <trkpt lat="44.7769" lon="5.13715">
        <ele>380.34</ele>
        <time>2021-03-14T08:13:18Z</time>
      </trkpt>
      <trkpt lat="44.77687" lon="5.13691">
        <ele>380.82</ele>
        <time>2021-03-14T08:13:34Z</time>
      </trkpt>
      <trkpt lat="44.77683" lon="5.13671">
        <ele>382.74</ele>
        <time>2021-03-14T08:13:48Z</time>
      </trkpt>
      <trkpt lat="44.77679" lon="5.13642">
        <ele>385.15</ele>
        <time>2021-03-14T08:14:07Z</time>
      </trkpt>
      <trkpt lat="44.77675" lon="5.13616">
        <ele>387.55</ele>
        <time>2021-03-14T08:14:24Z</time>
      </trkpt>
      <trkpt lat="44.7767" lon="5.13591">
        <ele>388.99</ele>
        <time>2021-03-14T08:14:41Z</time>
      </trkpt>
      <trkpt lat="44.77667" lon="5.13571">
        <ele>389.95</ele>
        <time>2021-03-14T08:14:57Z</time>
      </trkpt>
      <trkpt lat="44.77661" lon="5.13552">
        <ele>389.95</ele>
        <time>2021-03-14T08:15:12Z</time>
      </trkpt>
      <trkpt lat="44.77654" lon="5.13528">
        <ele>391.39</ele>
        <time>2021-03-14T08:15:29Z</time>
      </trkpt>
      <trkpt lat="44.77645" lon="5.13506">
        <ele>392.84</ele>
        <time>2021-03-14T08:15:45Z</time>
      </trkpt>
      <trkpt lat="44.77638" lon="5.13488">
        <ele>395.24</ele>
        <time>2021-03-14T08:16:01Z</time>
      </trkpt>
      <trkpt lat="44.77631" lon="5.13472">
        <ele>396.68</ele>
        <time>2021-03-14T08:16:14Z</time>
      </trkpt>
      <trkpt lat="44.77624" lon="5.13457">
        <ele>397.16</ele>
        <time>2021-03-14T08:16:25Z</time>
      </trkpt>
      <trkpt lat="44.77613" lon="5.13439">
        <ele>398.6</ele>
        <time>2021-03-14T08:16:42Z</time>
      </trkpt>
      <trkpt lat="44.77603" lon="5.13419">
        <ele>398.6</ele>
        <time>2021-03-14T08:16:59Z</time>
      </trkpt>
      <trkpt lat="44.77593" lon="5.13407">
        <ele>399.08</ele>
        <time>2021-03-14T08:17:14Z</time>
      </trkpt>
      <trkpt lat="44.7758" lon="5.13395">
        <ele>401.49</ele>
        <time>2021-03-14T08:17:30Z</time>
      </trkpt>
      <trkpt lat="44.77578" lon="5.13394">
        <ele>401.97</ele>
        <time>2021-03-14T08:17:32Z</time>
      </trkpt>
      <trkpt lat="44.77564" lon="5.13387">
        <ele>403.89</ele>
        <time>2021-03-14T08:17:49Z</time>
      </trkpt>
      <trkpt lat="44.77548" lon="5.13379">
        <ele>405.33</ele>
        <time>2021-03-14T08:18:05Z</time>
      </trkpt>
      <trkpt lat="44.77534" lon="5.13371">
        <ele>406.29</ele>
        <time>2021-03-14T08:18:20Z</time>
      </trkpt>
      <trkpt lat="44.7752" lon="5.13363">
        <ele>408.22</ele>
        <time>2021-03-14T08:18:35Z</time>
      </trkpt>
      <trkpt lat="44.77512" lon="5.13358">
        <ele>409.18</ele>
        <time>2021-03-14T08:18:44Z</time>
      </trkpt>
      <trkpt lat="44.77498" lon="5.13345">
        <ele>409.18</ele>
        <time>2021-03-14T08:19:01Z</time>
      </trkpt>
      <trkpt lat="44.77495" lon="5.13341">
        <ele>409.18</ele>
        <time>2021-03-14T08:19:05Z</time>
      </trkpt>
      <trkpt lat="44.77483" lon="5.13319">
        <ele>408.7</ele>
        <time>2021-03-14T08:19:22Z</time>
      </trkpt>
      <trkpt lat="44.77479" lon="5.13301">
        <ele>409.18</ele>
        <time>2021-03-14T08:19:39Z</time>
      </trkpt>
      <trkpt lat="44.77479" lon="5.13292">
        <ele>409.18</ele>
        <time>2021-03-14T08:19:53Z</time>
      </trkpt>
      <trkpt lat="44.77479" lon="5.13291">
        <ele>408.7</ele>
        <time>2021-03-14T08:20:06Z</time>
      </trkpt>
      <trkpt lat="44.77479" lon="5.13291">
        <ele>408.7</ele>
        <time>2021-03-14T08:20:23Z</time>
      </trkpt>
      <trkpt lat="44.77479" lon="5.1329">
        <ele>410.14</ele>
        <time>2021-03-14T08:20:39Z</time>
      </trkpt>
      <trkpt lat="44.77478" lon="5.13291">
        <ele>410.14</ele>
        <time>2021-03-14T08:21:00Z</time>
      </trkpt>
      <trkpt lat="44.77479" lon="5.13289">
        <ele>408.7</ele>
        <time>2021-03-14T08:21:18Z</time>
      </trkpt>
      <trkpt lat="44.77479" lon="5.13289">
        <ele>410.14</ele>
        <time>2021-03-14T08:21:21Z</time>
      </trkpt>
      <trkpt lat="44.77478" lon="5.13289">
        <ele>409.18</ele>
        <time>2021-03-14T08:21:30Z</time>
      </trkpt>
      <trkpt lat="44.77478" lon="5.1328">
        <ele>409.66</ele>
        <time>2021-03-14T08:21:44Z</time>
      </trkpt>
      <trkpt lat="44.77479" lon="5.13265">
        <ele>409.66</ele>
        <time>2021-03-14T08:21:56Z</time>
      </trkpt>
      <trkpt lat="44.77485" lon="5.13251">
        <ele>408.22</ele>
        <time>2021-03-14T08:22:06Z</time>
      </trkpt>
      <trkpt lat="44.77488" lon="5.13222">
        <ele>405.81</ele>
        <time>2021-03-14T08:22:25Z</time>
      </trkpt>
      <trkpt lat="44.77488" lon="5.13218">
        <ele>407.26</ele>
        <time>2021-03-14T08:22:27Z</time>
      </trkpt>
      <trkpt lat="44.7748" lon="5.13181">
        <ele>407.26</ele>
        <time>2021-03-14T08:22:50Z</time>
      </trkpt>
      <trkpt lat="44.77479" lon="5.13154">
        <ele>407.74</ele>
        <time>2021-03-14T08:23:06Z</time>
      </trkpt>
      <trkpt lat="44.77478" lon="5.13118">
        <ele>404.85</ele>
        <time>2021-03-14T08:23:26Z</time>
      </trkpt>
      <trkpt lat="44.77476" lon="5.13096">
        <ele>404.85</ele>
        <time>2021-03-14T08:23:38Z</time>
      </trkpt>
      <trkpt lat="44.77475" lon="5.13091">
        <ele>406.29</ele>
        <time>2021-03-14T08:23:41Z</time>
      </trkpt>
      <trkpt lat="44.77464" lon="5.13075">
        <ele>407.74</ele>
        <time>2021-03-14T08:23:56Z</time>
      </trkpt>
      <trkpt lat="44.77457" lon="5.13067">
        <ele>409.66</ele>
        <time>2021-03-14T08:24:06Z</time>
      </trkpt>
      <trkpt lat="44.77452" lon="5.13062">
        <ele>409.66</ele>
        <time>2021-03-14T08:24:12Z</time>
      </trkpt>
      <trkpt lat="44.77445" lon="5.13049">
        <ele>411.1</ele>
        <time>2021-03-14T08:24:25Z</time>
      </trkpt>
      <trkpt lat="44.7744" lon="5.13035">
        <ele>413.98</ele>
        <time>2021-03-14T08:24:40Z</time>
      </trkpt>
      <trkpt lat="44.77446" lon="5.13028">
        <ele>413.98</ele>
        <time>2021-03-14T08:24:57Z</time>
      </trkpt>
      <trkpt lat="44.77457" lon="5.13027">
        <ele>416.87</ele>
        <time>2021-03-14T08:25:14Z</time>
      </trkpt>
      <trkpt lat="44.77463" lon="5.13032">
        <ele>416.87</ele>
        <time>2021-03-14T08:25:21Z</time>
      </trkpt>
      <trkpt lat="44.77469" lon="5.13036">
        <ele>415.43</ele>
        <time>2021-03-14T08:25:27Z</time>
      </trkpt>
      <trkpt lat="44.77474" lon="5.13039">
        <ele>415.43</ele>
        <time>2021-03-14T08:25:32Z</time>
      </trkpt>
      <trkpt lat="44.77476" lon="5.1304">
        <ele>417.35</ele>
        <time>2021-03-14T08:25:34Z</time>
      </trkpt>
      <trkpt lat="44.77492" lon="5.13041">
        <ele>415.91</ele>
        <time>2021-03-14T08:25:49Z</time>
      </trkpt>
      <trkpt lat="44.77499" lon="5.13034">
        <ele>413.98</ele>
        <time>2021-03-14T08:26:02Z</time>
      </trkpt>
      <trkpt lat="44.775" lon="5.13032">
        <ele>413.98</ele>
        <time>2021-03-14T08:26:04Z</time>
      </trkpt>
      <trkpt lat="44.77501" lon="5.13025">
        <ele>415.43</ele>
        <time>2021-03-14T08:26:10Z</time>
      </trkpt>
      <trkpt lat="44.77504" lon="5.13007">
        <ele>415.91</ele>
        <time>2021-03-14T08:26:24Z</time>
      </trkpt>
      <trkpt lat="44.77509" lon="5.12983">
        <ele>415.91</ele>
        <time>2021-03-14T08:26:40Z</time>
      </trkpt>
      <trkpt lat="44.77508" lon="5.12958">
        <ele>416.87</ele>
        <time>2021-03-14T08:26:57Z</time>
      </trkpt>
      <trkpt lat="44.77501" lon="5.12938">
        <ele>414.47</ele>
        <time>2021-03-14T08:27:14Z</time>
      </trkpt>
      <trkpt lat="44.77498" lon="5.1292">
        <ele>411.1</ele>
        <time>2021-03-14T08:27:30Z</time>
      </trkpt>
      <trkpt lat="44.77506" lon="5.12904">
        <ele>408.22</ele>
        <time>2021-03-14T08:27:45Z</time>
      </trkpt>
      <trkpt lat="44.77508" lon="5.12901">
        <ele>408.22</ele>
        <time>2021-03-14T08:27:49Z</time>
      </trkpt>
      <trkpt lat="44.77518" lon="5.12896">
        <ele>405.81</ele>
        <time>2021-03-14T08:28:00Z</time>
      </trkpt>
      <trkpt lat="44.77522" lon="5.12895">
        <ele>404.37</ele>
        <time>2021-03-14T08:28:03Z</time>
      </trkpt>
      <trkpt lat="44.77529" lon="5.12893">
        <ele>402.45</ele>
        <time>2021-03-14T08:28:12Z</time>
      </trkpt>
      <trkpt lat="44.77538" lon="5.1289">
        <ele>399.57</ele>
        <time>2021-03-14T08:28:24Z</time>
      </trkpt>
      <trkpt lat="44.77544" lon="5.12889">
        <ele>401.01</ele>
        <time>2021-03-14T08:28:38Z</time>
      </trkpt>
      <trkpt lat="44.77547" lon="5.12887">
        <ele>401.01</ele>
        <time>2021-03-14T08:28:59Z</time>
      </trkpt>
      <trkpt lat="44.77548" lon="5.12887">
        <ele>399.57</ele>
        <time>2021-03-14T08:29:01Z</time>
      </trkpt>
      <trkpt lat="44.7755" lon="5.12888">
        <ele>397.64</ele>
        <time>2021-03-14T08:29:16Z</time>
      </trkpt>
      <trkpt lat="44.77558" lon="5.12888">
        <ele>397.16</ele>
        <time>2021-03-14T08:29:36Z</time>
      </trkpt>
      <trkpt lat="44.77568" lon="5.12892">
        <ele>393.32</ele>
        <time>2021-03-14T08:29:45Z</time>
      </trkpt>
      <trkpt lat="44.77572" lon="5.12893">
        <ele>394.28</ele>
        <time>2021-03-14T08:29:50Z</time>
      </trkpt>
      <trkpt lat="44.77582" lon="5.12893">
        <ele>395.24</ele>
        <time>2021-03-14T08:30:01Z</time>
      </trkpt>
      <trkpt lat="44.77589" lon="5.12893">
        <ele>393.8</ele>
        <time>2021-03-14T08:30:06Z</time>
      </trkpt>
      <trkpt lat="44.77602" lon="5.12894">
        <ele>391.87</ele>
        <time>2021-03-14T08:30:17Z</time>
      </trkpt>
      <trkpt lat="44.77622" lon="5.12894">
        <ele>389.47</ele>
        <time>2021-03-14T08:30:32Z</time>
      </trkpt>
      <trkpt lat="44.77631" lon="5.12893">
        <ele>387.55</ele>
        <time>2021-03-14T08:30:47Z</time>
      </trkpt>
      <trkpt lat="44.77643" lon="5.12894">
        <ele>384.66</ele>
        <time>2021-03-14T08:31:01Z</time>
      </trkpt>
      <trkpt lat="44.77646" lon="5.12893">
        <ele>384.18</ele>
        <time>2021-03-14T08:31:04Z</time>
      </trkpt>
      <trkpt lat="44.77664" lon="5.12886">
        <ele>381.3</ele>
        <time>2021-03-14T08:31:22Z</time>
      </trkpt>
      <trkpt lat="44.77675" lon="5.12889">
        <ele>381.3</ele>
        <time>2021-03-14T08:31:36Z</time>
      </trkpt>
      <trkpt lat="44.7768" lon="5.12889">
        <ele>380.82</ele>
        <time>2021-03-14T08:31:51Z</time>
      </trkpt>
      <trkpt lat="44.77686" lon="5.12876">
        <ele>379.86</ele>
        <time>2021-03-14T08:32:07Z</time>
      </trkpt>
      <trkpt lat="44.77696" lon="5.12861">
        <ele>378.9</ele>
        <time>2021-03-14T08:32:23Z</time>
      </trkpt>
      <trkpt lat="44.77704" lon="5.12844">
        <ele>376.01</ele>
        <time>2021-03-14T08:32:38Z</time>
      </trkpt>
      <trkpt lat="44.77712" lon="5.12827">
        <ele>375.53</ele>
        <time>2021-03-14T08:32:53Z</time>
      </trkpt>
      <trkpt lat="44.77711" lon="5.12805">
        <ele>375.05</ele>
        <time>2021-03-14T08:33:09Z</time>
      </trkpt>
      <trkpt lat="44.77708" lon="5.12784">
        <ele>373.61</ele>
        <time>2021-03-14T08:33:26Z</time>
      </trkpt>
      <trkpt lat="44.77698" lon="5.12773">
        <ele>373.13</ele>
        <time>2021-03-14T08:33:39Z</time>
      </trkpt>
      <trkpt lat="44.77684" lon="5.12762">
        <ele>372.17</ele>
        <time>2021-03-14T08:33:55Z</time>
      </trkpt>
      <trkpt lat="44.7767" lon="5.12754">
        <ele>371.69</ele>
        <time>2021-03-14T08:34:10Z</time>
      </trkpt>
      <trkpt lat="44.77655" lon="5.12744">
        <ele>370.24</ele>
        <time>2021-03-14T08:34:25Z</time>
      </trkpt>
      <trkpt lat="44.77633" lon="5.12724">
        <ele>367.84</ele>
        <time>2021-03-14T08:34:45Z</time>
      </trkpt>
      <trkpt lat="44.77616" lon="5.12714">
        <ele>367.36</ele>
        <time>2021-03-14T08:35:01Z</time>
      </trkpt>
      <trkpt lat="44.776" lon="5.12708">
        <ele>366.88</ele>
        <time>2021-03-14T08:35:17Z</time>
      </trkpt>
      <trkpt lat="44.77581" lon="5.12703">
        <ele>365.92</ele>
        <time>2021-03-14T08:35:34Z</time>
      </trkpt>
      <trkpt lat="44.77562" lon="5.12706">
        <ele>365.92</ele>
        <time>2021-03-14T08:35:49Z</time>
      </trkpt>
      <trkpt lat="44.77544" lon="5.12708">
        <ele>365.44</ele>
        <time>2021-03-14T08:36:03Z</time>
      </trkpt>
      <trkpt lat="44.77526" lon="5.12701">
        <ele>366.4</ele>
        <time>2021-03-14T08:36:18Z</time>
      </trkpt>
      <trkpt lat="44.77513" lon="5.12692">
        <ele>364</ele>
        <time>2021-03-14T08:36:29Z</time>
      </trkpt>
      <trkpt lat="44.77497" lon="5.12683">
        <ele>364.96</ele>
        <time>2021-03-14T08:36:43Z</time>
      </trkpt>
      <trkpt lat="44.77475" lon="5.12663">
        <ele>364.48</ele>
        <time>2021-03-14T08:36:56Z</time>
      </trkpt>
      <trkpt lat="44.77455" lon="5.12648">
        <ele>363.04</ele>
        <time>2021-03-14T08:37:11Z</time>
      </trkpt>
      <trkpt lat="44.77438" lon="5.12641">
        <ele>362.55</ele>
        <time>2021-03-14T08:37:24Z</time>
      </trkpt>
      <trkpt lat="44.77424" lon="5.12638">
        <ele>362.55</ele>
        <time>2021-03-14T08:37:36Z</time>
      </trkpt>
      <trkpt lat="44.77407" lon="5.12635">
        <ele>362.07</ele>
        <time>2021-03-14T08:37:50Z</time>
      </trkpt>
      <trkpt lat="44.77391" lon="5.12638">
        <ele>361.11</ele>
        <time>2021-03-14T08:38:06Z</time>
      </trkpt>
      <trkpt lat="44.77378" lon="5.1265">
        <ele>360.15</ele>
        <time>2021-03-14T08:38:22Z</time>
      </trkpt>
      <trkpt lat="44.77374" lon="5.12652">
        <ele>360.15</ele>
        <time>2021-03-14T08:38:25Z</time>
      </trkpt>
      <trkpt lat="44.77364" lon="5.12658">
        <ele>359.67</ele>
        <time>2021-03-14T08:38:32Z</time>
      </trkpt>
      <trkpt lat="44.77355" lon="5.12665">
        <ele>359.19</ele>
        <time>2021-03-14T08:38:38Z</time>
      </trkpt>
      <trkpt lat="44.77349" lon="5.1267">
        <ele>358.71</ele>
        <time>2021-03-14T08:38:42Z</time>
      </trkpt>
      <trkpt lat="44.77324" lon="5.12683">
        <ele>356.31</ele>
        <time>2021-03-14T08:39:01Z</time>
      </trkpt>
      <trkpt lat="44.77303" lon="5.12692">
        <ele>354.38</ele>
        <time>2021-03-14T08:39:17Z</time>
      </trkpt>
      <trkpt lat="44.77299" lon="5.12693">
        <ele>354.38</ele>
        <time>2021-03-14T08:39:20Z</time>
      </trkpt>
      <trkpt lat="44.77276" lon="5.12702">
        <ele>353.9</ele>
        <time>2021-03-14T08:39:39Z</time>
      </trkpt>
      <trkpt lat="44.77259" lon="5.12709">
        <ele>353.42</ele>
        <time>2021-03-14T08:39:55Z</time>
      </trkpt>
      <trkpt lat="44.77242" lon="5.12711">
        <ele>352.46</ele>
        <time>2021-03-14T08:40:11Z</time>
      </trkpt>
      <trkpt lat="44.77241" lon="5.1271">
        <ele>352.46</ele>
        <time>2021-03-14T08:40:12Z</time>
      </trkpt>
      <trkpt lat="44.7724" lon="5.12704">
        <ele>351.98</ele>
        <time>2021-03-14T08:40:16Z</time>
      </trkpt>
      <trkpt lat="44.77243" lon="5.12674">
        <ele>351.02</ele>
        <time>2021-03-14T08:40:35Z</time>
      </trkpt>
      <trkpt lat="44.77245" lon="5.12639">
        <ele>349.58</ele>
        <time>2021-03-14T08:40:55Z</time>
      </trkpt>
      <trkpt lat="44.77245" lon="5.12635">
        <ele>351.02</ele>
        <time>2021-03-14T08:40:57Z</time>
      </trkpt>
      <trkpt lat="44.77244" lon="5.1263">
        <ele>349.58</ele>
        <time>2021-03-14T08:41:00Z</time>
      </trkpt>
      <trkpt lat="44.77245" lon="5.12623">
        <ele>351.02</ele>
        <time>2021-03-14T08:41:04Z</time>
      </trkpt>
      <trkpt lat="44.77247" lon="5.12593">
        <ele>350.06</ele>
        <time>2021-03-14T08:41:23Z</time>
      </trkpt>
      <trkpt lat="44.77247" lon="5.12581">
        <ele>349.58</ele>
        <time>2021-03-14T08:41:30Z</time>
      </trkpt>
      <trkpt lat="44.77249" lon="5.1255">
        <ele>349.58</ele>
        <time>2021-03-14T08:41:47Z</time>
      </trkpt>
      <trkpt lat="44.7725" lon="5.12517">
        <ele>348.62</ele>
        <time>2021-03-14T08:42:05Z</time>
      </trkpt>
      <trkpt lat="44.77253" lon="5.12477">
        <ele>346.21</ele>
        <time>2021-03-14T08:42:27Z</time>
      </trkpt>
      <trkpt lat="44.77255" lon="5.1245">
        <ele>345.25</ele>
        <time>2021-03-14T08:42:43Z</time>
      </trkpt>
      <trkpt lat="44.77258" lon="5.12415">
        <ele>345.25</ele>
        <time>2021-03-14T08:43:02Z</time>
      </trkpt>
      <trkpt lat="44.77261" lon="5.12377">
        <ele>343.33</ele>
        <time>2021-03-14T08:43:23Z</time>
      </trkpt>
      <trkpt lat="44.77262" lon="5.12346">
        <ele>341.89</ele>
        <time>2021-03-14T08:43:40Z</time>
      </trkpt>
      <trkpt lat="44.77262" lon="5.12316">
        <ele>342.37</ele>
        <time>2021-03-14T08:43:56Z</time>
      </trkpt>
      <trkpt lat="44.77256" lon="5.12284">
        <ele>342.85</ele>
        <time>2021-03-14T08:44:15Z</time>
      </trkpt>
      <trkpt lat="44.77253" lon="5.12275">
        <ele>341.41</ele>
        <time>2021-03-14T08:44:20Z</time>
      </trkpt>
      <trkpt lat="44.77242" lon="5.12243">
        <ele>341.89</ele>
        <time>2021-03-14T08:44:39Z</time>
      </trkpt>
      <trkpt lat="44.77237" lon="5.12231">
        <ele>342.85</ele>
        <time>2021-03-14T08:44:47Z</time>
      </trkpt>
      <trkpt lat="44.77234" lon="5.12226">
        <ele>341.89</ele>
        <time>2021-03-14T08:44:51Z</time>
      </trkpt>
      <trkpt lat="44.77217" lon="5.12212">
        <ele>343.33</ele>
        <time>2021-03-14T08:45:07Z</time>
      </trkpt>
      <trkpt lat="44.77195" lon="5.12206">
        <ele>344.77</ele>
        <time>2021-03-14T08:45:26Z</time>
      </trkpt>
      <trkpt lat="44.77171" lon="5.12204">
        <ele>345.25</ele>
        <time>2021-03-14T08:45:46Z</time>
      </trkpt>
      <trkpt lat="44.77147" lon="5.12202">
        <ele>346.21</ele>
        <time>2021-03-14T08:46:05Z</time>
      </trkpt>
      <trkpt lat="44.77143" lon="5.12198">
        <ele>345.25</ele>
        <time>2021-03-14T08:46:21Z</time>
      </trkpt>
      <trkpt lat="44.77139" lon="5.12189">
        <ele>346.69</ele>
        <time>2021-03-14T08:46:32Z</time>
      </trkpt>
      <trkpt lat="44.77127" lon="5.12177">
        <ele>347.65</ele>
        <time>2021-03-14T08:46:47Z</time>
      </trkpt>
      <trkpt lat="44.77116" lon="5.12167">
        <ele>349.1</ele>
        <time>2021-03-14T08:47:01Z</time>
      </trkpt>
      <trkpt lat="44.77103" lon="5.12158">
        <ele>351.02</ele>
        <time>2021-03-14T08:47:17Z</time>
      </trkpt>
      <trkpt lat="44.77088" lon="5.12148">
        <ele>353.9</ele>
        <time>2021-03-14T08:47:33Z</time>
      </trkpt>
      <trkpt lat="44.77073" lon="5.12146">
        <ele>355.83</ele>
        <time>2021-03-14T08:47:50Z</time>
      </trkpt>
      <trkpt lat="44.77057" lon="5.12142">
        <ele>357.27</ele>
        <time>2021-03-14T08:48:04Z</time>
      </trkpt>
      <trkpt lat="44.7704" lon="5.12133">
        <ele>358.71</ele>
        <time>2021-03-14T08:48:20Z</time>
      </trkpt>
      <trkpt lat="44.77024" lon="5.12119">
        <ele>361.11</ele>
        <time>2021-03-14T08:48:37Z</time>
      </trkpt>
      <trkpt lat="44.7701" lon="5.12109">
        <ele>362.55</ele>
        <time>2021-03-14T08:48:52Z</time>
      </trkpt>
      <trkpt lat="44.76996" lon="5.121">
        <ele>364.48</ele>
        <time>2021-03-14T08:49:07Z</time>
      </trkpt>
      <trkpt lat="44.76981" lon="5.12091">
        <ele>365.44</ele>
        <time>2021-03-14T08:49:23Z</time>
      </trkpt>
      <trkpt lat="44.76967" lon="5.12081">
        <ele>366.88</ele>
        <time>2021-03-14T08:49:38Z</time>
      </trkpt>
      <trkpt lat="44.76952" lon="5.12069">
        <ele>368.32</ele>
        <time>2021-03-14T08:49:54Z</time>
      </trkpt>
      <trkpt lat="44.76935" lon="5.12058">
        <ele>369.28</ele>
        <time>2021-03-14T08:50:11Z</time>
      </trkpt>
      <trkpt lat="44.7692" lon="5.12043">
        <ele>370.24</ele>
        <time>2021-03-14T08:50:28Z</time>
      </trkpt>
      <trkpt lat="44.76906" lon="5.12029">
        <ele>372.65</ele>
        <time>2021-03-14T08:50:44Z</time>
      </trkpt>
      <trkpt lat="44.76894" lon="5.12011">
        <ele>374.09</ele>
        <time>2021-03-14T08:51:02Z</time>
      </trkpt>
      <trkpt lat="44.76882" lon="5.11996">
        <ele>376.01</ele>
        <time>2021-03-14T08:51:19Z</time>
      </trkpt>
      <trkpt lat="44.7687" lon="5.11981">
        <ele>377.94</ele>
        <time>2021-03-14T08:51:35Z</time>
      </trkpt>
      <trkpt lat="44.76858" lon="5.11963">
        <ele>379.38</ele>
        <time>2021-03-14T08:51:51Z</time>
      </trkpt>
      <trkpt lat="44.76847" lon="5.11949">
        <ele>380.34</ele>
        <time>2021-03-14T08:52:05Z</time>
      </trkpt>
      <trkpt lat="44.76836" lon="5.11929">
        <ele>382.74</ele>
        <time>2021-03-14T08:52:23Z</time>
      </trkpt>
      <trkpt lat="44.7682" lon="5.11914">
        <ele>383.22</ele>
        <time>2021-03-14T08:52:41Z</time>
      </trkpt>
      <trkpt lat="44.76802" lon="5.1191">
        <ele>383.22</ele>
        <time>2021-03-14T08:53:00Z</time>
      </trkpt>
      <trkpt lat="44.76795" lon="5.11909">
        <ele>383.22</ele>
        <time>2021-03-14T08:53:07Z</time>
      </trkpt>
      <trkpt lat="44.76788" lon="5.11901">
        <ele>384.18</ele>
        <time>2021-03-14T08:53:23Z</time>
      </trkpt>
      <trkpt lat="44.76786" lon="5.11901">
        <ele>384.18</ele>
        <time>2021-03-14T08:53:45Z</time>
      </trkpt>
      <trkpt lat="44.76784" lon="5.119">
        <ele>385.15</ele>
        <time>2021-03-14T08:59:11Z</time>
      </trkpt>
      <trkpt lat="44.76782" lon="5.11884">
        <ele>385.15</ele>
        <time>2021-03-14T08:59:25Z</time>
      </trkpt>
      <trkpt lat="44.76778" lon="5.11869">
        <ele>388.03</ele>
        <time>2021-03-14T08:59:39Z</time>
      </trkpt>
      <trkpt lat="44.76776" lon="5.11855">
        <ele>389.95</ele>
        <time>2021-03-14T08:59:50Z</time>
      </trkpt>
      <trkpt lat="44.76776" lon="5.11844">
        <ele>389.95</ele>
        <time>2021-03-14T08:59:59Z</time>
      </trkpt>
      <trkpt lat="44.76775" lon="5.11819">
        <ele>389.95</ele>
        <time>2021-03-14T09:00:16Z</time>
      </trkpt>
      <trkpt lat="44.76774" lon="5.11793">
        <ele>390.43</ele>
        <time>2021-03-14T09:00:33Z</time>
      </trkpt>
      <trkpt lat="44.76776" lon="5.11767">
        <ele>390.43</ele>
        <time>2021-03-14T09:00:50Z</time>
      </trkpt>
      <trkpt lat="44.76777" lon="5.11764">
        <ele>390.43</ele>
        <time>2021-03-14T09:00:53Z</time>
      </trkpt>
      <trkpt lat="44.76788" lon="5.11755">
        <ele>390.91</ele>
        <time>2021-03-14T09:01:05Z</time>
      </trkpt>
      <trkpt lat="44.7681" lon="5.11745">
        <ele>391.39</ele>
        <time>2021-03-14T09:01:26Z</time>
      </trkpt>
      <trkpt lat="44.76816" lon="5.11742">
        <ele>392.84</ele>
        <time>2021-03-14T09:01:41Z</time>
      </trkpt>
      <trkpt lat="44.76819" lon="5.11741">
        <ele>392.84</ele>
        <time>2021-03-14T09:02:01Z</time>
      </trkpt>
      <trkpt lat="44.76831" lon="5.11735">
        <ele>393.32</ele>
        <time>2021-03-14T09:02:18Z</time>
      </trkpt>
      <trkpt lat="44.76837" lon="5.1172">
        <ele>394.76</ele>
        <time>2021-03-14T09:02:33Z</time>
      </trkpt>
      <trkpt lat="44.76841" lon="5.11715">
        <ele>395.72</ele>
        <time>2021-03-14T09:02:48Z</time>
      </trkpt>
      <trkpt lat="44.76847" lon="5.11718">
        <ele>395.72</ele>
        <time>2021-03-14T09:02:55Z</time>
      </trkpt>
      <trkpt lat="44.7685" lon="5.11716">
        <ele>395.72</ele>
        <time>2021-03-14T09:02:59Z</time>
      </trkpt>
      <trkpt lat="44.76855" lon="5.11712">
        <ele>397.16</ele>
        <time>2021-03-14T09:03:06Z</time>
      </trkpt>
      <trkpt lat="44.76865" lon="5.11699">
        <ele>398.6</ele>
        <time>2021-03-14T09:03:20Z</time>
      </trkpt>
      <trkpt lat="44.76869" lon="5.11694">
        <ele>398.6</ele>
        <time>2021-03-14T09:03:24Z</time>
      </trkpt>
      <trkpt lat="44.76875" lon="5.11688">
        <ele>399.57</ele>
        <time>2021-03-14T09:03:30Z</time>
      </trkpt>
      <trkpt lat="44.76885" lon="5.11673">
        <ele>401.49</ele>
        <time>2021-03-14T09:03:45Z</time>
      </trkpt>
      <trkpt lat="44.76893" lon="5.1166">
        <ele>402.93</ele>
        <time>2021-03-14T09:03:59Z</time>
      </trkpt>
      <trkpt lat="44.76896" lon="5.11655">
        <ele>404.37</ele>
        <time>2021-03-14T09:04:05Z</time>
      </trkpt>
      <trkpt lat="44.76905" lon="5.11646">
        <ele>406.77</ele>
        <time>2021-03-14T09:04:18Z</time>
      </trkpt>
      <trkpt lat="44.76918" lon="5.11638">
        <ele>408.7</ele>
        <time>2021-03-14T09:04:34Z</time>
      </trkpt>
      <trkpt lat="44.76927" lon="5.11632">
        <ele>411.1</ele>
        <time>2021-03-14T09:04:45Z</time>
      </trkpt>
      <trkpt lat="44.76936" lon="5.11626">
        <ele>413.5</ele>
        <time>2021-03-14T09:04:57Z</time>
      </trkpt>
      <trkpt lat="44.76945" lon="5.11616">
        <ele>414.95</ele>
        <time>2021-03-14T09:05:11Z</time>
      </trkpt>
      <trkpt lat="44.76949" lon="5.1161">
        <ele>415.91</ele>
        <time>2021-03-14T09:05:19Z</time>
      </trkpt>
      <trkpt lat="44.76958" lon="5.116">
        <ele>418.79</ele>
        <time>2021-03-14T09:05:34Z</time>
      </trkpt>
      <trkpt lat="44.76964" lon="5.11592">
        <ele>419.75</ele>
        <time>2021-03-14T09:05:44Z</time>
      </trkpt>
      <trkpt lat="44.76967" lon="5.11585">
        <ele>420.23</ele>
        <time>2021-03-14T09:05:50Z</time>
      </trkpt>
      <trkpt lat="44.76974" lon="5.11578">
        <ele>421.68</ele>
        <time>2021-03-14T09:06:00Z</time>
      </trkpt>
      <trkpt lat="44.76977" lon="5.11568">
        <ele>423.6</ele>
        <time>2021-03-14T09:06:08Z</time>
      </trkpt>
      <trkpt lat="44.76971" lon="5.11548">
        <ele>423.6</ele>
        <time>2021-03-14T09:06:21Z</time>
      </trkpt>
      <trkpt lat="44.76957" lon="5.11529">
        <ele>423.6</ele>
        <time>2021-03-14T09:06:40Z</time>
      </trkpt>
      <trkpt lat="44.76947" lon="5.11515">
        <ele>425.04</ele>
        <time>2021-03-14T09:06:56Z</time>
      </trkpt>
      <trkpt lat="44.76948" lon="5.11501">
        <ele>427.44</ele>
        <time>2021-03-14T09:07:09Z</time>
      </trkpt>
      <trkpt lat="44.76958" lon="5.11485">
        <ele>430.33</ele>
        <time>2021-03-14T09:07:28Z</time>
      </trkpt>
      <trkpt lat="44.76966" lon="5.11473">
        <ele>432.73</ele>
        <time>2021-03-14T09:07:43Z</time>
      </trkpt>
      <trkpt lat="44.76974" lon="5.11459">
        <ele>434.65</ele>
        <time>2021-03-14T09:07:58Z</time>
      </trkpt>
      <trkpt lat="44.76977" lon="5.11455">
        <ele>435.13</ele>
        <time>2021-03-14T09:08:02Z</time>
      </trkpt>
      <trkpt lat="44.76985" lon="5.11443">
        <ele>438.02</ele>
        <time>2021-03-14T09:08:16Z</time>
      </trkpt>
      <trkpt lat="44.76994" lon="5.11428">
        <ele>438.98</ele>
        <time>2021-03-14T09:08:32Z</time>
      </trkpt>
      <trkpt lat="44.77002" lon="5.11414">
        <ele>440.9</ele>
        <time>2021-03-14T09:08:46Z</time>
      </trkpt>
      <trkpt lat="44.77011" lon="5.114">
        <ele>442.34</ele>
        <time>2021-03-14T09:09:02Z</time>
      </trkpt>
      <trkpt lat="44.77019" lon="5.11386">
        <ele>445.71</ele>
        <time>2021-03-14T09:09:16Z</time>
      </trkpt>
      <trkpt lat="44.77023" lon="5.11378">
        <ele>446.19</ele>
        <time>2021-03-14T09:09:25Z</time>
      </trkpt>
      <trkpt lat="44.77034" lon="5.11367">
        <ele>450.03</ele>
        <time>2021-03-14T09:09:41Z</time>
      </trkpt>
      <trkpt lat="44.77035" lon="5.11367">
        <ele>450.03</ele>
        <time>2021-03-14T09:09:42Z</time>
      </trkpt>
      <trkpt lat="44.77036" lon="5.11366">
        <ele>448.59</ele>
        <time>2021-03-14T09:09:44Z</time>
      </trkpt>
      <trkpt lat="44.77047" lon="5.1136">
        <ele>451.96</ele>
        <time>2021-03-14T09:09:57Z</time>
      </trkpt>
      <trkpt lat="44.77056" lon="5.1135">
        <ele>452.92</ele>
        <time>2021-03-14T09:10:14Z</time>
      </trkpt>
      <trkpt lat="44.77059" lon="5.11336">
        <ele>453.4</ele>
        <time>2021-03-14T09:10:26Z</time>
      </trkpt>
      <trkpt lat="44.77067" lon="5.11314">
        <ele>456.28</ele>
        <time>2021-03-14T09:10:45Z</time>
      </trkpt>
      <trkpt lat="44.77069" lon="5.11291">
        <ele>458.21</ele>
        <time>2021-03-14T09:11:02Z</time>
      </trkpt>
      <trkpt lat="44.7707" lon="5.11284">
        <ele>458.69</ele>
        <time>2021-03-14T09:11:07Z</time>
      </trkpt>
      <trkpt lat="44.7707" lon="5.11268">
        <ele>460.61</ele>
        <time>2021-03-14T09:11:22Z</time>
      </trkpt>
      <trkpt lat="44.77067" lon="5.11254">
        <ele>463.01</ele>
        <time>2021-03-14T09:11:37Z</time>
      </trkpt>
      <trkpt lat="44.77064" lon="5.11242">
        <ele>465.42</ele>
        <time>2021-03-14T09:11:51Z</time>
      </trkpt>
      <trkpt lat="44.77059" lon="5.11224">
        <ele>466.86</ele>
        <time>2021-03-14T09:12:07Z</time>
      </trkpt>
      <trkpt lat="44.77055" lon="5.11213">
        <ele>470.22</ele>
        <time>2021-03-14T09:12:19Z</time>
      </trkpt>
      <trkpt lat="44.77055" lon="5.11206">
        <ele>470.22</ele>
        <time>2021-03-14T09:12:34Z</time>
      </trkpt>
      <trkpt lat="44.77054" lon="5.1119">
        <ele>472.63</ele>
        <time>2021-03-14T09:12:54Z</time>
      </trkpt>
      <trkpt lat="44.77055" lon="5.11186">
        <ele>473.59</ele>
        <time>2021-03-14T09:13:11Z</time>
      </trkpt>
      <trkpt lat="44.77053" lon="5.11183">
        <ele>474.07</ele>
        <time>2021-03-14T09:13:47Z</time>
      </trkpt>
      <trkpt lat="44.77046" lon="5.11172">
        <ele>476.95</ele>
        <time>2021-03-14T09:13:57Z</time>
      </trkpt>
      <trkpt lat="44.77044" lon="5.1117">
        <ele>477.91</ele>
        <time>2021-03-14T09:13:59Z</time>
      </trkpt>
      <trkpt lat="44.77036" lon="5.11154">
        <ele>478.39</ele>
        <time>2021-03-14T09:14:14Z</time>
      </trkpt>
      <trkpt lat="44.77034" lon="5.11134">
        <ele>480.8</ele>
        <time>2021-03-14T09:14:30Z</time>
      </trkpt>
      <trkpt lat="44.77033" lon="5.11128">
        <ele>483.2</ele>
        <time>2021-03-14T09:14:35Z</time>
      </trkpt>
      <trkpt lat="44.77033" lon="5.11126">
        <ele>483.2</ele>
        <time>2021-03-14T09:14:37Z</time>
      </trkpt>
      <trkpt lat="44.77034" lon="5.11104">
        <ele>486.08</ele>
        <time>2021-03-14T09:14:54Z</time>
      </trkpt>
      <trkpt lat="44.77036" lon="5.11089">
        <ele>489.45</ele>
        <time>2021-03-14T09:15:09Z</time>
      </trkpt>
      <trkpt lat="44.77038" lon="5.11083">
        <ele>488.01</ele>
        <time>2021-03-14T09:15:15Z</time>
      </trkpt>
      <trkpt lat="44.77039" lon="5.11078">
        <ele>490.89</ele>
        <time>2021-03-14T09:15:25Z</time>
      </trkpt>
      <trkpt lat="44.77039" lon="5.11076">
        <ele>490.41</ele>
        <time>2021-03-14T09:15:32Z</time>
      </trkpt>
      <trkpt lat="44.77041" lon="5.11075">
        <ele>490.89</ele>
        <time>2021-03-14T09:16:05Z</time>
      </trkpt>
      <trkpt lat="44.77049" lon="5.11069">
        <ele>490.89</ele>
        <time>2021-03-14T09:16:22Z</time>
      </trkpt>
      <trkpt lat="44.77057" lon="5.11065">
        <ele>491.37</ele>
        <time>2021-03-14T09:16:35Z</time>
      </trkpt>
      <trkpt lat="44.77068" lon="5.11055">
        <ele>492.33</ele>
        <time>2021-03-14T09:16:54Z</time>
      </trkpt>
      <trkpt lat="44.77075" lon="5.11051">
        <ele>492.81</ele>
        <time>2021-03-14T09:17:04Z</time>
      </trkpt>
      <trkpt lat="44.77084" lon="5.11051">
        <ele>495.7</ele>
        <time>2021-03-14T09:17:13Z</time>
      </trkpt>
      <trkpt lat="44.77085" lon="5.11051">
        <ele>494.26</ele>
        <time>2021-03-14T09:17:15Z</time>
      </trkpt>
      <trkpt lat="44.77089" lon="5.11051">
        <ele>495.7</ele>
        <time>2021-03-14T09:17:21Z</time>
      </trkpt>
      <trkpt lat="44.77097" lon="5.11051">
        <ele>496.66</ele>
        <time>2021-03-14T09:17:34Z</time>
      </trkpt>
      <trkpt lat="44.77105" lon="5.11048">
        <ele>497.14</ele>
        <time>2021-03-14T09:17:47Z</time>
      </trkpt>
      <trkpt lat="44.77112" lon="5.11033">
        <ele>499.54</ele>
        <time>2021-03-14T09:18:03Z</time>
      </trkpt>
      <trkpt lat="44.77113" lon="5.11026">
        <ele>499.54</ele>
        <time>2021-03-14T09:18:10Z</time>
      </trkpt>
      <trkpt lat="44.77114" lon="5.11008">
        <ele>500.98</ele>
        <time>2021-03-14T09:18:24Z</time>
      </trkpt>
      <trkpt lat="44.77114" lon="5.10988">
        <ele>503.39</ele>
        <time>2021-03-14T09:18:42Z</time>
      </trkpt>
      <trkpt lat="44.77114" lon="5.10987">
        <ele>503.87</ele>
        <time>2021-03-14T09:19:21Z</time>
      </trkpt>
      <trkpt lat="44.77114" lon="5.10987">
        <ele>502.43</ele>
        <time>2021-03-14T09:19:41Z</time>
      </trkpt>
      <trkpt lat="44.77114" lon="5.10987">
        <ele>503.87</ele>
        <time>2021-03-14T09:19:43Z</time>
      </trkpt>
      <trkpt lat="44.77112" lon="5.10984">
        <ele>504.35</ele>
        <time>2021-03-14T09:20:05Z</time>
      </trkpt>
      <trkpt lat="44.771" lon="5.10976">
        <ele>505.79</ele>
        <time>2021-03-14T09:20:22Z</time>
      </trkpt>
      <trkpt lat="44.77083" lon="5.1097">
        <ele>506.75</ele>
        <time>2021-03-14T09:20:39Z</time>
      </trkpt>
      <trkpt lat="44.77064" lon="5.10965">
        <ele>507.23</ele>
        <time>2021-03-14T09:20:58Z</time>
      </trkpt>
      <trkpt lat="44.77046" lon="5.10962">
        <ele>509.16</ele>
        <time>2021-03-14T09:21:15Z</time>
      </trkpt>
      <trkpt lat="44.7703" lon="5.10958">
        <ele>510.12</ele>
        <time>2021-03-14T09:21:33Z</time>
      </trkpt>
      <trkpt lat="44.77019" lon="5.10955">
        <ele>510.12</ele>
        <time>2021-03-14T09:21:50Z</time>
      </trkpt>
      <trkpt lat="44.77005" lon="5.10952">
        <ele>511.08</ele>
        <time>2021-03-14T09:22:05Z</time>
      </trkpt>
      <trkpt lat="44.76987" lon="5.10943">
        <ele>511.08</ele>
        <time>2021-03-14T09:22:24Z</time>
      </trkpt>
      <trkpt lat="44.76979" lon="5.10935">
        <ele>511.08</ele>
        <time>2021-03-14T09:22:38Z</time>
      </trkpt>
      <trkpt lat="44.76966" lon="5.10926">
        <ele>508.19</ele>
        <time>2021-03-14T09:22:55Z</time>
      </trkpt>
      <trkpt lat="44.76947" lon="5.10915">
        <ele>508.19</ele>
        <time>2021-03-14T09:23:13Z</time>
      </trkpt>
      <trkpt lat="44.76934" lon="5.10906">
        <ele>507.71</ele>
        <time>2021-03-14T09:23:27Z</time>
      </trkpt>
      <trkpt lat="44.76917" lon="5.10896">
        <ele>505.79</ele>
        <time>2021-03-14T09:23:43Z</time>
      </trkpt>
      <trkpt lat="44.76899" lon="5.10881">
        <ele>504.83</ele>
        <time>2021-03-14T09:24:01Z</time>
      </trkpt>
      <trkpt lat="44.76882" lon="5.10867">
        <ele>503.87</ele>
        <time>2021-03-14T09:24:18Z</time>
      </trkpt>
      <trkpt lat="44.76867" lon="5.10859">
        <ele>501.95</ele>
        <time>2021-03-14T09:24:37Z</time>
      </trkpt>
      <trkpt lat="44.76867" lon="5.10859">
        <ele>503.39</ele>
        <time>2021-03-14T09:24:39Z</time>
      </trkpt>
      <trkpt lat="44.76863" lon="5.10858">
        <ele>503.87</ele>
        <time>2021-03-14T09:24:44Z</time>
      </trkpt>
      <trkpt lat="44.7684" lon="5.10853">
        <ele>500.98</ele>
        <time>2021-03-14T09:25:01Z</time>
      </trkpt>
      <trkpt lat="44.76816" lon="5.10854">
        <ele>498.58</ele>
        <time>2021-03-14T09:25:21Z</time>
      </trkpt>
      <trkpt lat="44.76795" lon="5.10853">
        <ele>495.7</ele>
        <time>2021-03-14T09:25:40Z</time>
      </trkpt>
      <trkpt lat="44.76784" lon="5.10855">
        <ele>494.26</ele>
        <time>2021-03-14T09:25:55Z</time>
      </trkpt>
      <trkpt lat="44.7677" lon="5.10855">
        <ele>494.26</ele>
        <time>2021-03-14T09:26:11Z</time>
      </trkpt>
      <trkpt lat="44.76747" lon="5.10855">
        <ele>492.33</ele>
        <time>2021-03-14T09:26:30Z</time>
      </trkpt>
      <trkpt lat="44.76727" lon="5.10853">
        <ele>491.37</ele>
        <time>2021-03-14T09:26:49Z</time>
      </trkpt>
      <trkpt lat="44.76707" lon="5.10854">
        <ele>489.45</ele>
        <time>2021-03-14T09:27:07Z</time>
      </trkpt>
      <trkpt lat="44.76691" lon="5.10863">
        <ele>486.08</ele>
        <time>2021-03-14T09:27:21Z</time>
      </trkpt>
      <trkpt lat="44.76675" lon="5.10862">
        <ele>484.64</ele>
        <time>2021-03-14T09:28:09Z</time>
      </trkpt>
      <trkpt lat="44.76672" lon="5.10861">
        <ele>485.12</ele>
        <time>2021-03-14T09:28:16Z</time>
      </trkpt>
      <trkpt lat="44.7667" lon="5.10858">
        <ele>483.2</ele>
        <time>2021-03-14T09:28:18Z</time>
      </trkpt>
      <trkpt lat="44.76666" lon="5.10858">
        <ele>484.64</ele>
        <time>2021-03-14T09:28:23Z</time>
      </trkpt>
      <trkpt lat="44.76664" lon="5.10857">
        <ele>486.08</ele>
        <time>2021-03-14T09:28:26Z</time>
      </trkpt>
      <trkpt lat="44.76648" lon="5.10849">
        <ele>484.64</ele>
        <time>2021-03-14T09:28:41Z</time>
      </trkpt>
      <trkpt lat="44.76631" lon="5.10837">
        <ele>483.68</ele>
        <time>2021-03-14T09:28:58Z</time>
      </trkpt>
      <trkpt lat="44.76612" lon="5.10825">
        <ele>483.2</ele>
        <time>2021-03-14T09:29:17Z</time>
      </trkpt>
      <trkpt lat="44.76597" lon="5.10808">
        <ele>483.2</ele>
        <time>2021-03-14T09:29:36Z</time>
      </trkpt>
      <trkpt lat="44.76583" lon="5.10791">
        <ele>480.8</ele>
        <time>2021-03-14T09:29:52Z</time>
      </trkpt>
      <trkpt lat="44.76582" lon="5.1079">
        <ele>480.8</ele>
        <time>2021-03-14T09:29:53Z</time>
      </trkpt>
      <trkpt lat="44.7658" lon="5.10785">
        <ele>480.8</ele>
        <time>2021-03-14T09:29:57Z</time>
      </trkpt>
      <trkpt lat="44.76577" lon="5.10773">
        <ele>480.8</ele>
        <time>2021-03-14T09:30:15Z</time>
      </trkpt>
      <trkpt lat="44.76576" lon="5.10768">
        <ele>480.8</ele>
        <time>2021-03-14T09:30:38Z</time>
      </trkpt>
      <trkpt lat="44.76577" lon="5.10759">
        <ele>480.8</ele>
        <time>2021-03-14T09:30:52Z</time>
      </trkpt>
      <trkpt lat="44.76579" lon="5.10741">
        <ele>480.8</ele>
        <time>2021-03-14T09:31:08Z</time>
      </trkpt>
      <trkpt lat="44.76581" lon="5.10724">
        <ele>480.8</ele>
        <time>2021-03-14T09:31:23Z</time>
      </trkpt>
      <trkpt lat="44.76585" lon="5.10709">
        <ele>484.16</ele>
        <time>2021-03-14T09:31:36Z</time>
      </trkpt>
      <trkpt lat="44.76589" lon="5.10692">
        <ele>486.56</ele>
        <time>2021-03-14T09:31:52Z</time>
      </trkpt>
      <trkpt lat="44.76593" lon="5.10679">
        <ele>487.05</ele>
        <time>2021-03-14T09:32:11Z</time>
      </trkpt>
      <trkpt lat="44.76594" lon="5.10658">
        <ele>487.05</ele>
        <time>2021-03-14T09:32:28Z</time>
      </trkpt>
      <trkpt lat="44.76593" lon="5.10651">
        <ele>488.01</ele>
        <time>2021-03-14T09:32:34Z</time>
      </trkpt>
      <trkpt lat="44.7659" lon="5.10633">
        <ele>490.89</ele>
        <time>2021-03-14T09:32:50Z</time>
      </trkpt>
      <trkpt lat="44.76588" lon="5.10619">
        <ele>490.89</ele>
        <time>2021-03-14T09:33:04Z</time>
      </trkpt>
      <trkpt lat="44.76579" lon="5.10603">
        <ele>491.85</ele>
        <time>2021-03-14T09:33:20Z</time>
      </trkpt>
      <trkpt lat="44.76567" lon="5.10584">
        <ele>493.77</ele>
        <time>2021-03-14T09:33:38Z</time>
      </trkpt>
      <trkpt lat="44.76562" lon="5.10565">
        <ele>495.22</ele>
        <time>2021-03-14T09:33:54Z</time>
      </trkpt>
      <trkpt lat="44.76555" lon="5.10549">
        <ele>498.1</ele>
        <time>2021-03-14T09:34:09Z</time>
      </trkpt>
      <trkpt lat="44.76547" lon="5.10537">
        <ele>498.58</ele>
        <time>2021-03-14T09:34:23Z</time>
      </trkpt>
      <trkpt lat="44.76537" lon="5.10524">
        <ele>500.98</ele>
        <time>2021-03-14T09:34:39Z</time>
      </trkpt>
      <trkpt lat="44.76525" lon="5.10515">
        <ele>501.95</ele>
        <time>2021-03-14T09:34:54Z</time>
      </trkpt>
      <trkpt lat="44.76519" lon="5.10507">
        <ele>502.91</ele>
        <time>2021-03-14T09:35:02Z</time>
      </trkpt>
      <trkpt lat="44.76515" lon="5.10493">
        <ele>504.83</ele>
        <time>2021-03-14T09:35:18Z</time>
      </trkpt>
      <trkpt lat="44.76515" lon="5.10492">
        <ele>502.91</ele>
        <time>2021-03-14T09:36:38Z</time>
      </trkpt>
      <trkpt lat="44.76517" lon="5.10494">
        <ele>504.35</ele>
        <time>2021-03-14T09:36:53Z</time>
      </trkpt>
      <trkpt lat="44.76517" lon="5.10497">
        <ele>504.35</ele>
        <time>2021-03-14T09:37:12Z</time>
      </trkpt>
      <trkpt lat="44.76518" lon="5.10502">
        <ele>503.39</ele>
        <time>2021-03-14T09:37:27Z</time>
      </trkpt>
      <trkpt lat="44.76521" lon="5.10506">
        <ele>503.39</ele>
        <time>2021-03-14T09:38:40Z</time>
      </trkpt>
      <trkpt lat="44.76526" lon="5.10508">
        <ele>504.83</ele>
        <time>2021-03-14T09:38:56Z</time>
      </trkpt>
      <trkpt lat="44.76535" lon="5.1051">
        <ele>507.71</ele>
        <time>2021-03-14T09:39:11Z</time>
      </trkpt>
      <trkpt lat="44.76541" lon="5.10504">
        <ele>510.6</ele>
        <time>2021-03-14T09:39:28Z</time>
      </trkpt>
      <trkpt lat="44.76537" lon="5.10491">
        <ele>513.48</ele>
        <time>2021-03-14T09:39:43Z</time>
      </trkpt>
      <trkpt lat="44.76536" lon="5.10487">
        <ele>514.44</ele>
        <time>2021-03-14T09:39:48Z</time>
      </trkpt>
      <trkpt lat="44.76527" lon="5.10474">
        <ele>518.29</ele>
        <time>2021-03-14T09:40:07Z</time>
      </trkpt>
      <trkpt lat="44.76528" lon="5.10461">
        <ele>519.73</ele>
        <time>2021-03-14T09:40:21Z</time>
      </trkpt>
      <trkpt lat="44.76535" lon="5.10453">
        <ele>522.61</ele>
        <time>2021-03-14T09:40:35Z</time>
      </trkpt>
      <trkpt lat="44.76542" lon="5.10445">
        <ele>524.54</ele>
        <time>2021-03-14T09:40:48Z</time>
      </trkpt>
      <trkpt lat="44.76549" lon="5.1043">
        <ele>526.46</ele>
        <time>2021-03-14T09:41:03Z</time>
      </trkpt>
      <trkpt lat="44.76551" lon="5.1041">
        <ele>529.34</ele>
        <time>2021-03-14T09:41:20Z</time>
      </trkpt>
      <trkpt lat="44.76548" lon="5.10395">
        <ele>532.23</ele>
        <time>2021-03-14T09:41:36Z</time>
      </trkpt>
      <trkpt lat="44.76548" lon="5.10378">
        <ele>535.11</ele>
        <time>2021-03-14T09:41:50Z</time>
      </trkpt>
      <trkpt lat="44.76544" lon="5.10364">
        <ele>537.51</ele>
        <time>2021-03-14T09:42:06Z</time>
      </trkpt>
      <trkpt lat="44.76542" lon="5.10346">
        <ele>539.44</ele>
        <time>2021-03-14T09:42:22Z</time>
      </trkpt>
      <trkpt lat="44.76536" lon="5.10336">
        <ele>542.32</ele>
        <time>2021-03-14T09:42:37Z</time>
      </trkpt>
      <trkpt lat="44.76531" lon="5.10324">
        <ele>544.72</ele>
        <time>2021-03-14T09:42:53Z</time>
      </trkpt>
      <trkpt lat="44.76525" lon="5.10315">
        <ele>547.13</ele>
        <time>2021-03-14T09:43:06Z</time>
      </trkpt>
      <trkpt lat="44.76522" lon="5.10301">
        <ele>549.05</ele>
        <time>2021-03-14T09:43:22Z</time>
      </trkpt>
      <trkpt lat="44.76516" lon="5.10289">
        <ele>550.01</ele>
        <time>2021-03-14T09:43:37Z</time>
      </trkpt>
      <trkpt lat="44.76512" lon="5.1028">
        <ele>551.93</ele>
        <time>2021-03-14T09:43:49Z</time>
      </trkpt>
      <trkpt lat="44.7651" lon="5.10273">
        <ele>554.82</ele>
        <time>2021-03-14T09:43:58Z</time>
      </trkpt>
      <trkpt lat="44.76508" lon="5.1026">
        <ele>558.18</ele>
        <time>2021-03-14T09:44:11Z</time>
      </trkpt>
      <trkpt lat="44.76505" lon="5.10246">
        <ele>561.07</ele>
        <time>2021-03-14T09:44:29Z</time>
      </trkpt>
      <trkpt lat="44.76501" lon="5.10232">
        <ele>563.47</ele>
        <time>2021-03-14T09:44:45Z</time>
      </trkpt>
      <trkpt lat="44.76498" lon="5.10218">
        <ele>564.43</ele>
        <time>2021-03-14T09:44:59Z</time>
      </trkpt>
      <trkpt lat="44.76498" lon="5.10212">
        <ele>565.87</ele>
        <time>2021-03-14T09:45:05Z</time>
      </trkpt>
      <trkpt lat="44.76503" lon="5.10199">
        <ele>568.28</ele>
        <time>2021-03-14T09:45:21Z</time>
      </trkpt>
      <trkpt lat="44.76512" lon="5.10193">
        <ele>569.72</ele>
        <time>2021-03-14T09:45:35Z</time>
      </trkpt>
      <trkpt lat="44.76519" lon="5.1019">
        <ele>570.68</ele>
        <time>2021-03-14T09:45:52Z</time>
      </trkpt>
      <trkpt lat="44.7652" lon="5.10193">
        <ele>573.08</ele>
        <time>2021-03-14T09:45:59Z</time>
      </trkpt>
      <trkpt lat="44.7652" lon="5.10199">
        <ele>575.97</ele>
        <time>2021-03-14T09:46:13Z</time>
      </trkpt>
      <trkpt lat="44.76521" lon="5.10203">
        <ele>577.41</ele>
        <time>2021-03-14T09:46:28Z</time>
      </trkpt>
      <trkpt lat="44.76523" lon="5.10204">
        <ele>578.37</ele>
        <time>2021-03-14T09:46:46Z</time>
      </trkpt>
      <trkpt lat="44.76523" lon="5.10208">
        <ele>579.81</ele>
        <time>2021-03-14T09:46:55Z</time>
      </trkpt>
      <trkpt lat="44.76524" lon="5.10213">
        <ele>583.18</ele>
        <time>2021-03-14T09:47:06Z</time>
      </trkpt>
      <trkpt lat="44.76525" lon="5.10211">
        <ele>584.62</ele>
        <time>2021-03-14T09:47:09Z</time>
      </trkpt>
      <trkpt lat="44.7653" lon="5.10215">
        <ele>586.54</ele>
        <time>2021-03-14T09:47:26Z</time>
      </trkpt>
      <trkpt lat="44.76538" lon="5.10219">
        <ele>588.95</ele>
        <time>2021-03-14T09:47:43Z</time>
      </trkpt>
      <trkpt lat="44.76546" lon="5.10221">
        <ele>592.31</ele>
        <time>2021-03-14T09:47:58Z</time>
      </trkpt>
      <trkpt lat="44.76546" lon="5.1022">
        <ele>592.31</ele>
        <time>2021-03-14T09:47:59Z</time>
      </trkpt>
      <trkpt lat="44.7655" lon="5.10221">
        <ele>595.67</ele>
        <time>2021-03-14T09:48:05Z</time>
      </trkpt>
      <trkpt lat="44.76555" lon="5.10221">
        <ele>594.71</ele>
        <time>2021-03-14T09:48:14Z</time>
      </trkpt>
      <trkpt lat="44.76564" lon="5.10226">
        <ele>598.08</ele>
        <time>2021-03-14T09:48:31Z</time>
      </trkpt>
      <trkpt lat="44.76564" lon="5.10226">
        <ele>598.08</ele>
        <time>2021-03-14T09:48:32Z</time>
      </trkpt>
      <trkpt lat="44.76573" lon="5.10227">
        <ele>599.52</ele>
        <time>2021-03-14T09:48:46Z</time>
      </trkpt>
      <trkpt lat="44.76582" lon="5.1023">
        <ele>601.92</ele>
        <time>2021-03-14T09:49:01Z</time>
      </trkpt>
      <trkpt lat="44.7659" lon="5.10234">
        <ele>603.85</ele>
        <time>2021-03-14T09:49:16Z</time>
      </trkpt>
      <trkpt lat="44.76598" lon="5.10239">
        <ele>606.73</ele>
        <time>2021-03-14T09:49:28Z</time>
      </trkpt>
      <trkpt lat="44.76609" lon="5.10243">
        <ele>609.13</ele>
        <time>2021-03-14T09:49:43Z</time>
      </trkpt>
      <trkpt lat="44.76616" lon="5.10246">
        <ele>612.5</ele>
        <time>2021-03-14T09:49:56Z</time>
      </trkpt>
      <trkpt lat="44.76617" lon="5.10247">
        <ele>613.46</ele>
        <time>2021-03-14T09:49:58Z</time>
      </trkpt>
      <trkpt lat="44.76622" lon="5.10248">
        <ele>611.54</ele>
        <time>2021-03-14T09:50:04Z</time>
      </trkpt>
      <trkpt lat="44.76624" lon="5.10248">
        <ele>613.46</ele>
        <time>2021-03-14T09:50:06Z</time>
      </trkpt>
      <trkpt lat="44.76628" lon="5.10249">
        <ele>612.98</ele>
        <time>2021-03-14T09:50:11Z</time>
      </trkpt>
      <trkpt lat="44.76635" lon="5.10254">
        <ele>616.34</ele>
        <time>2021-03-14T09:50:22Z</time>
      </trkpt>
      <trkpt lat="44.76646" lon="5.1026">
        <ele>618.26</ele>
        <time>2021-03-14T09:50:37Z</time>
      </trkpt>
      <trkpt lat="44.76655" lon="5.1027">
        <ele>620.67</ele>
        <time>2021-03-14T09:50:53Z</time>
      </trkpt>
      <trkpt lat="44.76664" lon="5.10279">
        <ele>623.07</ele>
        <time>2021-03-14T09:51:09Z</time>
      </trkpt>
      <trkpt lat="44.76671" lon="5.10281">
        <ele>626.44</ele>
        <time>2021-03-14T09:51:25Z</time>
      </trkpt>
      <trkpt lat="44.76678" lon="5.10284">
        <ele>630.28</ele>
        <time>2021-03-14T09:51:40Z</time>
      </trkpt>
      <trkpt lat="44.76678" lon="5.10285">
        <ele>630.28</ele>
        <time>2021-03-14T09:51:41Z</time>
      </trkpt>
      <trkpt lat="44.76684" lon="5.10293">
        <ele>633.65</ele>
        <time>2021-03-14T09:51:56Z</time>
      </trkpt>
      <trkpt lat="44.76685" lon="5.10293">
        <ele>634.61</ele>
        <time>2021-03-14T09:51:58Z</time>
      </trkpt>
      <trkpt lat="44.7669" lon="5.10295">
        <ele>635.57</ele>
        <time>2021-03-14T09:52:11Z</time>
      </trkpt>
      <trkpt lat="44.76695" lon="5.10299">
        <ele>638.45</ele>
        <time>2021-03-14T09:52:23Z</time>
      </trkpt>
      <trkpt lat="44.76702" lon="5.10302">
        <ele>641.82</ele>
        <time>2021-03-14T09:52:36Z</time>
      </trkpt>
      <trkpt lat="44.7671" lon="5.10301">
        <ele>645.18</ele>
        <time>2021-03-14T09:52:51Z</time>
      </trkpt>
      <trkpt lat="44.76719" lon="5.10297">
        <ele>646.62</ele>
        <time>2021-03-14T09:53:08Z</time>
      </trkpt>
      <trkpt lat="44.76725" lon="5.10298">
        <ele>649.51</ele>
        <time>2021-03-14T09:53:20Z</time>
      </trkpt>
      <trkpt lat="44.76727" lon="5.10297">
        <ele>650.95</ele>
        <time>2021-03-14T09:53:25Z</time>
      </trkpt>
      <trkpt lat="44.76732" lon="5.10299">
        <ele>653.83</ele>
        <time>2021-03-14T09:53:39Z</time>
      </trkpt>
      <trkpt lat="44.76737" lon="5.10299">
        <ele>655.28</ele>
        <time>2021-03-14T09:53:48Z</time>
      </trkpt>
      <trkpt lat="44.76744" lon="5.10301">
        <ele>658.64</ele>
        <time>2021-03-14T09:54:03Z</time>
      </trkpt>
      <trkpt lat="44.76748" lon="5.10301">
        <ele>660.08</ele>
        <time>2021-03-14T09:54:12Z</time>
      </trkpt>
      <trkpt lat="44.76752" lon="5.10306">
        <ele>662.49</ele>
        <time>2021-03-14T09:54:26Z</time>
      </trkpt>
      <trkpt lat="44.76753" lon="5.10311">
        <ele>665.85</ele>
        <time>2021-03-14T09:54:38Z</time>
      </trkpt>
      <trkpt lat="44.76762" lon="5.10312">
        <ele>668.25</ele>
        <time>2021-03-14T09:54:52Z</time>
      </trkpt>
      <trkpt lat="44.76768" lon="5.10317">
        <ele>670.18</ele>
        <time>2021-03-14T09:55:10Z</time>
      </trkpt>
      <trkpt lat="44.76773" lon="5.10319">
        <ele>672.1</ele>
        <time>2021-03-14T09:55:23Z</time>
      </trkpt>
      <trkpt lat="44.76779" lon="5.10322">
        <ele>675.46</ele>
        <time>2021-03-14T09:55:34Z</time>
      </trkpt>
      <trkpt lat="44.76783" lon="5.10325">
        <ele>679.31</ele>
        <time>2021-03-14T09:55:50Z</time>
      </trkpt>
      <trkpt lat="44.76783" lon="5.10325">
        <ele>679.31</ele>
        <time>2021-03-14T09:55:51Z</time>
      </trkpt>
      <trkpt lat="44.76789" lon="5.10327">
        <ele>679.31</ele>
        <time>2021-03-14T09:56:03Z</time>
      </trkpt>
      <trkpt lat="44.76793" lon="5.10326">
        <ele>682.19</ele>
        <time>2021-03-14T09:56:17Z</time>
      </trkpt>
      <trkpt lat="44.76797" lon="5.1033">
        <ele>685.56</ele>
        <time>2021-03-14T09:56:30Z</time>
      </trkpt>
      <trkpt lat="44.768" lon="5.10335">
        <ele>685.08</ele>
        <time>2021-03-14T10:00:09Z</time>
      </trkpt>
      <trkpt lat="44.76802" lon="5.10334">
        <ele>687</ele>
        <time>2021-03-14T10:00:18Z</time>
      </trkpt>
      <trkpt lat="44.76803" lon="5.10334">
        <ele>685.56</ele>
        <time>2021-03-14T10:00:22Z</time>
      </trkpt>
      <trkpt lat="44.76806" lon="5.10331">
        <ele>687</ele>
        <time>2021-03-14T10:00:38Z</time>
      </trkpt>
      <trkpt lat="44.76808" lon="5.10327">
        <ele>687</ele>
        <time>2021-03-14T10:00:57Z</time>
      </trkpt>
      <trkpt lat="44.7681" lon="5.10326">
        <ele>685.56</ele>
        <time>2021-03-14T10:01:02Z</time>
      </trkpt>
      <trkpt lat="44.76816" lon="5.10323">
        <ele>682.19</ele>
        <time>2021-03-14T10:01:17Z</time>
      </trkpt>
      <trkpt lat="44.76818" lon="5.10324">
        <ele>681.23</ele>
        <time>2021-03-14T10:01:21Z</time>
      </trkpt>
      <trkpt lat="44.76828" lon="5.10337">
        <ele>682.19</ele>
        <time>2021-03-14T10:01:37Z</time>
      </trkpt>
      <trkpt lat="44.7683" lon="5.10344">
        <ele>683.63</ele>
        <time>2021-03-14T10:01:44Z</time>
      </trkpt>
      <trkpt lat="44.76837" lon="5.1035">
        <ele>687</ele>
        <time>2021-03-14T10:02:00Z</time>
      </trkpt>
      <trkpt lat="44.76844" lon="5.10352">
        <ele>687.48</ele>
        <time>2021-03-14T10:02:15Z</time>
      </trkpt>
      <trkpt lat="44.76847" lon="5.10354">
        <ele>689.4</ele>
        <time>2021-03-14T10:02:21Z</time>
      </trkpt>
      <trkpt lat="44.76854" lon="5.10365">
        <ele>692.77</ele>
        <time>2021-03-14T10:02:36Z</time>
      </trkpt>
      <trkpt lat="44.76864" lon="5.10369">
        <ele>694.21</ele>
        <time>2021-03-14T10:02:51Z</time>
      </trkpt>
      <trkpt lat="44.76868" lon="5.10369">
        <ele>693.25</ele>
        <time>2021-03-14T10:02:56Z</time>
      </trkpt>
      <trkpt lat="44.76872" lon="5.10372">
        <ele>695.17</ele>
        <time>2021-03-14T10:03:02Z</time>
      </trkpt>
      <trkpt lat="44.76883" lon="5.10375">
        <ele>696.61</ele>
        <time>2021-03-14T10:03:17Z</time>
      </trkpt>
      <trkpt lat="44.76893" lon="5.10379">
        <ele>699.02</ele>
        <time>2021-03-14T10:03:31Z</time>
      </trkpt>
      <trkpt lat="44.76903" lon="5.10383">
        <ele>700.46</ele>
        <time>2021-03-14T10:03:47Z</time>
      </trkpt>
      <trkpt lat="44.76912" lon="5.10386">
        <ele>702.86</ele>
        <time>2021-03-14T10:04:02Z</time>
      </trkpt>
      <trkpt lat="44.76918" lon="5.10387">
        <ele>705.26</ele>
        <time>2021-03-14T10:04:10Z</time>
      </trkpt>
      <trkpt lat="44.76918" lon="5.10388">
        <ele>703.82</ele>
        <time>2021-03-14T10:04:12Z</time>
      </trkpt>
      <trkpt lat="44.76922" lon="5.10389">
        <ele>705.75</ele>
        <time>2021-03-14T10:04:29Z</time>
      </trkpt>
      <trkpt lat="44.76928" lon="5.10383">
        <ele>705.26</ele>
        <time>2021-03-14T10:04:52Z</time>
      </trkpt>
      <trkpt lat="44.76933" lon="5.10382">
        <ele>706.23</ele>
        <time>2021-03-14T10:05:01Z</time>
      </trkpt>
      <trkpt lat="44.76944" lon="5.1038">
        <ele>705.26</ele>
        <time>2021-03-14T10:05:17Z</time>
      </trkpt>
      <trkpt lat="44.76949" lon="5.10382">
        <ele>706.23</ele>
        <time>2021-03-14T10:05:22Z</time>
      </trkpt>
      <trkpt lat="44.76963" lon="5.10388">
        <ele>709.11</ele>
        <time>2021-03-14T10:05:39Z</time>
      </trkpt>
      <trkpt lat="44.76975" lon="5.10393">
        <ele>711.03</ele>
        <time>2021-03-14T10:05:55Z</time>
      </trkpt>
      <trkpt lat="44.76983" lon="5.10392">
        <ele>711.03</ele>
        <time>2021-03-14T10:06:03Z</time>
      </trkpt>
      <trkpt lat="44.76997" lon="5.10393">
        <ele>710.07</ele>
        <time>2021-03-14T10:06:18Z</time>
      </trkpt>
      <trkpt lat="44.7701" lon="5.10394">
        <ele>711.51</ele>
        <time>2021-03-14T10:06:31Z</time>
      </trkpt>
      <trkpt lat="44.77014" lon="5.10394">
        <ele>710.07</ele>
        <time>2021-03-14T10:06:35Z</time>
      </trkpt>
      <trkpt lat="44.77016" lon="5.10395">
        <ele>711.99</ele>
        <time>2021-03-14T10:06:37Z</time>
      </trkpt>
      <trkpt lat="44.77023" lon="5.10397">
        <ele>711.03</ele>
        <time>2021-03-14T10:06:45Z</time>
      </trkpt>
      <trkpt lat="44.77026" lon="5.10398">
        <ele>714.4</ele>
        <time>2021-03-14T10:06:49Z</time>
      </trkpt>
      <trkpt lat="44.77027" lon="5.10398">
        <ele>714.4</ele>
        <time>2021-03-14T10:06:50Z</time>
      </trkpt>
      <trkpt lat="44.77034" lon="5.10401">
        <ele>712.95</ele>
        <time>2021-03-14T10:06:58Z</time>
      </trkpt>
      <trkpt lat="44.77037" lon="5.10401">
        <ele>715.36</ele>
        <time>2021-03-14T10:07:01Z</time>
      </trkpt>
      <trkpt lat="44.77042" lon="5.10404">
        <ele>715.36</ele>
        <time>2021-03-14T10:07:08Z</time>
      </trkpt>
      <trkpt lat="44.77058" lon="5.10406">
        <ele>715.84</ele>
        <time>2021-03-14T10:07:24Z</time>
      </trkpt>
      <trkpt lat="44.77074" lon="5.10409">
        <ele>716.32</ele>
        <time>2021-03-14T10:07:42Z</time>
      </trkpt>
      <trkpt lat="44.77083" lon="5.10409">
        <ele>715.36</ele>
        <time>2021-03-14T10:07:56Z</time>
      </trkpt>
      <trkpt lat="44.77097" lon="5.10409">
        <ele>715.36</ele>
        <time>2021-03-14T10:08:12Z</time>
      </trkpt>
      <trkpt lat="44.7711" lon="5.10408">
        <ele>714.4</ele>
        <time>2021-03-14T10:08:25Z</time>
      </trkpt>
      <trkpt lat="44.77117" lon="5.10406">
        <ele>711.99</ele>
        <time>2021-03-14T10:08:34Z</time>
      </trkpt>
      <trkpt lat="44.7712" lon="5.10405">
        <ele>713.92</ele>
        <time>2021-03-14T10:08:38Z</time>
      </trkpt>
      <trkpt lat="44.77122" lon="5.10405">
        <ele>711.99</ele>
        <time>2021-03-14T10:08:41Z</time>
      </trkpt>
      <trkpt lat="44.77129" lon="5.10407">
        <ele>713.92</ele>
        <time>2021-03-14T10:08:48Z</time>
      </trkpt>
      <trkpt lat="44.77142" lon="5.10406">
        <ele>711.99</ele>
        <time>2021-03-14T10:09:03Z</time>
      </trkpt>
      <trkpt lat="44.77154" lon="5.10404">
        <ele>711.51</ele>
        <time>2021-03-14T10:09:15Z</time>
      </trkpt>
      <trkpt lat="44.77162" lon="5.10406">
        <ele>713.44</ele>
        <time>2021-03-14T10:09:28Z</time>
      </trkpt>
      <trkpt lat="44.77173" lon="5.10403">
        <ele>712.95</ele>
        <time>2021-03-14T10:09:41Z</time>
      </trkpt>
      <trkpt lat="44.77181" lon="5.10407">
        <ele>713.92</ele>
        <time>2021-03-14T10:09:50Z</time>
      </trkpt>
      <trkpt lat="44.77186" lon="5.10408">
        <ele>715.84</ele>
        <time>2021-03-14T10:09:55Z</time>
      </trkpt>
      <trkpt lat="44.77189" lon="5.10409">
        <ele>715.84</ele>
        <time>2021-03-14T10:09:58Z</time>
      </trkpt>
      <trkpt lat="44.77203" lon="5.10415">
        <ele>717.76</ele>
        <time>2021-03-14T10:10:14Z</time>
      </trkpt>
      <trkpt lat="44.77212" lon="5.10422">
        <ele>720.16</ele>
        <time>2021-03-14T10:10:28Z</time>
      </trkpt>
      <trkpt lat="44.77214" lon="5.10423">
        <ele>721.13</ele>
        <time>2021-03-14T10:10:30Z</time>
      </trkpt>
      <trkpt lat="44.7722" lon="5.10422">
        <ele>719.68</ele>
        <time>2021-03-14T10:10:39Z</time>
      </trkpt>
      <trkpt lat="44.77231" lon="5.1042">
        <ele>722.09</ele>
        <time>2021-03-14T10:10:53Z</time>
      </trkpt>
      <trkpt lat="44.77236" lon="5.1042">
        <ele>721.13</ele>
        <time>2021-03-14T10:10:58Z</time>
      </trkpt>
      <trkpt lat="44.77238" lon="5.1042">
        <ele>722.57</ele>
        <time>2021-03-14T10:11:01Z</time>
      </trkpt>
      <trkpt lat="44.7724" lon="5.1042">
        <ele>719.68</ele>
        <time>2021-03-14T10:11:03Z</time>
      </trkpt>
      <trkpt lat="44.77247" lon="5.10418">
        <ele>719.2</ele>
        <time>2021-03-14T10:11:10Z</time>
      </trkpt>
      <trkpt lat="44.7725" lon="5.10417">
        <ele>718.72</ele>
        <time>2021-03-14T10:11:13Z</time>
      </trkpt>
      <trkpt lat="44.77266" lon="5.10413">
        <ele>718.24</ele>
        <time>2021-03-14T10:11:30Z</time>
      </trkpt>
      <trkpt lat="44.7727" lon="5.10415">
        <ele>719.68</ele>
        <time>2021-03-14T10:11:36Z</time>
      </trkpt>
      <trkpt lat="44.77278" lon="5.10416">
        <ele>720.65</ele>
        <time>2021-03-14T10:11:51Z</time>
      </trkpt>
      <trkpt lat="44.77279" lon="5.10416">
        <ele>718.72</ele>
        <time>2021-03-14T10:11:54Z</time>
      </trkpt>
      <trkpt lat="44.77281" lon="5.10413">
        <ele>717.28</ele>
        <time>2021-03-14T10:13:03Z</time>
      </trkpt>
      <trkpt lat="44.77286" lon="5.10409">
        <ele>715.36</ele>
        <time>2021-03-14T10:13:16Z</time>
      </trkpt>
      <trkpt lat="44.77287" lon="5.10408">
        <ele>714.4</ele>
        <time>2021-03-14T10:13:18Z</time>
      </trkpt>
      <trkpt lat="44.7729" lon="5.104">
        <ele>712.47</ele>
        <time>2021-03-14T10:13:35Z</time>
      </trkpt>
      <trkpt lat="44.77295" lon="5.10393">
        <ele>711.03</ele>
        <time>2021-03-14T10:13:48Z</time>
      </trkpt>
      <trkpt lat="44.77296" lon="5.10386">
        <ele>711.03</ele>
        <time>2021-03-14T10:13:55Z</time>
      </trkpt>
      <trkpt lat="44.77298" lon="5.10377">
        <ele>711.03</ele>
        <time>2021-03-14T10:14:12Z</time>
      </trkpt>
      <trkpt lat="44.77299" lon="5.10375">
        <ele>711.99</ele>
        <time>2021-03-14T10:14:32Z</time>
      </trkpt>
      <trkpt lat="44.77303" lon="5.1037">
        <ele>711.99</ele>
        <time>2021-03-14T10:14:51Z</time>
      </trkpt>
      <trkpt lat="44.77305" lon="5.10371">
        <ele>713.44</ele>
        <time>2021-03-14T10:14:56Z</time>
      </trkpt>
      <trkpt lat="44.77314" lon="5.10372">
        <ele>715.84</ele>
        <time>2021-03-14T10:15:12Z</time>
      </trkpt>
      <trkpt lat="44.77325" lon="5.10374">
        <ele>717.76</ele>
        <time>2021-03-14T10:15:29Z</time>
      </trkpt>
      <trkpt lat="44.77328" lon="5.10377">
        <ele>721.13</ele>
        <time>2021-03-14T10:15:42Z</time>
      </trkpt>
      <trkpt lat="44.77335" lon="5.10383">
        <ele>724.01</ele>
        <time>2021-03-14T10:15:59Z</time>
      </trkpt>
      <trkpt lat="44.77342" lon="5.10385">
        <ele>727.37</ele>
        <time>2021-03-14T10:16:12Z</time>
      </trkpt>
      <trkpt lat="44.77346" lon="5.10392">
        <ele>728.82</ele>
        <time>2021-03-14T10:16:29Z</time>
      </trkpt>
      <trkpt lat="44.77352" lon="5.10397">
        <ele>732.18</ele>
        <time>2021-03-14T10:16:46Z</time>
      </trkpt>
      <trkpt lat="44.7736" lon="5.10403">
        <ele>735.55</ele>
        <time>2021-03-14T10:17:03Z</time>
      </trkpt>
      <trkpt lat="44.77363" lon="5.10407">
        <ele>736.03</ele>
        <time>2021-03-14T10:17:09Z</time>
      </trkpt>
      <trkpt lat="44.77369" lon="5.10409">
        <ele>736.51</ele>
        <time>2021-03-14T10:17:25Z</time>
      </trkpt>
      <trkpt lat="44.77373" lon="5.10409">
        <ele>735.55</ele>
        <time>2021-03-14T10:17:40Z</time>
      </trkpt>
      <trkpt lat="44.77374" lon="5.10409">
        <ele>735.55</ele>
        <time>2021-03-14T10:17:41Z</time>
      </trkpt>
      <trkpt lat="44.77384" lon="5.10414">
        <ele>736.03</ele>
        <time>2021-03-14T10:17:54Z</time>
      </trkpt>
      <trkpt lat="44.77387" lon="5.10414">
        <ele>737.95</ele>
        <time>2021-03-14T10:17:58Z</time>
      </trkpt>
      <trkpt lat="44.77392" lon="5.10414">
        <ele>736.51</ele>
        <time>2021-03-14T10:18:04Z</time>
      </trkpt>
      <trkpt lat="44.774" lon="5.10412">
        <ele>735.55</ele>
        <time>2021-03-14T10:18:13Z</time>
      </trkpt>
      <trkpt lat="44.77402" lon="5.10411">
        <ele>735.55</ele>
        <time>2021-03-14T10:18:21Z</time>
      </trkpt>
      <trkpt lat="44.77403" lon="5.10412">
        <ele>734.1</ele>
        <time>2021-03-14T10:18:23Z</time>
      </trkpt>
      <trkpt lat="44.77403" lon="5.10413">
        <ele>735.55</ele>
        <time>2021-03-14T10:18:26Z</time>
      </trkpt>
      <trkpt lat="44.77411" lon="5.10411">
        <ele>736.03</ele>
        <time>2021-03-14T10:18:36Z</time>
      </trkpt>
      <trkpt lat="44.77419" lon="5.10411">
        <ele>733.14</ele>
        <time>2021-03-14T10:18:48Z</time>
      </trkpt>
      <trkpt lat="44.77428" lon="5.1041">
        <ele>733.14</ele>
        <time>2021-03-14T10:19:04Z</time>
      </trkpt>
      <trkpt lat="44.77429" lon="5.10408">
        <ele>731.7</ele>
        <time>2021-03-14T10:19:08Z</time>
      </trkpt>
      <trkpt lat="44.7744" lon="5.10405">
        <ele>730.26</ele>
        <time>2021-03-14T10:19:22Z</time>
      </trkpt>
      <trkpt lat="44.77449" lon="5.10404">
        <ele>730.74</ele>
        <time>2021-03-14T10:19:34Z</time>
      </trkpt>
      <trkpt lat="44.77452" lon="5.10403">
        <ele>729.3</ele>
        <time>2021-03-14T10:19:38Z</time>
      </trkpt>
      <trkpt lat="44.77455" lon="5.10404">
        <ele>730.74</ele>
        <time>2021-03-14T10:19:42Z</time>
      </trkpt>
      <trkpt lat="44.7746" lon="5.104">
        <ele>727.37</ele>
        <time>2021-03-14T10:19:50Z</time>
      </trkpt>
      <trkpt lat="44.77464" lon="5.10396">
        <ele>726.89</ele>
        <time>2021-03-14T10:20:04Z</time>
      </trkpt>
      <trkpt lat="44.77465" lon="5.10396">
        <ele>726.41</ele>
        <time>2021-03-14T10:20:14Z</time>
      </trkpt>
      <trkpt lat="44.77466" lon="5.10396">
        <ele>728.82</ele>
        <time>2021-03-14T10:20:22Z</time>
      </trkpt>
      <trkpt lat="44.77466" lon="5.10397">
        <ele>726.89</ele>
        <time>2021-03-14T10:20:46Z</time>
      </trkpt>
      <trkpt lat="44.7747" lon="5.10393">
        <ele>726.41</ele>
        <time>2021-03-14T10:21:09Z</time>
      </trkpt>
      <trkpt lat="44.77478" lon="5.10385">
        <ele>724.49</ele>
        <time>2021-03-14T10:21:22Z</time>
      </trkpt>
      <trkpt lat="44.77485" lon="5.10385">
        <ele>726.89</ele>
        <time>2021-03-14T10:21:31Z</time>
      </trkpt>
      <trkpt lat="44.77488" lon="5.10384">
        <ele>726.89</ele>
        <time>2021-03-14T10:21:34Z</time>
      </trkpt>
      <trkpt lat="44.7749" lon="5.10383">
        <ele>725.45</ele>
        <time>2021-03-14T10:21:36Z</time>
      </trkpt>
      <trkpt lat="44.77495" lon="5.10381">
        <ele>724.97</ele>
        <time>2021-03-14T10:21:41Z</time>
      </trkpt>
      <trkpt lat="44.77508" lon="5.10376">
        <ele>728.34</ele>
        <time>2021-03-14T10:21:57Z</time>
      </trkpt>
      <trkpt lat="44.77509" lon="5.10375">
        <ele>728.34</ele>
        <time>2021-03-14T10:21:58Z</time>
      </trkpt>
      <trkpt lat="44.77513" lon="5.10371">
        <ele>726.89</ele>
        <time>2021-03-14T10:22:03Z</time>
      </trkpt>
      <trkpt lat="44.77524" lon="5.10369">
        <ele>728.34</ele>
        <time>2021-03-14T10:22:16Z</time>
      </trkpt>
      <trkpt lat="44.77535" lon="5.10363">
        <ele>726.41</ele>
        <time>2021-03-14T10:22:30Z</time>
      </trkpt>
      <trkpt lat="44.77542" lon="5.10359">
        <ele>729.78</ele>
        <time>2021-03-14T10:22:40Z</time>
      </trkpt>
      <trkpt lat="44.77544" lon="5.10358">
        <ele>730.26</ele>
        <time>2021-03-14T10:22:42Z</time>
      </trkpt>
      <trkpt lat="44.77549" lon="5.10357">
        <ele>727.37</ele>
        <time>2021-03-14T10:22:49Z</time>
      </trkpt>
      <trkpt lat="44.77552" lon="5.10359">
        <ele>729.3</ele>
        <time>2021-03-14T10:22:53Z</time>
      </trkpt>
      <trkpt lat="44.77563" lon="5.10359">
        <ele>731.22</ele>
        <time>2021-03-14T10:23:08Z</time>
      </trkpt>
      <trkpt lat="44.77568" lon="5.10351">
        <ele>731.22</ele>
        <time>2021-03-14T10:23:22Z</time>
      </trkpt>
      <trkpt lat="44.7757" lon="5.10349">
        <ele>728.82</ele>
        <time>2021-03-14T10:23:26Z</time>
      </trkpt>
      <trkpt lat="44.77575" lon="5.10343">
        <ele>729.78</ele>
        <time>2021-03-14T10:23:33Z</time>
      </trkpt>
      <trkpt lat="44.77576" lon="5.10342">
        <ele>726.89</ele>
        <time>2021-03-14T10:23:36Z</time>
      </trkpt>
      <trkpt lat="44.77581" lon="5.1034">
        <ele>726.41</ele>
        <time>2021-03-14T10:23:50Z</time>
      </trkpt>
      <trkpt lat="44.77586" lon="5.1034">
        <ele>726.89</ele>
        <time>2021-03-14T10:24:00Z</time>
      </trkpt>
      <trkpt lat="44.77596" lon="5.10335">
        <ele>729.3</ele>
        <time>2021-03-14T10:24:13Z</time>
      </trkpt>
      <trkpt lat="44.77598" lon="5.10333">
        <ele>728.34</ele>
        <time>2021-03-14T10:24:16Z</time>
      </trkpt>
      <trkpt lat="44.776" lon="5.1033">
        <ele>726.41</ele>
        <time>2021-03-14T10:24:23Z</time>
      </trkpt>
      <trkpt lat="44.77606" lon="5.10327">
        <ele>723.05</ele>
        <time>2021-03-14T10:24:34Z</time>
      </trkpt>
      <trkpt lat="44.77606" lon="5.10327">
        <ele>723.53</ele>
        <time>2021-03-14T10:24:35Z</time>
      </trkpt>
      <trkpt lat="44.77607" lon="5.10327">
        <ele>726.89</ele>
        <time>2021-03-14T10:24:37Z</time>
      </trkpt>
      <trkpt lat="44.77608" lon="5.10328">
        <ele>726.89</ele>
        <time>2021-03-14T10:24:38Z</time>
      </trkpt>
      <trkpt lat="44.77612" lon="5.10327">
        <ele>726.41</ele>
        <time>2021-03-14T10:24:47Z</time>
      </trkpt>
      <trkpt lat="44.77619" lon="5.10323">
        <ele>727.86</ele>
        <time>2021-03-14T10:25:02Z</time>
      </trkpt>
      <trkpt lat="44.77621" lon="5.10322">
        <ele>725.93</ele>
        <time>2021-03-14T10:25:04Z</time>
      </trkpt>
      <trkpt lat="44.77634" lon="5.10317">
        <ele>728.82</ele>
        <time>2021-03-14T10:25:18Z</time>
      </trkpt>
      <trkpt lat="44.77635" lon="5.10316">
        <ele>728.82</ele>
        <time>2021-03-14T10:25:19Z</time>
      </trkpt>
      <trkpt lat="44.77639" lon="5.10314">
        <ele>725.93</ele>
        <time>2021-03-14T10:25:22Z</time>
      </trkpt>
      <trkpt lat="44.77643" lon="5.10309">
        <ele>723.05</ele>
        <time>2021-03-14T10:25:28Z</time>
      </trkpt>
      <trkpt lat="44.77645" lon="5.10309">
        <ele>724.49</ele>
        <time>2021-03-14T10:25:30Z</time>
      </trkpt>
      <trkpt lat="44.77655" lon="5.10308">
        <ele>724.01</ele>
        <time>2021-03-14T10:25:43Z</time>
      </trkpt>
      <trkpt lat="44.77656" lon="5.10308">
        <ele>725.93</ele>
        <time>2021-03-14T10:25:45Z</time>
      </trkpt>
      <trkpt lat="44.7766" lon="5.10309">
        <ele>728.34</ele>
        <time>2021-03-14T10:25:52Z</time>
      </trkpt>
      <trkpt lat="44.77663" lon="5.10311">
        <ele>731.22</ele>
        <time>2021-03-14T10:25:58Z</time>
      </trkpt>
      <trkpt lat="44.77663" lon="5.10311">
        <ele>729.3</ele>
        <time>2021-03-14T10:26:01Z</time>
      </trkpt>
      <trkpt lat="44.77664" lon="5.10311">
        <ele>728.82</ele>
        <time>2021-03-14T10:26:08Z</time>
      </trkpt>
      <trkpt lat="44.77664" lon="5.1031">
        <ele>725.93</ele>
        <time>2021-03-14T10:26:10Z</time>
      </trkpt>
      <trkpt lat="44.77666" lon="5.10308">
        <ele>728.34</ele>
        <time>2021-03-14T10:26:12Z</time>
      </trkpt>
      <trkpt lat="44.7767" lon="5.10306">
        <ele>726.41</ele>
        <time>2021-03-14T10:26:17Z</time>
      </trkpt>
      <trkpt lat="44.77673" lon="5.10304">
        <ele>729.78</ele>
        <time>2021-03-14T10:26:21Z</time>
      </trkpt>
      <trkpt lat="44.77673" lon="5.10302">
        <ele>725.93</ele>
        <time>2021-03-14T10:26:23Z</time>
      </trkpt>
      <trkpt lat="44.77674" lon="5.10301">
        <ele>725.93</ele>
        <time>2021-03-14T10:26:24Z</time>
      </trkpt>
      <trkpt lat="44.77677" lon="5.103">
        <ele>727.37</ele>
        <time>2021-03-14T10:26:29Z</time>
      </trkpt>
      <trkpt lat="44.77679" lon="5.103">
        <ele>724.49</ele>
        <time>2021-03-14T10:26:32Z</time>
      </trkpt>
      <trkpt lat="44.77684" lon="5.10297">
        <ele>725.45</ele>
        <time>2021-03-14T10:26:38Z</time>
      </trkpt>
      <trkpt lat="44.77686" lon="5.10294">
        <ele>722.09</ele>
        <time>2021-03-14T10:26:43Z</time>
      </trkpt>
      <trkpt lat="44.77688" lon="5.1029">
        <ele>725.45</ele>
        <time>2021-03-14T10:26:47Z</time>
      </trkpt>
      <trkpt lat="44.77689" lon="5.10289">
        <ele>725.45</ele>
        <time>2021-03-14T10:26:48Z</time>
      </trkpt>
      <trkpt lat="44.77689" lon="5.10288">
        <ele>724.01</ele>
        <time>2021-03-14T10:26:50Z</time>
      </trkpt>
      <trkpt lat="44.7769" lon="5.10286">
        <ele>725.93</ele>
        <time>2021-03-14T10:26:52Z</time>
      </trkpt>
      <trkpt lat="44.77691" lon="5.10285">
        <ele>724.01</ele>
        <time>2021-03-14T10:26:54Z</time>
      </trkpt>
      <trkpt lat="44.77699" lon="5.10277">
        <ele>721.13</ele>
        <time>2021-03-14T10:27:05Z</time>
      </trkpt>
      <trkpt lat="44.77704" lon="5.10273">
        <ele>720.16</ele>
        <time>2021-03-14T10:27:13Z</time>
      </trkpt>
      <trkpt lat="44.77712" lon="5.1027">
        <ele>720.65</ele>
        <time>2021-03-14T10:27:24Z</time>
      </trkpt>
      <trkpt lat="44.77718" lon="5.10261">
        <ele>718.24</ele>
        <time>2021-03-14T10:27:37Z</time>
      </trkpt>
      <trkpt lat="44.7772" lon="5.10256">
        <ele>714.88</ele>
        <time>2021-03-14T10:27:43Z</time>
      </trkpt>
      <trkpt lat="44.77722" lon="5.10251">
        <ele>714.4</ele>
        <time>2021-03-14T10:27:58Z</time>
      </trkpt>
      <trkpt lat="44.77731" lon="5.10249">
        <ele>715.36</ele>
        <time>2021-03-14T10:28:05Z</time>
      </trkpt>
      <trkpt lat="44.77735" lon="5.10249">
        <ele>717.28</ele>
        <time>2021-03-14T10:28:10Z</time>
      </trkpt>
      <trkpt lat="44.77735" lon="5.10248">
        <ele>715.36</ele>
        <time>2021-03-14T10:28:12Z</time>
      </trkpt>
      <trkpt lat="44.77737" lon="5.10247">
        <ele>716.8</ele>
        <time>2021-03-14T10:28:16Z</time>
      </trkpt>
      <trkpt lat="44.77741" lon="5.10243">
        <ele>715.84</ele>
        <time>2021-03-14T10:28:21Z</time>
      </trkpt>
      <trkpt lat="44.77744" lon="5.1024">
        <ele>713.44</ele>
        <time>2021-03-14T10:28:24Z</time>
      </trkpt>
      <trkpt lat="44.7776" lon="5.10233">
        <ele>712.95</ele>
        <time>2021-03-14T10:28:39Z</time>
      </trkpt>
      <trkpt lat="44.77765" lon="5.10229">
        <ele>712.47</ele>
        <time>2021-03-14T10:28:44Z</time>
      </trkpt>
      <trkpt lat="44.77772" lon="5.10218">
        <ele>712.47</ele>
        <time>2021-03-14T10:29:00Z</time>
      </trkpt>
      <trkpt lat="44.7778" lon="5.10208">
        <ele>710.55</ele>
        <time>2021-03-14T10:29:09Z</time>
      </trkpt>
      <trkpt lat="44.77782" lon="5.10204">
        <ele>711.99</ele>
        <time>2021-03-14T10:29:12Z</time>
      </trkpt>
      <trkpt lat="44.77791" lon="5.10198">
        <ele>712.95</ele>
        <time>2021-03-14T10:29:23Z</time>
      </trkpt>
      <trkpt lat="44.77809" lon="5.10189">
        <ele>714.4</ele>
        <time>2021-03-14T10:29:38Z</time>
      </trkpt>
      <trkpt lat="44.77824" lon="5.10187">
        <ele>713.44</ele>
        <time>2021-03-14T10:29:54Z</time>
      </trkpt>
      <trkpt lat="44.77833" lon="5.10179">
        <ele>716.8</ele>
        <time>2021-03-14T10:30:07Z</time>
      </trkpt>
      <trkpt lat="44.77834" lon="5.10179">
        <ele>716.8</ele>
        <time>2021-03-14T10:30:08Z</time>
      </trkpt>
      <trkpt lat="44.77836" lon="5.10179">
        <ele>714.88</ele>
        <time>2021-03-14T10:30:10Z</time>
      </trkpt>
      <trkpt lat="44.77837" lon="5.10179">
        <ele>710.55</ele>
        <time>2021-03-14T10:30:13Z</time>
      </trkpt>
      <trkpt lat="44.77837" lon="5.1018">
        <ele>712.95</ele>
        <time>2021-03-14T10:31:02Z</time>
      </trkpt>
      <trkpt lat="44.77837" lon="5.1018">
        <ele>712.95</ele>
        <time>2021-03-14T10:31:06Z</time>
      </trkpt>
      <trkpt lat="44.77838" lon="5.1018">
        <ele>709.59</ele>
        <time>2021-03-14T10:31:09Z</time>
      </trkpt>
      <trkpt lat="44.77838" lon="5.10179">
        <ele>712.95</ele>
        <time>2021-03-14T10:31:11Z</time>
      </trkpt>
      <trkpt lat="44.77838" lon="5.10178">
        <ele>713.44</ele>
        <time>2021-03-14T10:31:12Z</time>
      </trkpt>
      <trkpt lat="44.77838" lon="5.10166">
        <ele>709.59</ele>
        <time>2021-03-14T10:31:23Z</time>
      </trkpt>
      <trkpt lat="44.77839" lon="5.10165">
        <ele>709.59</ele>
        <time>2021-03-14T10:31:24Z</time>
      </trkpt>
      <trkpt lat="44.7784" lon="5.10164">
        <ele>711.03</ele>
        <time>2021-03-14T10:31:26Z</time>
      </trkpt>
      <trkpt lat="44.77845" lon="5.1016">
        <ele>710.55</ele>
        <time>2021-03-14T10:31:36Z</time>
      </trkpt>
      <trkpt lat="44.77846" lon="5.10159">
        <ele>707.19</ele>
        <time>2021-03-14T10:31:38Z</time>
      </trkpt>
      <trkpt lat="44.77847" lon="5.10157">
        <ele>706.23</ele>
        <time>2021-03-14T10:31:40Z</time>
      </trkpt>
      <trkpt lat="44.77849" lon="5.10156">
        <ele>708.15</ele>
        <time>2021-03-14T10:31:44Z</time>
      </trkpt>
      <trkpt lat="44.77851" lon="5.10153">
        <ele>704.78</ele>
        <time>2021-03-14T10:31:48Z</time>
      </trkpt>
      <trkpt lat="44.77852" lon="5.10152">
        <ele>703.34</ele>
        <time>2021-03-14T10:31:51Z</time>
      </trkpt>
      <trkpt lat="44.77854" lon="5.10149">
        <ele>703.34</ele>
        <time>2021-03-14T10:31:57Z</time>
      </trkpt>
      <trkpt lat="44.77857" lon="5.10145">
        <ele>699.98</ele>
        <time>2021-03-14T10:32:06Z</time>
      </trkpt>
      <trkpt lat="44.77857" lon="5.10144">
        <ele>699.02</ele>
        <time>2021-03-14T10:32:08Z</time>
      </trkpt>
      <trkpt lat="44.77857" lon="5.10144">
        <ele>699.98</ele>
        <time>2021-03-14T10:32:11Z</time>
      </trkpt>
      <trkpt lat="44.77857" lon="5.10143">
        <ele>699.02</ele>
        <time>2021-03-14T10:32:18Z</time>
      </trkpt>
      <trkpt lat="44.77859" lon="5.10135">
        <ele>695.17</ele>
        <time>2021-03-14T10:32:32Z</time>
      </trkpt>
      <trkpt lat="44.77867" lon="5.10137">
        <ele>693.25</ele>
        <time>2021-03-14T10:32:46Z</time>
      </trkpt>
      <trkpt lat="44.7787" lon="5.10137">
        <ele>691.81</ele>
        <time>2021-03-14T10:32:50Z</time>
      </trkpt>
      <trkpt lat="44.77873" lon="5.10133">
        <ele>689.4</ele>
        <time>2021-03-14T10:32:57Z</time>
      </trkpt>
      <trkpt lat="44.77877" lon="5.10129">
        <ele>685.56</ele>
        <time>2021-03-14T10:33:04Z</time>
      </trkpt>
      <trkpt lat="44.77877" lon="5.10129">
        <ele>685.56</ele>
        <time>2021-03-14T10:33:05Z</time>
      </trkpt>
      <trkpt lat="44.77884" lon="5.10123">
        <ele>682.19</ele>
        <time>2021-03-14T10:33:17Z</time>
      </trkpt>
      <trkpt lat="44.77895" lon="5.10118">
        <ele>680.27</ele>
        <time>2021-03-14T10:33:34Z</time>
      </trkpt>
      <trkpt lat="44.77908" lon="5.10106">
        <ele>678.35</ele>
        <time>2021-03-14T10:33:52Z</time>
      </trkpt>
      <trkpt lat="44.77914" lon="5.101">
        <ele>677.39</ele>
        <time>2021-03-14T10:34:10Z</time>
      </trkpt>
      <trkpt lat="44.77923" lon="5.10091">
        <ele>675.46</ele>
        <time>2021-03-14T10:34:25Z</time>
      </trkpt>
      <trkpt lat="44.77934" lon="5.10081">
        <ele>673.06</ele>
        <time>2021-03-14T10:34:38Z</time>
      </trkpt>
      <trkpt lat="44.77949" lon="5.1007">
        <ele>671.62</ele>
        <time>2021-03-14T10:34:53Z</time>
      </trkpt>
      <trkpt lat="44.77961" lon="5.10064">
        <ele>673.06</ele>
        <time>2021-03-14T10:35:06Z</time>
      </trkpt>
      <trkpt lat="44.7797" lon="5.10059">
        <ele>674.5</ele>
        <time>2021-03-14T10:35:19Z</time>
      </trkpt>
      <trkpt lat="44.7799" lon="5.10055">
        <ele>675.94</ele>
        <time>2021-03-14T10:35:35Z</time>
      </trkpt>
      <trkpt lat="44.78008" lon="5.1005">
        <ele>674.5</ele>
        <time>2021-03-14T10:35:52Z</time>
      </trkpt>
      <trkpt lat="44.78011" lon="5.10049">
        <ele>674.5</ele>
        <time>2021-03-14T10:35:54Z</time>
      </trkpt>
      <trkpt lat="44.7802" lon="5.10042">
        <ele>674.5</ele>
        <time>2021-03-14T10:36:07Z</time>
      </trkpt>
      <trkpt lat="44.78031" lon="5.10031">
        <ele>672.1</ele>
        <time>2021-03-14T10:36:24Z</time>
      </trkpt>
      <trkpt lat="44.78038" lon="5.10026">
        <ele>672.58</ele>
        <time>2021-03-14T10:36:39Z</time>
      </trkpt>
      <trkpt lat="44.7804" lon="5.10025">
        <ele>671.14</ele>
        <time>2021-03-14T10:36:46Z</time>
      </trkpt>
      <trkpt lat="44.78041" lon="5.10025">
        <ele>673.06</ele>
        <time>2021-03-14T10:36:49Z</time>
      </trkpt>
      <trkpt lat="44.78042" lon="5.10025">
        <ele>672.1</ele>
        <time>2021-03-14T10:36:54Z</time>
      </trkpt>
      <trkpt lat="44.78042" lon="5.10025">
        <ele>674.02</ele>
        <time>2021-03-14T10:36:58Z</time>
      </trkpt>
      <trkpt lat="44.78042" lon="5.10024">
        <ele>672.58</ele>
        <time>2021-03-14T10:37:00Z</time>
      </trkpt>
      <trkpt lat="44.78047" lon="5.10018">
        <ele>671.62</ele>
        <time>2021-03-14T10:37:15Z</time>
      </trkpt>
      <trkpt lat="44.78055" lon="5.10006">
        <ele>668.25</ele>
        <time>2021-03-14T10:37:34Z</time>
      </trkpt>
      <trkpt lat="44.78061" lon="5.09999">
        <ele>665.37</ele>
        <time>2021-03-14T10:37:45Z</time>
      </trkpt>
      <trkpt lat="44.7807" lon="5.09991">
        <ele>664.41</ele>
        <time>2021-03-14T10:37:59Z</time>
      </trkpt>
      <trkpt lat="44.78074" lon="5.09987">
        <ele>661.04</ele>
        <time>2021-03-14T10:38:07Z</time>
      </trkpt>
      <trkpt lat="44.78085" lon="5.0998">
        <ele>660.56</ele>
        <time>2021-03-14T10:38:22Z</time>
      </trkpt>
      <trkpt lat="44.78095" lon="5.0998">
        <ele>658.64</ele>
        <time>2021-03-14T10:38:37Z</time>
      </trkpt>
      <trkpt lat="44.78105" lon="5.09982">
        <ele>655.76</ele>
        <time>2021-03-14T10:38:53Z</time>
      </trkpt>
      <trkpt lat="44.7811" lon="5.09979">
        <ele>654.8</ele>
        <time>2021-03-14T10:39:02Z</time>
      </trkpt>
      <trkpt lat="44.78112" lon="5.09975">
        <ele>651.91</ele>
        <time>2021-03-14T10:39:09Z</time>
      </trkpt>
      <trkpt lat="44.78112" lon="5.09964">
        <ele>649.03</ele>
        <time>2021-03-14T10:39:21Z</time>
      </trkpt>
      <trkpt lat="44.78111" lon="5.09957">
        <ele>645.66</ele>
        <time>2021-03-14T10:39:27Z</time>
      </trkpt>
      <trkpt lat="44.78111" lon="5.09955">
        <ele>644.7</ele>
        <time>2021-03-14T10:39:29Z</time>
      </trkpt>
      <trkpt lat="44.7811" lon="5.09945">
        <ele>641.82</ele>
        <time>2021-03-14T10:39:37Z</time>
      </trkpt>
      <trkpt lat="44.78106" lon="5.09921">
        <ele>639.89</ele>
        <time>2021-03-14T10:39:53Z</time>
      </trkpt>
      <trkpt lat="44.78108" lon="5.09907">
        <ele>640.86</ele>
        <time>2021-03-14T10:40:10Z</time>
      </trkpt>
      <trkpt lat="44.78113" lon="5.09904">
        <ele>639.41</ele>
        <time>2021-03-14T10:40:26Z</time>
      </trkpt>
      <trkpt lat="44.7811" lon="5.09895">
        <ele>640.38</ele>
        <time>2021-03-14T10:40:49Z</time>
      </trkpt>
      <trkpt lat="44.78099" lon="5.09891">
        <ele>640.38</ele>
        <time>2021-03-14T10:41:02Z</time>
      </trkpt>
      <trkpt lat="44.78093" lon="5.09883">
        <ele>639.41</ele>
        <time>2021-03-14T10:41:16Z</time>
      </trkpt>
      <trkpt lat="44.78087" lon="5.09877">
        <ele>637.49</ele>
        <time>2021-03-14T10:41:28Z</time>
      </trkpt>
      <trkpt lat="44.78084" lon="5.09872">
        <ele>637.97</ele>
        <time>2021-03-14T10:41:41Z</time>
      </trkpt>
      <trkpt lat="44.78085" lon="5.09866">
        <ele>634.61</ele>
        <time>2021-03-14T10:42:25Z</time>
      </trkpt>
      <trkpt lat="44.78081" lon="5.09874">
        <ele>651.91</ele>
        <time>2021-03-14T11:28:12Z</time>
      </trkpt>
      <trkpt lat="44.78083" lon="5.09877">
        <ele>651.91</ele>
        <time>2021-03-14T11:28:26Z</time>
      </trkpt>
      <trkpt lat="44.78083" lon="5.09883">
        <ele>651.91</ele>
        <time>2021-03-14T11:28:44Z</time>
      </trkpt>
      <trkpt lat="44.7809" lon="5.09892">
        <ele>653.35</ele>
        <time>2021-03-14T11:29:01Z</time>
      </trkpt>
      <trkpt lat="44.78096" lon="5.09901">
        <ele>654.8</ele>
        <time>2021-03-14T11:29:14Z</time>
      </trkpt>
      <trkpt lat="44.78103" lon="5.09914">
        <ele>656.72</ele>
        <time>2021-03-14T11:29:29Z</time>
      </trkpt>
      <trkpt lat="44.78106" lon="5.09923">
        <ele>657.68</ele>
        <time>2021-03-14T11:29:44Z</time>
      </trkpt>
      <trkpt lat="44.78113" lon="5.09932">
        <ele>657.2</ele>
        <time>2021-03-14T11:29:59Z</time>
      </trkpt>
      <trkpt lat="44.78125" lon="5.09937">
        <ele>655.76</ele>
        <time>2021-03-14T11:30:13Z</time>
      </trkpt>
      <trkpt lat="44.78137" lon="5.09941">
        <ele>655.28</ele>
        <time>2021-03-14T11:30:27Z</time>
      </trkpt>
      <trkpt lat="44.78149" lon="5.0994">
        <ele>654.8</ele>
        <time>2021-03-14T11:30:41Z</time>
      </trkpt>
      <trkpt lat="44.78172" lon="5.09938">
        <ele>653.83</ele>
        <time>2021-03-14T11:30:56Z</time>
      </trkpt>
      <trkpt lat="44.78182" lon="5.09935">
        <ele>653.35</ele>
        <time>2021-03-14T11:31:08Z</time>
      </trkpt>
      <trkpt lat="44.78198" lon="5.09931">
        <ele>652.87</ele>
        <time>2021-03-14T11:31:23Z</time>
      </trkpt>
      <trkpt lat="44.78209" lon="5.09933">
        <ele>649.99</ele>
        <time>2021-03-14T11:31:36Z</time>
      </trkpt>
      <trkpt lat="44.78221" lon="5.0993">
        <ele>647.1</ele>
        <time>2021-03-14T11:31:50Z</time>
      </trkpt>
      <trkpt lat="44.78235" lon="5.09928">
        <ele>645.18</ele>
        <time>2021-03-14T11:32:03Z</time>
      </trkpt>
      <trkpt lat="44.7825" lon="5.0993">
        <ele>642.3</ele>
        <time>2021-03-14T11:32:19Z</time>
      </trkpt>
      <trkpt lat="44.78264" lon="5.09932">
        <ele>639.41</ele>
        <time>2021-03-14T11:32:32Z</time>
      </trkpt>
      <trkpt lat="44.78281" lon="5.09935">
        <ele>637.01</ele>
        <time>2021-03-14T11:32:47Z</time>
      </trkpt>
      <trkpt lat="44.78297" lon="5.09941">
        <ele>633.65</ele>
        <time>2021-03-14T11:33:01Z</time>
      </trkpt>
      <trkpt lat="44.78302" lon="5.09942">
        <ele>633.17</ele>
        <time>2021-03-14T11:33:06Z</time>
      </trkpt>
      <trkpt lat="44.78309" lon="5.09947">
        <ele>632.2</ele>
        <time>2021-03-14T11:33:12Z</time>
      </trkpt>
      <trkpt lat="44.78317" lon="5.09953">
        <ele>631.72</ele>
        <time>2021-03-14T11:33:18Z</time>
      </trkpt>
      <trkpt lat="44.78331" lon="5.09971">
        <ele>629.32</ele>
        <time>2021-03-14T11:33:35Z</time>
      </trkpt>
      <trkpt lat="44.78326" lon="5.09982">
        <ele>625.47</ele>
        <time>2021-03-14T11:33:51Z</time>
      </trkpt>
      <trkpt lat="44.78315" lon="5.0998">
        <ele>622.59</ele>
        <time>2021-03-14T11:34:07Z</time>
      </trkpt>
      <trkpt lat="44.78298" lon="5.0998">
        <ele>620.67</ele>
        <time>2021-03-14T11:34:25Z</time>
      </trkpt>
      <trkpt lat="44.78282" lon="5.09983">
        <ele>618.26</ele>
        <time>2021-03-14T11:34:40Z</time>
      </trkpt>
      <trkpt lat="44.78264" lon="5.09992">
        <ele>615.38</ele>
        <time>2021-03-14T11:34:56Z</time>
      </trkpt>
      <trkpt lat="44.7825" lon="5.10003">
        <ele>613.94</ele>
        <time>2021-03-14T11:35:10Z</time>
      </trkpt>
      <trkpt lat="44.78237" lon="5.1002">
        <ele>612.98</ele>
        <time>2021-03-14T11:35:25Z</time>
      </trkpt>
      <trkpt lat="44.78229" lon="5.10034">
        <ele>612.5</ele>
        <time>2021-03-14T11:35:39Z</time>
      </trkpt>
      <trkpt lat="44.78219" lon="5.10046">
        <ele>612.02</ele>
        <time>2021-03-14T11:35:53Z</time>
      </trkpt>
      <trkpt lat="44.78205" lon="5.10065">
        <ele>613.46</ele>
        <time>2021-03-14T11:36:09Z</time>
      </trkpt>
      <trkpt lat="44.782" lon="5.10076">
        <ele>612.5</ele>
        <time>2021-03-14T11:36:21Z</time>
      </trkpt>
      <trkpt lat="44.7819" lon="5.10091">
        <ele>608.65</ele>
        <time>2021-03-14T11:36:36Z</time>
      </trkpt>
      <trkpt lat="44.78174" lon="5.10101">
        <ele>606.73</ele>
        <time>2021-03-14T11:36:52Z</time>
      </trkpt>
      <trkpt lat="44.78161" lon="5.10101">
        <ele>605.29</ele>
        <time>2021-03-14T11:37:05Z</time>
      </trkpt>
      <trkpt lat="44.78145" lon="5.10103">
        <ele>603.36</ele>
        <time>2021-03-14T11:37:20Z</time>
      </trkpt>
      <trkpt lat="44.78133" lon="5.10112">
        <ele>602.4</ele>
        <time>2021-03-14T11:37:35Z</time>
      </trkpt>
      <trkpt lat="44.78123" lon="5.10138">
        <ele>601.92</ele>
        <time>2021-03-14T11:37:51Z</time>
      </trkpt>
      <trkpt lat="44.78116" lon="5.10163">
        <ele>601.44</ele>
        <time>2021-03-14T11:38:06Z</time>
      </trkpt>
      <trkpt lat="44.78104" lon="5.10179">
        <ele>602.88</ele>
        <time>2021-03-14T11:38:21Z</time>
      </trkpt>
      <trkpt lat="44.78094" lon="5.1019">
        <ele>601.92</ele>
        <time>2021-03-14T11:38:33Z</time>
      </trkpt>
      <trkpt lat="44.78085" lon="5.10201">
        <ele>600</ele>
        <time>2021-03-14T11:38:47Z</time>
      </trkpt>
      <trkpt lat="44.78078" lon="5.10205">
        <ele>597.12</ele>
        <time>2021-03-14T11:38:59Z</time>
      </trkpt>
      <trkpt lat="44.78061" lon="5.10212">
        <ele>595.19</ele>
        <time>2021-03-14T11:39:15Z</time>
      </trkpt>
      <trkpt lat="44.78052" lon="5.10223">
        <ele>591.83</ele>
        <time>2021-03-14T11:39:29Z</time>
      </trkpt>
      <trkpt lat="44.78047" lon="5.10232">
        <ele>588.95</ele>
        <time>2021-03-14T11:39:41Z</time>
      </trkpt>
      <trkpt lat="44.7806" lon="5.10247">
        <ele>585.58</ele>
        <time>2021-03-14T11:39:55Z</time>
      </trkpt>
      <trkpt lat="44.78069" lon="5.10253">
        <ele>582.7</ele>
        <time>2021-03-14T11:40:08Z</time>
      </trkpt>
      <trkpt lat="44.78078" lon="5.10256">
        <ele>579.33</ele>
        <time>2021-03-14T11:40:21Z</time>
      </trkpt>
      <trkpt lat="44.78087" lon="5.10263">
        <ele>576.45</ele>
        <time>2021-03-14T11:40:37Z</time>
      </trkpt>
      <trkpt lat="44.781" lon="5.10275">
        <ele>573.08</ele>
        <time>2021-03-14T11:40:53Z</time>
      </trkpt>
      <trkpt lat="44.78109" lon="5.10281">
        <ele>571.16</ele>
        <time>2021-03-14T11:41:06Z</time>
      </trkpt>
      <trkpt lat="44.78113" lon="5.10281">
        <ele>571.16</ele>
        <time>2021-03-14T11:41:30Z</time>
      </trkpt>
      <trkpt lat="44.78112" lon="5.10281">
        <ele>570.68</ele>
        <time>2021-03-14T11:41:58Z</time>
      </trkpt>
      <trkpt lat="44.78112" lon="5.10281">
        <ele>570.68</ele>
        <time>2021-03-14T11:42:21Z</time>
      </trkpt>
      <trkpt lat="44.78115" lon="5.10289">
        <ele>569.24</ele>
        <time>2021-03-14T11:42:38Z</time>
      </trkpt>
      <trkpt lat="44.7812" lon="5.103">
        <ele>565.87</ele>
        <time>2021-03-14T11:42:50Z</time>
      </trkpt>
      <trkpt lat="44.78123" lon="5.10309">
        <ele>562.99</ele>
        <time>2021-03-14T11:43:00Z</time>
      </trkpt>
      <trkpt lat="44.78125" lon="5.10317">
        <ele>559.62</ele>
        <time>2021-03-14T11:43:08Z</time>
      </trkpt>
      <trkpt lat="44.78128" lon="5.10326">
        <ele>556.74</ele>
        <time>2021-03-14T11:43:18Z</time>
      </trkpt>
      <trkpt lat="44.78131" lon="5.10338">
        <ele>552.9</ele>
        <time>2021-03-14T11:43:29Z</time>
      </trkpt>
      <trkpt lat="44.78137" lon="5.10346">
        <ele>550.01</ele>
        <time>2021-03-14T11:43:39Z</time>
      </trkpt>
      <trkpt lat="44.78141" lon="5.10351">
        <ele>546.65</ele>
        <time>2021-03-14T11:43:46Z</time>
      </trkpt>
      <trkpt lat="44.78145" lon="5.10362">
        <ele>543.76</ele>
        <time>2021-03-14T11:43:56Z</time>
      </trkpt>
      <trkpt lat="44.78147" lon="5.10375">
        <ele>540.4</ele>
        <time>2021-03-14T11:44:08Z</time>
      </trkpt>
      <trkpt lat="44.78151" lon="5.10387">
        <ele>537.03</ele>
        <time>2021-03-14T11:44:19Z</time>
      </trkpt>
      <trkpt lat="44.78155" lon="5.10403">
        <ele>533.67</ele>
        <time>2021-03-14T11:44:31Z</time>
      </trkpt>
      <trkpt lat="44.78161" lon="5.10417">
        <ele>530.79</ele>
        <time>2021-03-14T11:44:42Z</time>
      </trkpt>
      <trkpt lat="44.78164" lon="5.1043">
        <ele>527.42</ele>
        <time>2021-03-14T11:44:53Z</time>
      </trkpt>
      <trkpt lat="44.78166" lon="5.1044">
        <ele>524.06</ele>
        <time>2021-03-14T11:45:04Z</time>
      </trkpt>
      <trkpt lat="44.78172" lon="5.10463">
        <ele>521.17</ele>
        <time>2021-03-14T11:45:17Z</time>
      </trkpt>
      <trkpt lat="44.78175" lon="5.10484">
        <ele>517.81</ele>
        <time>2021-03-14T11:45:30Z</time>
      </trkpt>
      <trkpt lat="44.78181" lon="5.10504">
        <ele>514.92</ele>
        <time>2021-03-14T11:45:43Z</time>
      </trkpt>
      <trkpt lat="44.78186" lon="5.10519">
        <ele>512.04</ele>
        <time>2021-03-14T11:45:55Z</time>
      </trkpt>
      <trkpt lat="44.78191" lon="5.10542">
        <ele>509.16</ele>
        <time>2021-03-14T11:46:09Z</time>
      </trkpt>
      <trkpt lat="44.78196" lon="5.10555">
        <ele>505.79</ele>
        <time>2021-03-14T11:46:18Z</time>
      </trkpt>
      <trkpt lat="44.78197" lon="5.10561">
        <ele>504.83</ele>
        <time>2021-03-14T11:46:22Z</time>
      </trkpt>
      <trkpt lat="44.78202" lon="5.10579">
        <ele>503.39</ele>
        <time>2021-03-14T11:46:36Z</time>
      </trkpt>
      <trkpt lat="44.78204" lon="5.1058">
        <ele>502.91</ele>
        <time>2021-03-14T11:46:58Z</time>
      </trkpt>
      <trkpt lat="44.78205" lon="5.10574">
        <ele>502.91</ele>
        <time>2021-03-14T11:47:21Z</time>
      </trkpt>
      <trkpt lat="44.78213" lon="5.10565">
        <ele>502.43</ele>
        <time>2021-03-14T11:47:34Z</time>
      </trkpt>
      <trkpt lat="44.78217" lon="5.1055">
        <ele>504.83</ele>
        <time>2021-03-14T11:47:45Z</time>
      </trkpt>
      <trkpt lat="44.78217" lon="5.10529">
        <ele>505.31</ele>
        <time>2021-03-14T11:47:59Z</time>
      </trkpt>
      <trkpt lat="44.78213" lon="5.10507">
        <ele>506.27</ele>
        <time>2021-03-14T11:48:15Z</time>
      </trkpt>
      <trkpt lat="44.78215" lon="5.10503">
        <ele>506.27</ele>
        <time>2021-03-14T11:48:18Z</time>
      </trkpt>
      <trkpt lat="44.78224" lon="5.10495">
        <ele>506.75</ele>
        <time>2021-03-14T11:48:28Z</time>
      </trkpt>
      <trkpt lat="44.78236" lon="5.10486">
        <ele>507.71</ele>
        <time>2021-03-14T11:48:41Z</time>
      </trkpt>
      <trkpt lat="44.78241" lon="5.1048">
        <ele>507.71</ele>
        <time>2021-03-14T11:48:47Z</time>
      </trkpt>
      <trkpt lat="44.78252" lon="5.10468">
        <ele>508.19</ele>
        <time>2021-03-14T11:49:00Z</time>
      </trkpt>
      <trkpt lat="44.78263" lon="5.10454">
        <ele>508.67</ele>
        <time>2021-03-14T11:49:14Z</time>
      </trkpt>
      <trkpt lat="44.78263" lon="5.10435">
        <ele>510.12</ele>
        <time>2021-03-14T11:49:30Z</time>
      </trkpt>
      <trkpt lat="44.78261" lon="5.10429">
        <ele>510.6</ele>
        <time>2021-03-14T11:49:36Z</time>
      </trkpt>
      <trkpt lat="44.7825" lon="5.10416">
        <ele>512.04</ele>
        <time>2021-03-14T11:49:51Z</time>
      </trkpt>
      <trkpt lat="44.78243" lon="5.10398">
        <ele>513</ele>
        <time>2021-03-14T11:50:05Z</time>
      </trkpt>
      <trkpt lat="44.78245" lon="5.10388">
        <ele>513</ele>
        <time>2021-03-14T11:50:13Z</time>
      </trkpt>
      <trkpt lat="44.78268" lon="5.10393">
        <ele>511.08</ele>
        <time>2021-03-14T11:50:31Z</time>
      </trkpt>
      <trkpt lat="44.78274" lon="5.10391">
        <ele>511.08</ele>
        <time>2021-03-14T11:50:37Z</time>
      </trkpt>
      <trkpt lat="44.78279" lon="5.10383">
        <ele>510.6</ele>
        <time>2021-03-14T11:50:43Z</time>
      </trkpt>
      <trkpt lat="44.78281" lon="5.10375">
        <ele>510.6</ele>
        <time>2021-03-14T11:50:48Z</time>
      </trkpt>
      <trkpt lat="44.78281" lon="5.10367">
        <ele>510.12</ele>
        <time>2021-03-14T11:50:54Z</time>
      </trkpt>
      <trkpt lat="44.7829" lon="5.10367">
        <ele>510.12</ele>
        <time>2021-03-14T11:51:04Z</time>
      </trkpt>
      <trkpt lat="44.78295" lon="5.1037">
        <ele>510.12</ele>
        <time>2021-03-14T11:51:22Z</time>
      </trkpt>
      <trkpt lat="44.78298" lon="5.1037">
        <ele>510.12</ele>
        <time>2021-03-14T11:51:42Z</time>
      </trkpt>
      <trkpt lat="44.78299" lon="5.10371">
        <ele>510.12</ele>
        <time>2021-03-14T11:51:59Z</time>
      </trkpt>
      <trkpt lat="44.7831" lon="5.10371">
        <ele>510.12</ele>
        <time>2021-03-14T11:52:10Z</time>
      </trkpt>
      <trkpt lat="44.78316" lon="5.1036">
        <ele>511.56</ele>
        <time>2021-03-14T11:52:19Z</time>
      </trkpt>
      <trkpt lat="44.78323" lon="5.10343">
        <ele>512.04</ele>
        <time>2021-03-14T11:52:32Z</time>
      </trkpt>
      <trkpt lat="44.78322" lon="5.1034">
        <ele>512.52</ele>
        <time>2021-03-14T11:52:47Z</time>
      </trkpt>
      <trkpt lat="44.78323" lon="5.10338">
        <ele>512.52</ele>
        <time>2021-03-14T11:53:12Z</time>
      </trkpt>
      <trkpt lat="44.7832" lon="5.10338">
        <ele>512.52</ele>
        <time>2021-03-14T11:53:39Z</time>
      </trkpt>
      <trkpt lat="44.78319" lon="5.10338">
        <ele>512.52</ele>
        <time>2021-03-14T11:53:55Z</time>
      </trkpt>
      <trkpt lat="44.78314" lon="5.10329">
        <ele>513.96</ele>
        <time>2021-03-14T11:54:09Z</time>
      </trkpt>
      <trkpt lat="44.78312" lon="5.10318">
        <ele>517.33</ele>
        <time>2021-03-14T11:54:21Z</time>
      </trkpt>
      <trkpt lat="44.78306" lon="5.1031">
        <ele>519.73</ele>
        <time>2021-03-14T11:54:35Z</time>
      </trkpt>
      <trkpt lat="44.78301" lon="5.10297">
        <ele>521.17</ele>
        <time>2021-03-14T11:54:50Z</time>
      </trkpt>
      <trkpt lat="44.78297" lon="5.10291">
        <ele>522.13</ele>
        <time>2021-03-14T11:55:10Z</time>
      </trkpt>
      <trkpt lat="44.78298" lon="5.10293">
        <ele>522.13</ele>
        <time>2021-03-14T11:55:32Z</time>
      </trkpt>
      <trkpt lat="44.78304" lon="5.1029">
        <ele>521.17</ele>
        <time>2021-03-14T11:55:52Z</time>
      </trkpt>
      <trkpt lat="44.78304" lon="5.10286">
        <ele>520.69</ele>
        <time>2021-03-14T11:55:58Z</time>
      </trkpt>
      <trkpt lat="44.78306" lon="5.10265">
        <ele>516.85</ele>
        <time>2021-03-14T11:56:14Z</time>
      </trkpt>
      <trkpt lat="44.78317" lon="5.10266">
        <ele>514.92</ele>
        <time>2021-03-14T11:56:29Z</time>
      </trkpt>
      <trkpt lat="44.78321" lon="5.10264">
        <ele>514.44</ele>
        <time>2021-03-14T11:56:42Z</time>
      </trkpt>
      <trkpt lat="44.78327" lon="5.10267">
        <ele>515.88</ele>
        <time>2021-03-14T11:56:59Z</time>
      </trkpt>
      <trkpt lat="44.7833" lon="5.10279">
        <ele>516.37</ele>
        <time>2021-03-14T11:57:09Z</time>
      </trkpt>
      <trkpt lat="44.78333" lon="5.10289">
        <ele>514.92</ele>
        <time>2021-03-14T11:57:17Z</time>
      </trkpt>
      <trkpt lat="44.78334" lon="5.103">
        <ele>512.04</ele>
        <time>2021-03-14T11:57:33Z</time>
      </trkpt>
      <trkpt lat="44.78336" lon="5.10301">
        <ele>512.04</ele>
        <time>2021-03-14T11:57:35Z</time>
      </trkpt>
      <trkpt lat="44.78345" lon="5.10313">
        <ele>512.04</ele>
        <time>2021-03-14T11:57:52Z</time>
      </trkpt>
      <trkpt lat="44.78351" lon="5.10317">
        <ele>513</ele>
        <time>2021-03-14T11:58:06Z</time>
      </trkpt>
      <trkpt lat="44.78356" lon="5.10322">
        <ele>513.48</ele>
        <time>2021-03-14T11:58:20Z</time>
      </trkpt>
      <trkpt lat="44.7837" lon="5.1034">
        <ele>514.44</ele>
        <time>2021-03-14T11:58:36Z</time>
      </trkpt>
      <trkpt lat="44.78374" lon="5.10352">
        <ele>511.56</ele>
        <time>2021-03-14T11:58:46Z</time>
      </trkpt>
      <trkpt lat="44.78378" lon="5.10358">
        <ele>510.6</ele>
        <time>2021-03-14T11:58:52Z</time>
      </trkpt>
      <trkpt lat="44.78384" lon="5.10365">
        <ele>508.67</ele>
        <time>2021-03-14T11:58:59Z</time>
      </trkpt>
      <trkpt lat="44.78397" lon="5.10383">
        <ele>506.27</ele>
        <time>2021-03-14T11:59:15Z</time>
      </trkpt>
      <trkpt lat="44.78407" lon="5.10398">
        <ele>502.91</ele>
        <time>2021-03-14T11:59:26Z</time>
      </trkpt>
      <trkpt lat="44.78414" lon="5.10411">
        <ele>500.5</ele>
        <time>2021-03-14T11:59:41Z</time>
      </trkpt>
      <trkpt lat="44.7842" lon="5.10425">
        <ele>497.14</ele>
        <time>2021-03-14T11:59:54Z</time>
      </trkpt>
      <trkpt lat="44.78433" lon="5.10438">
        <ele>494.26</ele>
        <time>2021-03-14T12:00:09Z</time>
      </trkpt>
      <trkpt lat="44.78442" lon="5.10447">
        <ele>492.81</ele>
        <time>2021-03-14T12:00:23Z</time>
      </trkpt>
      <trkpt lat="44.78452" lon="5.10456">
        <ele>492.33</ele>
        <time>2021-03-14T12:00:33Z</time>
      </trkpt>
      <trkpt lat="44.78468" lon="5.10468">
        <ele>491.37</ele>
        <time>2021-03-14T12:00:47Z</time>
      </trkpt>
      <trkpt lat="44.78482" lon="5.10482">
        <ele>490.89</ele>
        <time>2021-03-14T12:00:59Z</time>
      </trkpt>
      <trkpt lat="44.78496" lon="5.10497">
        <ele>490.89</ele>
        <time>2021-03-14T12:01:15Z</time>
      </trkpt>
      <trkpt lat="44.78508" lon="5.10517">
        <ele>491.85</ele>
        <time>2021-03-14T12:01:32Z</time>
      </trkpt>
      <trkpt lat="44.78509" lon="5.10518">
        <ele>491.85</ele>
        <time>2021-03-14T12:01:33Z</time>
      </trkpt>
      <trkpt lat="44.7852" lon="5.10531">
        <ele>491.85</ele>
        <time>2021-03-14T12:01:49Z</time>
      </trkpt>
      <trkpt lat="44.78531" lon="5.10544">
        <ele>494.26</ele>
        <time>2021-03-14T12:02:04Z</time>
      </trkpt>
      <trkpt lat="44.78533" lon="5.10554">
        <ele>494.26</ele>
        <time>2021-03-14T12:02:21Z</time>
      </trkpt>
      <trkpt lat="44.78537" lon="5.10559">
        <ele>494.26</ele>
        <time>2021-03-14T12:02:37Z</time>
      </trkpt>
      <trkpt lat="44.78538" lon="5.10562">
        <ele>492.33</ele>
        <time>2021-03-14T12:02:49Z</time>
      </trkpt>
      <trkpt lat="44.78538" lon="5.10562">
        <ele>492.33</ele>
        <time>2021-03-14T12:03:26Z</time>
      </trkpt>
      <trkpt lat="44.78537" lon="5.10559">
        <ele>494.26</ele>
        <time>2021-03-14T12:04:10Z</time>
      </trkpt>
      <trkpt lat="44.78539" lon="5.10556">
        <ele>494.26</ele>
        <time>2021-03-14T12:04:37Z</time>
      </trkpt>
      <trkpt lat="44.78539" lon="5.10562">
        <ele>494.74</ele>
        <time>2021-03-14T12:05:00Z</time>
      </trkpt>
      <trkpt lat="44.78548" lon="5.10574">
        <ele>495.7</ele>
        <time>2021-03-14T12:05:17Z</time>
      </trkpt>
      <trkpt lat="44.78559" lon="5.10585">
        <ele>497.14</ele>
        <time>2021-03-14T12:05:29Z</time>
      </trkpt>
      <trkpt lat="44.7857" lon="5.10596">
        <ele>499.06</ele>
        <time>2021-03-14T12:05:43Z</time>
      </trkpt>
      <trkpt lat="44.78583" lon="5.10608">
        <ele>499.54</ele>
        <time>2021-03-14T12:05:57Z</time>
      </trkpt>
      <trkpt lat="44.78599" lon="5.10617">
        <ele>500.5</ele>
        <time>2021-03-14T12:06:12Z</time>
      </trkpt>
      <trkpt lat="44.78611" lon="5.1062">
        <ele>501.46</ele>
        <time>2021-03-14T12:06:26Z</time>
      </trkpt>
      <trkpt lat="44.78628" lon="5.10625">
        <ele>502.43</ele>
        <time>2021-03-14T12:06:41Z</time>
      </trkpt>
      <trkpt lat="44.78647" lon="5.10631">
        <ele>503.87</ele>
        <time>2021-03-14T12:06:58Z</time>
      </trkpt>
      <trkpt lat="44.78663" lon="5.10635">
        <ele>503.87</ele>
        <time>2021-03-14T12:07:13Z</time>
      </trkpt>
      <trkpt lat="44.78681" lon="5.10638">
        <ele>503.87</ele>
        <time>2021-03-14T12:07:28Z</time>
      </trkpt>
      <trkpt lat="44.7869" lon="5.10638">
        <ele>502.43</ele>
        <time>2021-03-14T12:07:35Z</time>
      </trkpt>
      <trkpt lat="44.78712" lon="5.10638">
        <ele>501.46</ele>
        <time>2021-03-14T12:07:53Z</time>
      </trkpt>
      <trkpt lat="44.78733" lon="5.10639">
        <ele>500.98</ele>
        <time>2021-03-14T12:08:09Z</time>
      </trkpt>
      <trkpt lat="44.78757" lon="5.10633">
        <ele>500.02</ele>
        <time>2021-03-14T12:08:28Z</time>
      </trkpt>
      <trkpt lat="44.78777" lon="5.10614">
        <ele>499.06</ele>
        <time>2021-03-14T12:08:48Z</time>
      </trkpt>
      <trkpt lat="44.78797" lon="5.10605">
        <ele>499.06</ele>
        <time>2021-03-14T12:09:02Z</time>
      </trkpt>
      <trkpt lat="44.78817" lon="5.10603">
        <ele>499.06</ele>
        <time>2021-03-14T12:09:17Z</time>
      </trkpt>
      <trkpt lat="44.78833" lon="5.10603">
        <ele>500.5</ele>
        <time>2021-03-14T12:09:32Z</time>
      </trkpt>
      <trkpt lat="44.78848" lon="5.10602">
        <ele>502.43</ele>
        <time>2021-03-14T12:09:46Z</time>
      </trkpt>
      <trkpt lat="44.78862" lon="5.10603">
        <ele>504.35</ele>
        <time>2021-03-14T12:10:00Z</time>
      </trkpt>
      <trkpt lat="44.78873" lon="5.10602">
        <ele>506.27</ele>
        <time>2021-03-14T12:10:13Z</time>
      </trkpt>
      <trkpt lat="44.78888" lon="5.10602">
        <ele>508.67</ele>
        <time>2021-03-14T12:10:29Z</time>
      </trkpt>
      <trkpt lat="44.78896" lon="5.10603">
        <ele>510.6</ele>
        <time>2021-03-14T12:10:42Z</time>
      </trkpt>
      <trkpt lat="44.78911" lon="5.10611">
        <ele>513.96</ele>
        <time>2021-03-14T12:10:59Z</time>
      </trkpt>
      <trkpt lat="44.78915" lon="5.10617">
        <ele>514.92</ele>
        <time>2021-03-14T12:11:15Z</time>
      </trkpt>
      <trkpt lat="44.78928" lon="5.10629">
        <ele>517.33</ele>
        <time>2021-03-14T12:11:31Z</time>
      </trkpt>
      <trkpt lat="44.78938" lon="5.10645">
        <ele>519.25</ele>
        <time>2021-03-14T12:11:47Z</time>
      </trkpt>
      <trkpt lat="44.78944" lon="5.1065">
        <ele>520.21</ele>
        <time>2021-03-14T12:12:02Z</time>
      </trkpt>
      <trkpt lat="44.78946" lon="5.1065">
        <ele>520.21</ele>
        <time>2021-03-14T12:12:17Z</time>
      </trkpt>
      <trkpt lat="44.78945" lon="5.1065">
        <ele>519.73</ele>
        <time>2021-03-14T12:12:51Z</time>
      </trkpt>
      <trkpt lat="44.78947" lon="5.10647">
        <ele>519.25</ele>
        <time>2021-03-14T12:13:12Z</time>
      </trkpt>
      <trkpt lat="44.78946" lon="5.10648">
        <ele>519.25</ele>
        <time>2021-03-14T12:13:35Z</time>
      </trkpt>
      <trkpt lat="44.78946" lon="5.1065">
        <ele>520.69</ele>
        <time>2021-03-14T12:13:53Z</time>
      </trkpt>
      <trkpt lat="44.78947" lon="5.10651">
        <ele>521.17</ele>
        <time>2021-03-14T12:14:16Z</time>
      </trkpt>
      <trkpt lat="44.78956" lon="5.10652">
        <ele>521.17</ele>
        <time>2021-03-14T12:14:33Z</time>
      </trkpt>
      <trkpt lat="44.78967" lon="5.10658">
        <ele>523.09</ele>
        <time>2021-03-14T12:14:48Z</time>
      </trkpt>
      <trkpt lat="44.78981" lon="5.10662">
        <ele>525.02</ele>
        <time>2021-03-14T12:15:03Z</time>
      </trkpt>
      <trkpt lat="44.78994" lon="5.10667">
        <ele>526.46</ele>
        <time>2021-03-14T12:15:18Z</time>
      </trkpt>
      <trkpt lat="44.79007" lon="5.10673">
        <ele>528.38</ele>
        <time>2021-03-14T12:15:33Z</time>
      </trkpt>
      <trkpt lat="44.7902" lon="5.10678">
        <ele>530.3</ele>
        <time>2021-03-14T12:15:47Z</time>
      </trkpt>
      <trkpt lat="44.79028" lon="5.1068">
        <ele>530.3</ele>
        <time>2021-03-14T12:15:57Z</time>
      </trkpt>
      <trkpt lat="44.79031" lon="5.10681">
        <ele>531.75</ele>
        <time>2021-03-14T12:16:00Z</time>
      </trkpt>
      <trkpt lat="44.79041" lon="5.10681">
        <ele>534.15</ele>
        <time>2021-03-14T12:16:16Z</time>
      </trkpt>
      <trkpt lat="44.7905" lon="5.10678">
        <ele>534.15</ele>
        <time>2021-03-14T12:16:28Z</time>
      </trkpt>
      <trkpt lat="44.79059" lon="5.10669">
        <ele>536.55</ele>
        <time>2021-03-14T12:16:41Z</time>
      </trkpt>
      <trkpt lat="44.79069" lon="5.1066">
        <ele>537.99</ele>
        <time>2021-03-14T12:16:58Z</time>
      </trkpt>
      <trkpt lat="44.7908" lon="5.10651">
        <ele>540.88</ele>
        <time>2021-03-14T12:17:14Z</time>
      </trkpt>
      <trkpt lat="44.79091" lon="5.10642">
        <ele>543.28</ele>
        <time>2021-03-14T12:17:29Z</time>
      </trkpt>
      <trkpt lat="44.791" lon="5.10634">
        <ele>546.17</ele>
        <time>2021-03-14T12:17:43Z</time>
      </trkpt>
      <trkpt lat="44.7911" lon="5.10625">
        <ele>548.57</ele>
        <time>2021-03-14T12:17:59Z</time>
      </trkpt>
      <trkpt lat="44.79116" lon="5.10614">
        <ele>550.97</ele>
        <time>2021-03-14T12:18:16Z</time>
      </trkpt>
      <trkpt lat="44.79116" lon="5.10607">
        <ele>551.45</ele>
        <time>2021-03-14T12:18:24Z</time>
      </trkpt>
      <trkpt lat="44.79115" lon="5.10598">
        <ele>552.41</ele>
        <time>2021-03-14T12:18:41Z</time>
      </trkpt>
      <trkpt lat="44.79111" lon="5.10597">
        <ele>552.9</ele>
        <time>2021-03-14T12:18:56Z</time>
      </trkpt>
      <trkpt lat="44.79103" lon="5.10586">
        <ele>554.34</ele>
        <time>2021-03-14T12:19:12Z</time>
      </trkpt>
      <trkpt lat="44.79092" lon="5.10576">
        <ele>556.74</ele>
        <time>2021-03-14T12:19:28Z</time>
      </trkpt>
      <trkpt lat="44.79083" lon="5.10571">
        <ele>556.74</ele>
        <time>2021-03-14T12:19:42Z</time>
      </trkpt>
      <trkpt lat="44.7908" lon="5.10568">
        <ele>557.7</ele>
        <time>2021-03-14T12:20:10Z</time>
      </trkpt>
      <trkpt lat="44.79079" lon="5.10564">
        <ele>557.7</ele>
        <time>2021-03-14T12:20:40Z</time>
      </trkpt>
      <trkpt lat="44.79072" lon="5.10564">
        <ele>558.18</ele>
        <time>2021-03-14T12:21:00Z</time>
      </trkpt>
      <trkpt lat="44.79068" lon="5.10573">
        <ele>559.14</ele>
        <time>2021-03-14T12:21:15Z</time>
      </trkpt>
      <trkpt lat="44.79062" lon="5.10582">
        <ele>559.62</ele>
        <time>2021-03-14T12:21:32Z</time>
      </trkpt>
      <trkpt lat="44.79061" lon="5.10587">
        <ele>560.59</ele>
        <time>2021-03-14T12:21:48Z</time>
      </trkpt>
      <trkpt lat="44.79061" lon="5.10595">
        <ele>560.59</ele>
        <time>2021-03-14T12:22:03Z</time>
      </trkpt>
      <trkpt lat="44.79064" lon="5.10602">
        <ele>560.59</ele>
        <time>2021-03-14T12:22:20Z</time>
      </trkpt>
      <trkpt lat="44.79062" lon="5.10602">
        <ele>560.59</ele>
        <time>2021-03-14T12:22:38Z</time>
      </trkpt>
      <trkpt lat="44.79063" lon="5.10603">
        <ele>559.14</ele>
        <time>2021-03-14T12:22:40Z</time>
      </trkpt>
      <trkpt lat="44.79068" lon="5.10607">
        <ele>559.14</ele>
        <time>2021-03-14T12:22:56Z</time>
      </trkpt>
      <trkpt lat="44.79072" lon="5.10613">
        <ele>556.26</ele>
        <time>2021-03-14T12:23:12Z</time>
      </trkpt>
      <trkpt lat="44.79072" lon="5.10614">
        <ele>556.26</ele>
        <time>2021-03-14T12:23:13Z</time>
      </trkpt>
      <trkpt lat="44.79083" lon="5.10619">
        <ele>551.93</ele>
        <time>2021-03-14T12:25:57Z</time>
      </trkpt>
      <trkpt lat="44.79091" lon="5.10616">
        <ele>551.93</ele>
        <time>2021-03-14T12:26:12Z</time>
      </trkpt>
      <trkpt lat="44.79107" lon="5.1061">
        <ele>551.93</ele>
        <time>2021-03-14T12:26:27Z</time>
      </trkpt>
      <trkpt lat="44.79124" lon="5.10609">
        <ele>553.38</ele>
        <time>2021-03-14T12:26:39Z</time>
      </trkpt>
      <trkpt lat="44.79142" lon="5.10619">
        <ele>554.82</ele>
        <time>2021-03-14T12:26:58Z</time>
      </trkpt>
      <trkpt lat="44.79154" lon="5.10627">
        <ele>556.74</ele>
        <time>2021-03-14T12:27:15Z</time>
      </trkpt>
      <trkpt lat="44.79167" lon="5.10636">
        <ele>558.66</ele>
        <time>2021-03-14T12:27:29Z</time>
      </trkpt>
      <trkpt lat="44.79187" lon="5.10647">
        <ele>562.03</ele>
        <time>2021-03-14T12:27:48Z</time>
      </trkpt>
      <trkpt lat="44.792" lon="5.10654">
        <ele>563.95</ele>
        <time>2021-03-14T12:28:00Z</time>
      </trkpt>
      <trkpt lat="44.79203" lon="5.10659">
        <ele>564.91</ele>
        <time>2021-03-14T12:28:14Z</time>
      </trkpt>
      <trkpt lat="44.79209" lon="5.10666">
        <ele>565.87</ele>
        <time>2021-03-14T12:28:28Z</time>
      </trkpt>
      <trkpt lat="44.7922" lon="5.10672">
        <ele>567.32</ele>
        <time>2021-03-14T12:28:40Z</time>
      </trkpt>
      <trkpt lat="44.79236" lon="5.10685">
        <ele>568.76</ele>
        <time>2021-03-14T12:28:58Z</time>
      </trkpt>
      <trkpt lat="44.79254" lon="5.10699">
        <ele>571.16</ele>
        <time>2021-03-14T12:29:15Z</time>
      </trkpt>
      <trkpt lat="44.79268" lon="5.10709">
        <ele>573.56</ele>
        <time>2021-03-14T12:29:30Z</time>
      </trkpt>
      <trkpt lat="44.79278" lon="5.10722">
        <ele>575.49</ele>
        <time>2021-03-14T12:29:47Z</time>
      </trkpt>
      <trkpt lat="44.79291" lon="5.10733">
        <ele>575.49</ele>
        <time>2021-03-14T12:30:03Z</time>
      </trkpt>
      <trkpt lat="44.79307" lon="5.10746">
        <ele>574.04</ele>
        <time>2021-03-14T12:30:20Z</time>
      </trkpt>
      <trkpt lat="44.79319" lon="5.10761">
        <ele>572.12</ele>
        <time>2021-03-14T12:30:35Z</time>
      </trkpt>
      <trkpt lat="44.79329" lon="5.1078">
        <ele>570.2</ele>
        <time>2021-03-14T12:30:49Z</time>
      </trkpt>
      <trkpt lat="44.7934" lon="5.10815">
        <ele>568.76</ele>
        <time>2021-03-14T12:31:06Z</time>
      </trkpt>
      <trkpt lat="44.79346" lon="5.10844">
        <ele>568.76</ele>
        <time>2021-03-14T12:31:23Z</time>
      </trkpt>
      <trkpt lat="44.79347" lon="5.10854">
        <ele>569.72</ele>
        <time>2021-03-14T12:31:29Z</time>
      </trkpt>
      <trkpt lat="44.79346" lon="5.1088">
        <ele>569.72</ele>
        <time>2021-03-14T12:31:45Z</time>
      </trkpt>
      <trkpt lat="44.7935" lon="5.10887">
        <ele>569.72</ele>
        <time>2021-03-14T12:31:59Z</time>
      </trkpt>
      <trkpt lat="44.7936" lon="5.10895">
        <ele>571.16</ele>
        <time>2021-03-14T12:32:14Z</time>
      </trkpt>
      <trkpt lat="44.79368" lon="5.109">
        <ele>572.12</ele>
        <time>2021-03-14T12:32:28Z</time>
      </trkpt>
      <trkpt lat="44.79369" lon="5.10902">
        <ele>572.12</ele>
        <time>2021-03-14T12:32:30Z</time>
      </trkpt>
      <trkpt lat="44.79372" lon="5.10908">
        <ele>571.16</ele>
        <time>2021-03-14T12:32:34Z</time>
      </trkpt>
      <trkpt lat="44.79387" lon="5.10926">
        <ele>568.76</ele>
        <time>2021-03-14T12:32:52Z</time>
      </trkpt>
      <trkpt lat="44.79405" lon="5.10936">
        <ele>565.87</ele>
        <time>2021-03-14T12:33:10Z</time>
      </trkpt>
      <trkpt lat="44.79421" lon="5.10947">
        <ele>563.95</ele>
        <time>2021-03-14T12:33:27Z</time>
      </trkpt>
      <trkpt lat="44.79432" lon="5.10957">
        <ele>560.11</ele>
        <time>2021-03-14T12:33:38Z</time>
      </trkpt>
      <trkpt lat="44.79446" lon="5.10969">
        <ele>557.7</ele>
        <time>2021-03-14T12:33:54Z</time>
      </trkpt>
      <trkpt lat="44.79459" lon="5.10979">
        <ele>555.3</ele>
        <time>2021-03-14T12:34:07Z</time>
      </trkpt>
      <trkpt lat="44.79469" lon="5.10994">
        <ele>551.93</ele>
        <time>2021-03-14T12:34:20Z</time>
      </trkpt>
      <trkpt lat="44.79478" lon="5.11012">
        <ele>550.49</ele>
        <time>2021-03-14T12:34:37Z</time>
      </trkpt>
      <trkpt lat="44.79482" lon="5.11027">
        <ele>547.13</ele>
        <time>2021-03-14T12:34:51Z</time>
      </trkpt>
      <trkpt lat="44.79485" lon="5.1104">
        <ele>543.76</ele>
        <time>2021-03-14T12:35:05Z</time>
      </trkpt>
      <trkpt lat="44.79485" lon="5.11046">
        <ele>543.28</ele>
        <time>2021-03-14T12:35:11Z</time>
      </trkpt>
      <trkpt lat="44.79487" lon="5.11073">
        <ele>539.44</ele>
        <time>2021-03-14T12:35:26Z</time>
      </trkpt>
      <trkpt lat="44.79489" lon="5.11084">
        <ele>538.48</ele>
        <time>2021-03-14T12:35:37Z</time>
      </trkpt>
      <trkpt lat="44.79493" lon="5.11092">
        <ele>538.48</ele>
        <time>2021-03-14T12:35:44Z</time>
      </trkpt>
      <trkpt lat="44.79496" lon="5.11104">
        <ele>536.55</ele>
        <time>2021-03-14T12:35:53Z</time>
      </trkpt>
      <trkpt lat="44.79498" lon="5.11113">
        <ele>536.07</ele>
        <time>2021-03-14T12:36:07Z</time>
      </trkpt>
      <trkpt lat="44.79497" lon="5.11114">
        <ele>535.59</ele>
        <time>2021-03-14T12:36:30Z</time>
      </trkpt>
      <trkpt lat="44.79498" lon="5.11114">
        <ele>535.11</ele>
        <time>2021-03-14T12:36:53Z</time>
      </trkpt>
      <trkpt lat="44.79499" lon="5.11123">
        <ele>534.15</ele>
        <time>2021-03-14T12:37:08Z</time>
      </trkpt>
      <trkpt lat="44.795" lon="5.11141">
        <ele>531.27</ele>
        <time>2021-03-14T12:37:21Z</time>
      </trkpt>
      <trkpt lat="44.79497" lon="5.11141">
        <ele>530.79</ele>
        <time>2021-03-14T12:37:37Z</time>
      </trkpt>
      <trkpt lat="44.79498" lon="5.11146">
        <ele>530.3</ele>
        <time>2021-03-14T12:38:12Z</time>
      </trkpt>
      <trkpt lat="44.79501" lon="5.11165">
        <ele>526.46</ele>
        <time>2021-03-14T12:38:30Z</time>
      </trkpt>
      <trkpt lat="44.79505" lon="5.11188">
        <ele>523.09</ele>
        <time>2021-03-14T12:38:45Z</time>
      </trkpt>
      <trkpt lat="44.79506" lon="5.11195">
        <ele>520.69</ele>
        <time>2021-03-14T12:38:49Z</time>
      </trkpt>
      <trkpt lat="44.79505" lon="5.11209">
        <ele>517.33</ele>
        <time>2021-03-14T12:38:57Z</time>
      </trkpt>
      <trkpt lat="44.79504" lon="5.11211">
        <ele>517.33</ele>
        <time>2021-03-14T12:38:58Z</time>
      </trkpt>
      <trkpt lat="44.79501" lon="5.11243">
        <ele>514.44</ele>
        <time>2021-03-14T12:39:17Z</time>
      </trkpt>
      <trkpt lat="44.79502" lon="5.11258">
        <ele>511.56</ele>
        <time>2021-03-14T12:39:30Z</time>
      </trkpt>
      <trkpt lat="44.79503" lon="5.11285">
        <ele>509.16</ele>
        <time>2021-03-14T12:39:46Z</time>
      </trkpt>
      <trkpt lat="44.79499" lon="5.11314">
        <ele>506.27</ele>
        <time>2021-03-14T12:40:01Z</time>
      </trkpt>
      <trkpt lat="44.79489" lon="5.11342">
        <ele>505.31</ele>
        <time>2021-03-14T12:40:18Z</time>
      </trkpt>
      <trkpt lat="44.79479" lon="5.11359">
        <ele>504.83</ele>
        <time>2021-03-14T12:40:29Z</time>
      </trkpt>
      <trkpt lat="44.79469" lon="5.11376">
        <ele>505.79</ele>
        <time>2021-03-14T12:40:42Z</time>
      </trkpt>
      <trkpt lat="44.7946" lon="5.11385">
        <ele>507.23</ele>
        <time>2021-03-14T12:40:55Z</time>
      </trkpt>
      <trkpt lat="44.79448" lon="5.1139">
        <ele>505.31</ele>
        <time>2021-03-14T12:41:10Z</time>
      </trkpt>
      <trkpt lat="44.79439" lon="5.11393">
        <ele>506.75</ele>
        <time>2021-03-14T12:41:19Z</time>
      </trkpt>
      <trkpt lat="44.79424" lon="5.11402">
        <ele>508.67</ele>
        <time>2021-03-14T12:41:33Z</time>
      </trkpt>
      <trkpt lat="44.7941" lon="5.11412">
        <ele>510.12</ele>
        <time>2021-03-14T12:41:48Z</time>
      </trkpt>
      <trkpt lat="44.79393" lon="5.11423">
        <ele>512.04</ele>
        <time>2021-03-14T12:42:03Z</time>
      </trkpt>
      <trkpt lat="44.79376" lon="5.11429">
        <ele>513.48</ele>
        <time>2021-03-14T12:42:17Z</time>
      </trkpt>
      <trkpt lat="44.79357" lon="5.11438">
        <ele>514.44</ele>
        <time>2021-03-14T12:42:34Z</time>
      </trkpt>
      <trkpt lat="44.79341" lon="5.11446">
        <ele>516.37</ele>
        <time>2021-03-14T12:42:50Z</time>
      </trkpt>
      <trkpt lat="44.79341" lon="5.11446">
        <ele>516.37</ele>
        <time>2021-03-14T12:42:51Z</time>
      </trkpt>
      <trkpt lat="44.79334" lon="5.11451">
        <ele>516.37</ele>
        <time>2021-03-14T12:42:58Z</time>
      </trkpt>
      <trkpt lat="44.79321" lon="5.11462">
        <ele>517.33</ele>
        <time>2021-03-14T12:43:14Z</time>
      </trkpt>
      <trkpt lat="44.79306" lon="5.11476">
        <ele>517.81</ele>
        <time>2021-03-14T12:43:30Z</time>
      </trkpt>
      <trkpt lat="44.79288" lon="5.11488">
        <ele>519.25</ele>
        <time>2021-03-14T12:43:45Z</time>
      </trkpt>
      <trkpt lat="44.79277" lon="5.11501">
        <ele>520.69</ele>
        <time>2021-03-14T12:43:58Z</time>
      </trkpt>
      <trkpt lat="44.7927" lon="5.11504">
        <ele>521.17</ele>
        <time>2021-03-14T12:44:14Z</time>
      </trkpt>
      <trkpt lat="44.79263" lon="5.11508">
        <ele>521.17</ele>
        <time>2021-03-14T12:44:31Z</time>
      </trkpt>
      <trkpt lat="44.79256" lon="5.11511">
        <ele>519.73</ele>
        <time>2021-03-14T12:44:39Z</time>
      </trkpt>
      <trkpt lat="44.79241" lon="5.11519">
        <ele>518.29</ele>
        <time>2021-03-14T12:44:54Z</time>
      </trkpt>
      <trkpt lat="44.79218" lon="5.11534">
        <ele>517.33</ele>
        <time>2021-03-14T12:45:14Z</time>
      </trkpt>
      <trkpt lat="44.79193" lon="5.11551">
        <ele>515.4</ele>
        <time>2021-03-14T12:45:36Z</time>
      </trkpt>
      <trkpt lat="44.79172" lon="5.11574">
        <ele>513.48</ele>
        <time>2021-03-14T12:45:55Z</time>
      </trkpt>
      <trkpt lat="44.79164" lon="5.11604">
        <ele>512.52</ele>
        <time>2021-03-14T12:46:14Z</time>
      </trkpt>
      <trkpt lat="44.79165" lon="5.11629">
        <ele>510.12</ele>
        <time>2021-03-14T12:46:31Z</time>
      </trkpt>
      <trkpt lat="44.79154" lon="5.1165">
        <ele>506.75</ele>
        <time>2021-03-14T12:46:47Z</time>
      </trkpt>
      <trkpt lat="44.79144" lon="5.11668">
        <ele>504.83</ele>
        <time>2021-03-14T12:47:03Z</time>
      </trkpt>
      <trkpt lat="44.79134" lon="5.11686">
        <ele>501.95</ele>
        <time>2021-03-14T12:47:19Z</time>
      </trkpt>
      <trkpt lat="44.79123" lon="5.11709">
        <ele>499.54</ele>
        <time>2021-03-14T12:47:35Z</time>
      </trkpt>
      <trkpt lat="44.79114" lon="5.11725">
        <ele>498.1</ele>
        <time>2021-03-14T12:47:51Z</time>
      </trkpt>
      <trkpt lat="44.79098" lon="5.11748">
        <ele>496.66</ele>
        <time>2021-03-14T12:48:11Z</time>
      </trkpt>
      <trkpt lat="44.79083" lon="5.11769">
        <ele>493.29</ele>
        <time>2021-03-14T12:48:32Z</time>
      </trkpt>
      <trkpt lat="44.79067" lon="5.11796">
        <ele>490.89</ele>
        <time>2021-03-14T12:48:52Z</time>
      </trkpt>
      <trkpt lat="44.79053" lon="5.11824">
        <ele>488.01</ele>
        <time>2021-03-14T12:49:11Z</time>
      </trkpt>
      <trkpt lat="44.79043" lon="5.11845">
        <ele>485.12</ele>
        <time>2021-03-14T12:49:28Z</time>
      </trkpt>
      <trkpt lat="44.7903" lon="5.11873">
        <ele>483.2</ele>
        <time>2021-03-14T12:49:47Z</time>
      </trkpt>
      <trkpt lat="44.79016" lon="5.11899">
        <ele>481.28</ele>
        <time>2021-03-14T12:50:06Z</time>
      </trkpt>
      <trkpt lat="44.79002" lon="5.11927">
        <ele>478.87</ele>
        <time>2021-03-14T12:50:26Z</time>
      </trkpt>
      <trkpt lat="44.78989" lon="5.11952">
        <ele>476.47</ele>
        <time>2021-03-14T12:50:44Z</time>
      </trkpt>
      <trkpt lat="44.78988" lon="5.11955">
        <ele>476.47</ele>
        <time>2021-03-14T12:50:46Z</time>
      </trkpt>
      <trkpt lat="44.78972" lon="5.11981">
        <ele>474.07</ele>
        <time>2021-03-14T12:51:06Z</time>
      </trkpt>
      <trkpt lat="44.78956" lon="5.12002">
        <ele>472.14</ele>
        <time>2021-03-14T12:51:23Z</time>
      </trkpt>
      <trkpt lat="44.78944" lon="5.12024">
        <ele>470.22</ele>
        <time>2021-03-14T12:51:39Z</time>
      </trkpt>
      <trkpt lat="44.78931" lon="5.12052">
        <ele>467.82</ele>
        <time>2021-03-14T12:51:59Z</time>
      </trkpt>
      <trkpt lat="44.7892" lon="5.12069">
        <ele>465.42</ele>
        <time>2021-03-14T12:52:17Z</time>
      </trkpt>
      <trkpt lat="44.78921" lon="5.12071">
        <ele>465.42</ele>
        <time>2021-03-14T12:52:40Z</time>
      </trkpt>
      <trkpt lat="44.78921" lon="5.1207">
        <ele>465.42</ele>
        <time>2021-03-14T12:53:10Z</time>
      </trkpt>
      <trkpt lat="44.78922" lon="5.12073">
        <ele>464.93</ele>
        <time>2021-03-14T12:53:33Z</time>
      </trkpt>
      <trkpt lat="44.78923" lon="5.12073">
        <ele>464.93</ele>
        <time>2021-03-14T12:53:57Z</time>
      </trkpt>
      <trkpt lat="44.78922" lon="5.12073">
        <ele>464.93</ele>
        <time>2021-03-14T12:54:18Z</time>
      </trkpt>
      <trkpt lat="44.78923" lon="5.12082">
        <ele>464.93</ele>
        <time>2021-03-14T12:54:38Z</time>
      </trkpt>
      <trkpt lat="44.78931" lon="5.12098">
        <ele>463.97</ele>
        <time>2021-03-14T12:54:55Z</time>
      </trkpt>
      <trkpt lat="44.78931" lon="5.12118">
        <ele>463.97</ele>
        <time>2021-03-14T12:55:10Z</time>
      </trkpt>
      <trkpt lat="44.78933" lon="5.12132">
        <ele>463.97</ele>
        <time>2021-03-14T12:55:20Z</time>
      </trkpt>
      <trkpt lat="44.78939" lon="5.12163">
        <ele>463.97</ele>
        <time>2021-03-14T12:55:36Z</time>
      </trkpt>
      <trkpt lat="44.78947" lon="5.12186">
        <ele>462.53</ele>
        <time>2021-03-14T12:55:52Z</time>
      </trkpt>
      <trkpt lat="44.78953" lon="5.12214">
        <ele>462.05</ele>
        <time>2021-03-14T12:56:07Z</time>
      </trkpt>
      <trkpt lat="44.78961" lon="5.12237">
        <ele>460.13</ele>
        <time>2021-03-14T12:56:22Z</time>
      </trkpt>
      <trkpt lat="44.78965" lon="5.12248">
        <ele>460.13</ele>
        <time>2021-03-14T12:56:29Z</time>
      </trkpt>
      <trkpt lat="44.78967" lon="5.12255">
        <ele>460.13</ele>
        <time>2021-03-14T12:56:33Z</time>
      </trkpt>
      <trkpt lat="44.7897" lon="5.12265">
        <ele>459.65</ele>
        <time>2021-03-14T12:56:39Z</time>
      </trkpt>
      <trkpt lat="44.78977" lon="5.12288">
        <ele>459.17</ele>
        <time>2021-03-14T12:56:53Z</time>
      </trkpt>
      <trkpt lat="44.78979" lon="5.12299">
        <ele>458.69</ele>
        <time>2021-03-14T12:56:59Z</time>
      </trkpt>
      <trkpt lat="44.7898" lon="5.12303">
        <ele>458.69</ele>
        <time>2021-03-14T12:57:01Z</time>
      </trkpt>
      <trkpt lat="44.78987" lon="5.12333">
        <ele>457.72</ele>
        <time>2021-03-14T12:57:19Z</time>
      </trkpt>
      <trkpt lat="44.78993" lon="5.12366">
        <ele>456.76</ele>
        <time>2021-03-14T12:57:37Z</time>
      </trkpt>
      <trkpt lat="44.78999" lon="5.12394">
        <ele>456.28</ele>
        <time>2021-03-14T12:57:53Z</time>
      </trkpt>
      <trkpt lat="44.79006" lon="5.12425">
        <ele>455.32</ele>
        <time>2021-03-14T12:58:11Z</time>
      </trkpt>
      <trkpt lat="44.7901" lon="5.12442">
        <ele>454.36</ele>
        <time>2021-03-14T12:58:23Z</time>
      </trkpt>
      <trkpt lat="44.79015" lon="5.12466">
        <ele>453.4</ele>
        <time>2021-03-14T12:58:38Z</time>
      </trkpt>
      <trkpt lat="44.79018" lon="5.12479">
        <ele>452.92</ele>
        <time>2021-03-14T12:58:50Z</time>
      </trkpt>
      <trkpt lat="44.79021" lon="5.12484">
        <ele>452.44</ele>
        <time>2021-03-14T12:59:09Z</time>
      </trkpt>
      <trkpt lat="44.79027" lon="5.12489">
        <ele>451.96</ele>
        <time>2021-03-14T12:59:24Z</time>
      </trkpt>
      <trkpt lat="44.79029" lon="5.12491">
        <ele>451.48</ele>
        <time>2021-03-14T12:59:29Z</time>
      </trkpt>
      <trkpt lat="44.79041" lon="5.12491">
        <ele>450.03</ele>
        <time>2021-03-14T12:59:42Z</time>
      </trkpt>
      <trkpt lat="44.79062" lon="5.125">
        <ele>448.59</ele>
        <time>2021-03-14T12:59:58Z</time>
      </trkpt>
      <trkpt lat="44.79079" lon="5.12502">
        <ele>447.63</ele>
        <time>2021-03-14T13:00:14Z</time>
      </trkpt>
      <trkpt lat="44.79097" lon="5.12499">
        <ele>446.19</ele>
        <time>2021-03-14T13:00:29Z</time>
      </trkpt>
      <trkpt lat="44.79117" lon="5.12496">
        <ele>445.71</ele>
        <time>2021-03-14T13:00:45Z</time>
      </trkpt>
      <trkpt lat="44.79132" lon="5.12499">
        <ele>445.23</ele>
        <time>2021-03-14T13:01:00Z</time>
      </trkpt>
      <trkpt lat="44.79136" lon="5.1252">
        <ele>446.67</ele>
        <time>2021-03-14T13:01:16Z</time>
      </trkpt>
      <trkpt lat="44.79138" lon="5.12534">
        <ele>447.15</ele>
        <time>2021-03-14T13:01:24Z</time>
      </trkpt>
      <trkpt lat="44.79136" lon="5.12553">
        <ele>447.15</ele>
        <time>2021-03-14T13:01:38Z</time>
      </trkpt>
      <trkpt lat="44.79129" lon="5.1256">
        <ele>447.63</ele>
        <time>2021-03-14T13:01:56Z</time>
      </trkpt>
      <trkpt lat="44.79119" lon="5.12573">
        <ele>448.59</ele>
        <time>2021-03-14T13:02:09Z</time>
      </trkpt>
      <trkpt lat="44.79113" lon="5.12596">
        <ele>449.55</ele>
        <time>2021-03-14T13:02:24Z</time>
      </trkpt>
      <trkpt lat="44.79115" lon="5.1261">
        <ele>450.52</ele>
        <time>2021-03-14T13:02:37Z</time>
      </trkpt>
      <trkpt lat="44.79117" lon="5.12623">
        <ele>451</ele>
        <time>2021-03-14T13:02:53Z</time>
      </trkpt>
      <trkpt lat="44.79123" lon="5.12635">
        <ele>450.52</ele>
        <time>2021-03-14T13:03:15Z</time>
      </trkpt>
      <trkpt lat="44.79125" lon="5.12637">
        <ele>450.52</ele>
        <time>2021-03-14T13:03:18Z</time>
      </trkpt>
      <trkpt lat="44.79141" lon="5.12646">
        <ele>451.96</ele>
        <time>2021-03-14T13:03:34Z</time>
      </trkpt>
      <trkpt lat="44.79157" lon="5.12658">
        <ele>451.96</ele>
        <time>2021-03-14T13:03:48Z</time>
      </trkpt>
      <trkpt lat="44.79168" lon="5.12671">
        <ele>452.92</ele>
        <time>2021-03-14T13:04:05Z</time>
      </trkpt>
      <trkpt lat="44.79181" lon="5.12693">
        <ele>453.88</ele>
        <time>2021-03-14T13:04:21Z</time>
      </trkpt>
      <trkpt lat="44.79195" lon="5.1271">
        <ele>454.84</ele>
        <time>2021-03-14T13:04:38Z</time>
      </trkpt>
      <trkpt lat="44.79198" lon="5.12714">
        <ele>455.32</ele>
        <time>2021-03-14T13:04:41Z</time>
      </trkpt>
      <trkpt lat="44.7921" lon="5.12726">
        <ele>456.76</ele>
        <time>2021-03-14T13:04:56Z</time>
      </trkpt>
      <trkpt lat="44.79225" lon="5.12743">
        <ele>458.69</ele>
        <time>2021-03-14T13:05:11Z</time>
      </trkpt>
      <trkpt lat="44.79237" lon="5.12747">
        <ele>460.13</ele>
        <time>2021-03-14T13:05:25Z</time>
      </trkpt>
      <trkpt lat="44.79254" lon="5.12754">
        <ele>463.01</ele>
        <time>2021-03-14T13:05:42Z</time>
      </trkpt>
      <trkpt lat="44.7927" lon="5.12763">
        <ele>464.45</ele>
        <time>2021-03-14T13:05:58Z</time>
      </trkpt>
      <trkpt lat="44.79281" lon="5.12771">
        <ele>464.93</ele>
        <time>2021-03-14T13:06:11Z</time>
      </trkpt>
      <trkpt lat="44.79293" lon="5.1278">
        <ele>466.86</ele>
        <time>2021-03-14T13:06:25Z</time>
      </trkpt>
      <trkpt lat="44.79304" lon="5.12789">
        <ele>468.78</ele>
        <time>2021-03-14T13:06:40Z</time>
      </trkpt>
      <trkpt lat="44.79314" lon="5.12798">
        <ele>470.22</ele>
        <time>2021-03-14T13:06:55Z</time>
      </trkpt>
      <trkpt lat="44.79324" lon="5.12806">
        <ele>472.63</ele>
        <time>2021-03-14T13:07:10Z</time>
      </trkpt>
      <trkpt lat="44.79336" lon="5.12816">
        <ele>474.07</ele>
        <time>2021-03-14T13:07:25Z</time>
      </trkpt>
      <trkpt lat="44.79346" lon="5.12826">
        <ele>477.43</ele>
        <time>2021-03-14T13:07:39Z</time>
      </trkpt>
      <trkpt lat="44.7936" lon="5.12838">
        <ele>478.39</ele>
        <time>2021-03-14T13:07:55Z</time>
      </trkpt>
      <trkpt lat="44.79371" lon="5.12848">
        <ele>479.84</ele>
        <time>2021-03-14T13:08:09Z</time>
      </trkpt>
      <trkpt lat="44.79382" lon="5.12859">
        <ele>481.28</ele>
        <time>2021-03-14T13:08:22Z</time>
      </trkpt>
      <trkpt lat="44.79389" lon="5.12869">
        <ele>481.76</ele>
        <time>2021-03-14T13:08:30Z</time>
      </trkpt>
      <trkpt lat="44.79399" lon="5.12892">
        <ele>482.24</ele>
        <time>2021-03-14T13:08:45Z</time>
      </trkpt>
      <trkpt lat="44.79414" lon="5.12913">
        <ele>483.2</ele>
        <time>2021-03-14T13:09:02Z</time>
      </trkpt>
      <trkpt lat="44.79417" lon="5.12918">
        <ele>483.2</ele>
        <time>2021-03-14T13:09:06Z</time>
      </trkpt>
      <trkpt lat="44.79432" lon="5.12931">
        <ele>484.16</ele>
        <time>2021-03-14T13:09:22Z</time>
      </trkpt>
      <trkpt lat="44.79446" lon="5.12946">
        <ele>484.64</ele>
        <time>2021-03-14T13:09:37Z</time>
      </trkpt>
      <trkpt lat="44.7945" lon="5.12968">
        <ele>485.6</ele>
        <time>2021-03-14T13:09:53Z</time>
      </trkpt>
      <trkpt lat="44.79442" lon="5.12982">
        <ele>485.6</ele>
        <time>2021-03-14T13:10:04Z</time>
      </trkpt>
      <trkpt lat="44.79429" lon="5.13002">
        <ele>487.53</ele>
        <time>2021-03-14T13:10:21Z</time>
      </trkpt>
      <trkpt lat="44.79418" lon="5.13023">
        <ele>489.45</ele>
        <time>2021-03-14T13:10:38Z</time>
      </trkpt>
      <trkpt lat="44.79414" lon="5.13046">
        <ele>490.89</ele>
        <time>2021-03-14T13:10:54Z</time>
      </trkpt>
      <trkpt lat="44.79409" lon="5.13063">
        <ele>491.37</ele>
        <time>2021-03-14T13:11:08Z</time>
      </trkpt>
      <trkpt lat="44.79407" lon="5.13066">
        <ele>491.37</ele>
        <time>2021-03-14T13:11:32Z</time>
      </trkpt>
      <trkpt lat="44.79406" lon="5.1307">
        <ele>491.37</ele>
        <time>2021-03-14T13:11:56Z</time>
      </trkpt>
      <trkpt lat="44.79397" lon="5.13082">
        <ele>490.89</ele>
        <time>2021-03-14T13:12:12Z</time>
      </trkpt>
      <trkpt lat="44.79394" lon="5.13088">
        <ele>489.93</ele>
        <time>2021-03-14T13:12:18Z</time>
      </trkpt>
      <trkpt lat="44.79388" lon="5.13113">
        <ele>489.93</ele>
        <time>2021-03-14T13:12:35Z</time>
      </trkpt>
      <trkpt lat="44.79384" lon="5.13134">
        <ele>489.93</ele>
        <time>2021-03-14T13:12:49Z</time>
      </trkpt>
      <trkpt lat="44.79381" lon="5.13158">
        <ele>489.45</ele>
        <time>2021-03-14T13:13:05Z</time>
      </trkpt>
      <trkpt lat="44.79373" lon="5.13181">
        <ele>489.45</ele>
        <time>2021-03-14T13:13:21Z</time>
      </trkpt>
      <trkpt lat="44.79361" lon="5.13199">
        <ele>488.01</ele>
        <time>2021-03-14T13:13:35Z</time>
      </trkpt>
      <trkpt lat="44.79352" lon="5.13217">
        <ele>487.53</ele>
        <time>2021-03-14T13:13:48Z</time>
      </trkpt>
      <trkpt lat="44.79343" lon="5.13238">
        <ele>487.05</ele>
        <time>2021-03-14T13:14:04Z</time>
      </trkpt>
      <trkpt lat="44.79335" lon="5.13263">
        <ele>486.08</ele>
        <time>2021-03-14T13:14:20Z</time>
      </trkpt>
      <trkpt lat="44.79327" lon="5.13282">
        <ele>484.64</ele>
        <time>2021-03-14T13:14:36Z</time>
      </trkpt>
      <trkpt lat="44.79319" lon="5.13299">
        <ele>481.76</ele>
        <time>2021-03-14T13:14:52Z</time>
      </trkpt>
      <trkpt lat="44.79306" lon="5.13307">
        <ele>478.87</ele>
        <time>2021-03-14T13:15:05Z</time>
      </trkpt>
      <trkpt lat="44.79291" lon="5.13309">
        <ele>476.95</ele>
        <time>2021-03-14T13:15:20Z</time>
      </trkpt>
      <trkpt lat="44.79289" lon="5.13309">
        <ele>476.95</ele>
        <time>2021-03-14T13:15:21Z</time>
      </trkpt>
      <trkpt lat="44.79271" lon="5.13305">
        <ele>474.55</ele>
        <time>2021-03-14T13:15:37Z</time>
      </trkpt>
      <trkpt lat="44.79258" lon="5.13302">
        <ele>472.63</ele>
        <time>2021-03-14T13:15:49Z</time>
      </trkpt>
      <trkpt lat="44.79243" lon="5.13286">
        <ele>471.66</ele>
        <time>2021-03-14T13:18:30Z</time>
      </trkpt>
      <trkpt lat="44.79235" lon="5.13262">
        <ele>468.78</ele>
        <time>2021-03-14T13:18:46Z</time>
      </trkpt>
      <trkpt lat="44.79229" lon="5.13242">
        <ele>466.86</ele>
        <time>2021-03-14T13:19:01Z</time>
      </trkpt>
      <trkpt lat="44.79225" lon="5.13231">
        <ele>466.38</ele>
        <time>2021-03-14T13:19:13Z</time>
      </trkpt>
      <trkpt lat="44.7922" lon="5.13219">
        <ele>464.93</ele>
        <time>2021-03-14T13:19:23Z</time>
      </trkpt>
      <trkpt lat="44.79218" lon="5.13193">
        <ele>464.93</ele>
        <time>2021-03-14T13:19:40Z</time>
      </trkpt>
      <trkpt lat="44.79222" lon="5.13165">
        <ele>461.57</ele>
        <time>2021-03-14T13:19:57Z</time>
      </trkpt>
      <trkpt lat="44.79227" lon="5.13134">
        <ele>460.13</ele>
        <time>2021-03-14T13:20:15Z</time>
      </trkpt>
      <trkpt lat="44.79232" lon="5.13101">
        <ele>458.21</ele>
        <time>2021-03-14T13:20:33Z</time>
      </trkpt>
      <trkpt lat="44.79227" lon="5.1309">
        <ele>457.72</ele>
        <time>2021-03-14T13:20:48Z</time>
      </trkpt>
      <trkpt lat="44.79227" lon="5.13088">
        <ele>457.72</ele>
        <time>2021-03-14T13:21:11Z</time>
      </trkpt>
      <trkpt lat="44.7922" lon="5.13075">
        <ele>457.24</ele>
        <time>2021-03-14T13:21:24Z</time>
      </trkpt>
      <trkpt lat="44.79211" lon="5.1306">
        <ele>455.8</ele>
        <time>2021-03-14T13:21:41Z</time>
      </trkpt>
      <trkpt lat="44.79206" lon="5.1305">
        <ele>454.36</ele>
        <time>2021-03-14T13:21:55Z</time>
      </trkpt>
      <trkpt lat="44.79203" lon="5.13045">
        <ele>455.8</ele>
        <time>2021-03-14T13:22:01Z</time>
      </trkpt>
      <trkpt lat="44.792" lon="5.1304">
        <ele>455.32</ele>
        <time>2021-03-14T13:22:07Z</time>
      </trkpt>
      <trkpt lat="44.79198" lon="5.13037">
        <ele>453.88</ele>
        <time>2021-03-14T13:22:09Z</time>
      </trkpt>
      <trkpt lat="44.79197" lon="5.13035">
        <ele>451.96</ele>
        <time>2021-03-14T13:22:11Z</time>
      </trkpt>
      <trkpt lat="44.79195" lon="5.13033">
        <ele>453.88</ele>
        <time>2021-03-14T13:22:13Z</time>
      </trkpt>
      <trkpt lat="44.79192" lon="5.13028">
        <ele>452.44</ele>
        <time>2021-03-14T13:22:17Z</time>
      </trkpt>
      <trkpt lat="44.79173" lon="5.13015">
        <ele>449.07</ele>
        <time>2021-03-14T13:22:35Z</time>
      </trkpt>
      <trkpt lat="44.79151" lon="5.13001">
        <ele>447.15</ele>
        <time>2021-03-14T13:22:54Z</time>
      </trkpt>
      <trkpt lat="44.79125" lon="5.12989">
        <ele>445.23</ele>
        <time>2021-03-14T13:23:15Z</time>
      </trkpt>
      <trkpt lat="44.791" lon="5.1298">
        <ele>443.31</ele>
        <time>2021-03-14T13:23:35Z</time>
      </trkpt>
      <trkpt lat="44.79076" lon="5.12972">
        <ele>442.82</ele>
        <time>2021-03-14T13:23:55Z</time>
      </trkpt>
      <trkpt lat="44.7905" lon="5.12966">
        <ele>442.34</ele>
        <time>2021-03-14T13:24:16Z</time>
      </trkpt>
      <trkpt lat="44.79027" lon="5.12964">
        <ele>444.27</ele>
        <time>2021-03-14T13:24:35Z</time>
      </trkpt>
      <trkpt lat="44.79015" lon="5.12963">
        <ele>442.82</ele>
        <time>2021-03-14T13:24:46Z</time>
      </trkpt>
      <trkpt lat="44.79008" lon="5.12962">
        <ele>443.31</ele>
        <time>2021-03-14T13:24:54Z</time>
      </trkpt>
      <trkpt lat="44.79" lon="5.12963">
        <ele>442.34</ele>
        <time>2021-03-14T13:25:01Z</time>
      </trkpt>
      <trkpt lat="44.78976" lon="5.12959">
        <ele>441.86</ele>
        <time>2021-03-14T13:25:21Z</time>
      </trkpt>
      <trkpt lat="44.78954" lon="5.12954">
        <ele>441.38</ele>
        <time>2021-03-14T13:25:40Z</time>
      </trkpt>
      <trkpt lat="44.7893" lon="5.12956">
        <ele>439.94</ele>
        <time>2021-03-14T13:26:01Z</time>
      </trkpt>
      <trkpt lat="44.78906" lon="5.12958">
        <ele>438.98</ele>
        <time>2021-03-14T13:26:21Z</time>
      </trkpt>
      <trkpt lat="44.78878" lon="5.12961">
        <ele>437.06</ele>
        <time>2021-03-14T13:26:45Z</time>
      </trkpt>
      <trkpt lat="44.78855" lon="5.12965">
        <ele>436.1</ele>
        <time>2021-03-14T13:27:05Z</time>
      </trkpt>
      <trkpt lat="44.78828" lon="5.12968">
        <ele>434.17</ele>
        <time>2021-03-14T13:27:27Z</time>
      </trkpt>
      <trkpt lat="44.78808" lon="5.12969">
        <ele>432.25</ele>
        <time>2021-03-14T13:27:45Z</time>
      </trkpt>
      <trkpt lat="44.78799" lon="5.12972">
        <ele>431.29</ele>
        <time>2021-03-14T13:28:02Z</time>
      </trkpt>
      <trkpt lat="44.78794" lon="5.12978">
        <ele>431.29</ele>
        <time>2021-03-14T13:28:16Z</time>
      </trkpt>
      <trkpt lat="44.78795" lon="5.12979">
        <ele>431.77</ele>
        <time>2021-03-14T13:28:27Z</time>
      </trkpt>
      <trkpt lat="44.78795" lon="5.12979">
        <ele>431.77</ele>
        <time>2021-03-14T13:28:43Z</time>
      </trkpt>
      <trkpt lat="44.78795" lon="5.1298">
        <ele>431.77</ele>
        <time>2021-03-14T13:29:02Z</time>
      </trkpt>
      <trkpt lat="44.78796" lon="5.12977">
        <ele>431.77</ele>
        <time>2021-03-14T13:29:25Z</time>
      </trkpt>
      <trkpt lat="44.78795" lon="5.12978">
        <ele>431.77</ele>
        <time>2021-03-14T13:29:46Z</time>
      </trkpt>
      <trkpt lat="44.78795" lon="5.12987">
        <ele>432.25</ele>
        <time>2021-03-14T13:29:55Z</time>
      </trkpt>
      <trkpt lat="44.78796" lon="5.12991">
        <ele>431.29</ele>
        <time>2021-03-14T13:29:57Z</time>
      </trkpt>
      <trkpt lat="44.78798" lon="5.1301">
        <ele>428.4</ele>
        <time>2021-03-14T13:30:12Z</time>
      </trkpt>
      <trkpt lat="44.78797" lon="5.13011">
        <ele>430.33</ele>
        <time>2021-03-14T13:30:15Z</time>
      </trkpt>
      <trkpt lat="44.78798" lon="5.13011">
        <ele>428.89</ele>
        <time>2021-03-14T13:30:21Z</time>
      </trkpt>
      <trkpt lat="44.78795" lon="5.13019">
        <ele>427.92</ele>
        <time>2021-03-14T13:30:38Z</time>
      </trkpt>
      <trkpt lat="44.78797" lon="5.13045">
        <ele>425.52</ele>
        <time>2021-03-14T13:30:54Z</time>
      </trkpt>
      <trkpt lat="44.78798" lon="5.13078">
        <ele>425.04</ele>
        <time>2021-03-14T13:31:14Z</time>
      </trkpt>
      <trkpt lat="44.78795" lon="5.13112">
        <ele>424.08</ele>
        <time>2021-03-14T13:31:34Z</time>
      </trkpt>
      <trkpt lat="44.78788" lon="5.13145">
        <ele>425.04</ele>
        <time>2021-03-14T13:31:53Z</time>
      </trkpt>
      <trkpt lat="44.7878" lon="5.13171">
        <ele>426.48</ele>
        <time>2021-03-14T13:32:09Z</time>
      </trkpt>
      <trkpt lat="44.7877" lon="5.13197">
        <ele>426.48</ele>
        <time>2021-03-14T13:32:26Z</time>
      </trkpt>
      <trkpt lat="44.78759" lon="5.13227">
        <ele>426.48</ele>
        <time>2021-03-14T13:32:45Z</time>
      </trkpt>
      <trkpt lat="44.7875" lon="5.13257">
        <ele>426.48</ele>
        <time>2021-03-14T13:33:02Z</time>
      </trkpt>
      <trkpt lat="44.78746" lon="5.1327">
        <ele>426.96</ele>
        <time>2021-03-14T13:33:16Z</time>
      </trkpt>
      <trkpt lat="44.78745" lon="5.13274">
        <ele>426.96</ele>
        <time>2021-03-14T13:33:21Z</time>
      </trkpt>
      <trkpt lat="44.78734" lon="5.133">
        <ele>426</ele>
        <time>2021-03-14T13:33:39Z</time>
      </trkpt>
      <trkpt lat="44.78726" lon="5.13327">
        <ele>425.04</ele>
        <time>2021-03-14T13:33:56Z</time>
      </trkpt>
      <trkpt lat="44.78717" lon="5.13362">
        <ele>424.56</ele>
        <time>2021-03-14T13:34:17Z</time>
      </trkpt>
      <trkpt lat="44.78714" lon="5.13396">
        <ele>425.04</ele>
        <time>2021-03-14T13:34:37Z</time>
      </trkpt>
      <trkpt lat="44.7871" lon="5.1343">
        <ele>424.56</ele>
        <time>2021-03-14T13:34:56Z</time>
      </trkpt>
      <trkpt lat="44.78706" lon="5.13458">
        <ele>424.08</ele>
        <time>2021-03-14T13:35:13Z</time>
      </trkpt>
      <trkpt lat="44.78702" lon="5.13493">
        <ele>423.6</ele>
        <time>2021-03-14T13:35:35Z</time>
      </trkpt>
      <trkpt lat="44.78699" lon="5.1352">
        <ele>423.6</ele>
        <time>2021-03-14T13:35:53Z</time>
      </trkpt>
      <trkpt lat="44.78697" lon="5.13553">
        <ele>423.6</ele>
        <time>2021-03-14T13:36:11Z</time>
      </trkpt>
      <trkpt lat="44.78695" lon="5.13583">
        <ele>423.12</ele>
        <time>2021-03-14T13:36:28Z</time>
      </trkpt>
      <trkpt lat="44.78694" lon="5.1361">
        <ele>423.12</ele>
        <time>2021-03-14T13:36:44Z</time>
      </trkpt>
      <trkpt lat="44.78693" lon="5.13612">
        <ele>423.12</ele>
        <time>2021-03-14T13:36:45Z</time>
      </trkpt>
      <trkpt lat="44.78673" lon="5.13612">
        <ele>422.64</ele>
        <time>2021-03-14T13:37:03Z</time>
      </trkpt>
      <trkpt lat="44.78655" lon="5.13601">
        <ele>421.19</ele>
        <time>2021-03-14T13:37:20Z</time>
      </trkpt>
      <trkpt lat="44.78649" lon="5.13596">
        <ele>421.19</ele>
        <time>2021-03-14T13:37:26Z</time>
      </trkpt>
      <trkpt lat="44.78626" lon="5.13585">
        <ele>421.19</ele>
        <time>2021-03-14T13:37:45Z</time>
      </trkpt>
      <trkpt lat="44.78613" lon="5.13585">
        <ele>420.71</ele>
        <time>2021-03-14T13:38:01Z</time>
      </trkpt>
      <trkpt lat="44.7861" lon="5.13583">
        <ele>420.71</ele>
        <time>2021-03-14T13:38:15Z</time>
      </trkpt>
      <trkpt lat="44.7861" lon="5.13583">
        <ele>421.19</ele>
        <time>2021-03-14T13:38:21Z</time>
      </trkpt>
      <trkpt lat="44.78608" lon="5.13579">
        <ele>421.19</ele>
        <time>2021-03-14T13:38:27Z</time>
      </trkpt>
      <trkpt lat="44.78594" lon="5.13566">
        <ele>421.19</ele>
        <time>2021-03-14T13:38:43Z</time>
      </trkpt>
      <trkpt lat="44.78582" lon="5.13558">
        <ele>419.75</ele>
        <time>2021-03-14T13:38:54Z</time>
      </trkpt>
      <trkpt lat="44.78563" lon="5.13548">
        <ele>419.27</ele>
        <time>2021-03-14T13:39:12Z</time>
      </trkpt>
      <trkpt lat="44.78557" lon="5.13546">
        <ele>419.27</ele>
        <time>2021-03-14T13:39:25Z</time>
      </trkpt>
      <trkpt lat="44.78537" lon="5.13525">
        <ele>418.79</ele>
        <time>2021-03-14T13:39:44Z</time>
      </trkpt>
      <trkpt lat="44.78523" lon="5.1351">
        <ele>417.83</ele>
        <time>2021-03-14T13:40:01Z</time>
      </trkpt>
      <trkpt lat="44.78503" lon="5.13494">
        <ele>417.35</ele>
        <time>2021-03-14T13:40:21Z</time>
      </trkpt>
      <trkpt lat="44.78485" lon="5.1348">
        <ele>416.87</ele>
        <time>2021-03-14T13:40:38Z</time>
      </trkpt>
      <trkpt lat="44.78463" lon="5.13464">
        <ele>415.91</ele>
        <time>2021-03-14T13:40:58Z</time>
      </trkpt>
      <trkpt lat="44.78442" lon="5.13451">
        <ele>415.43</ele>
        <time>2021-03-14T13:41:17Z</time>
      </trkpt>
      <trkpt lat="44.7842" lon="5.13437">
        <ele>414.47</ele>
        <time>2021-03-14T13:41:36Z</time>
      </trkpt>
      <trkpt lat="44.78402" lon="5.13421">
        <ele>413.5</ele>
        <time>2021-03-14T13:41:53Z</time>
      </trkpt>
      <trkpt lat="44.78383" lon="5.13405">
        <ele>413.02</ele>
        <time>2021-03-14T13:42:11Z</time>
      </trkpt>
      <trkpt lat="44.78359" lon="5.13388">
        <ele>412.54</ele>
        <time>2021-03-14T13:42:31Z</time>
      </trkpt>
      <trkpt lat="44.78336" lon="5.1337">
        <ele>412.06</ele>
        <time>2021-03-14T13:42:52Z</time>
      </trkpt>
      <trkpt lat="44.78316" lon="5.13361">
        <ele>411.58</ele>
        <time>2021-03-14T13:43:09Z</time>
      </trkpt>
      <trkpt lat="44.78302" lon="5.1338">
        <ele>411.58</ele>
        <time>2021-03-14T13:43:27Z</time>
      </trkpt>
      <trkpt lat="44.78293" lon="5.13397">
        <ele>411.58</ele>
        <time>2021-03-14T13:43:42Z</time>
      </trkpt>
      <trkpt lat="44.78291" lon="5.13401">
        <ele>411.1</ele>
        <time>2021-03-14T13:43:45Z</time>
      </trkpt>
      <trkpt lat="44.78288" lon="5.13405">
        <ele>411.1</ele>
        <time>2021-03-14T13:43:49Z</time>
      </trkpt>
      <trkpt lat="44.78276" lon="5.13427">
        <ele>410.62</ele>
        <time>2021-03-14T13:44:07Z</time>
      </trkpt>
      <trkpt lat="44.78261" lon="5.13452">
        <ele>410.62</ele>
        <time>2021-03-14T13:44:26Z</time>
      </trkpt>
      <trkpt lat="44.78253" lon="5.13465">
        <ele>412.06</ele>
        <time>2021-03-14T13:44:36Z</time>
      </trkpt>
      <trkpt lat="44.78236" lon="5.13489">
        <ele>412.06</ele>
        <time>2021-03-14T13:44:55Z</time>
      </trkpt>
      <trkpt lat="44.78235" lon="5.13491">
        <ele>410.62</ele>
        <time>2021-03-14T13:44:57Z</time>
      </trkpt>
      <trkpt lat="44.78224" lon="5.13506">
        <ele>410.62</ele>
        <time>2021-03-14T13:45:08Z</time>
      </trkpt>
      <trkpt lat="44.78217" lon="5.13517">
        <ele>412.06</ele>
        <time>2021-03-14T13:45:18Z</time>
      </trkpt>
      <trkpt lat="44.7821" lon="5.13526">
        <ele>412.06</ele>
        <time>2021-03-14T13:45:28Z</time>
      </trkpt>
      <trkpt lat="44.78208" lon="5.13533">
        <ele>412.06</ele>
        <time>2021-03-14T13:45:56Z</time>
      </trkpt>
      <trkpt lat="44.78197" lon="5.1355">
        <ele>413.02</ele>
        <time>2021-03-14T13:46:11Z</time>
      </trkpt>
      <trkpt lat="44.78192" lon="5.13557">
        <ele>412.06</ele>
        <time>2021-03-14T13:46:18Z</time>
      </trkpt>
      <trkpt lat="44.78181" lon="5.13578">
        <ele>412.06</ele>
        <time>2021-03-14T13:46:39Z</time>
      </trkpt>
      <trkpt lat="44.78176" lon="5.1358">
        <ele>412.06</ele>
        <time>2021-03-14T13:46:51Z</time>
      </trkpt>
      <trkpt lat="44.78171" lon="5.13588">
        <ele>412.54</ele>
        <time>2021-03-14T13:47:07Z</time>
      </trkpt>
      <trkpt lat="44.78163" lon="5.136">
        <ele>412.54</ele>
        <time>2021-03-14T13:47:24Z</time>
      </trkpt>
      <trkpt lat="44.78161" lon="5.13601">
        <ele>411.58</ele>
        <time>2021-03-14T13:47:29Z</time>
      </trkpt>
      <trkpt lat="44.78161" lon="5.13603">
        <ele>409.18</ele>
        <time>2021-03-14T13:47:44Z</time>
      </trkpt>
      <trkpt lat="44.78161" lon="5.13603">
        <ele>410.62</ele>
        <time>2021-03-14T13:47:47Z</time>
      </trkpt>
      <trkpt lat="44.78163" lon="5.13604">
        <ele>412.06</ele>
        <time>2021-03-14T13:48:08Z</time>
      </trkpt>
      <trkpt lat="44.78164" lon="5.13604">
        <ele>412.06</ele>
        <time>2021-03-14T13:48:20Z</time>
      </trkpt>
      <trkpt lat="44.78162" lon="5.13609">
        <ele>412.06</ele>
        <time>2021-03-14T13:48:34Z</time>
      </trkpt>
      <trkpt lat="44.78151" lon="5.13629">
        <ele>412.06</ele>
        <time>2021-03-14T13:48:53Z</time>
      </trkpt>
      <trkpt lat="44.78137" lon="5.13649">
        <ele>413.02</ele>
        <time>2021-03-14T13:49:08Z</time>
      </trkpt>
      <trkpt lat="44.78117" lon="5.1367">
        <ele>413.98</ele>
        <time>2021-03-14T13:49:27Z</time>
      </trkpt>
      <trkpt lat="44.78097" lon="5.13691">
        <ele>413.98</ele>
        <time>2021-03-14T13:49:48Z</time>
      </trkpt>
      <trkpt lat="44.78082" lon="5.13703">
        <ele>412.54</ele>
        <time>2021-03-14T13:50:03Z</time>
      </trkpt>
      <trkpt lat="44.78063" lon="5.1372">
        <ele>411.58</ele>
        <time>2021-03-14T13:50:21Z</time>
      </trkpt>
      <trkpt lat="44.78047" lon="5.13738">
        <ele>411.1</ele>
        <time>2021-03-14T13:50:39Z</time>
      </trkpt>
      <trkpt lat="44.78031" lon="5.13755">
        <ele>409.66</ele>
        <time>2021-03-14T13:50:57Z</time>
      </trkpt>
      <trkpt lat="44.78013" lon="5.13775">
        <ele>407.26</ele>
        <time>2021-03-14T13:51:16Z</time>
      </trkpt>
      <trkpt lat="44.77995" lon="5.13796">
        <ele>404.85</ele>
        <time>2021-03-14T13:51:35Z</time>
      </trkpt>
      <trkpt lat="44.77981" lon="5.13809">
        <ele>402.45</ele>
        <time>2021-03-14T13:51:50Z</time>
      </trkpt>
      <trkpt lat="44.77964" lon="5.1383">
        <ele>399.57</ele>
        <time>2021-03-14T13:52:08Z</time>
      </trkpt>
      <trkpt lat="44.77961" lon="5.13833">
        <ele>398.6</ele>
        <time>2021-03-14T13:52:20Z</time>
      </trkpt>
      <trkpt lat="44.77955" lon="5.1384">
        <ele>398.6</ele>
        <time>2021-03-14T13:52:36Z</time>
      </trkpt>
      <trkpt lat="44.77942" lon="5.13855">
        <ele>396.2</ele>
        <time>2021-03-14T13:52:52Z</time>
      </trkpt>
      <trkpt lat="44.77928" lon="5.13874">
        <ele>393.8</ele>
        <time>2021-03-14T13:53:10Z</time>
      </trkpt>
      <trkpt lat="44.77906" lon="5.13892">
        <ele>391.87</ele>
        <time>2021-03-14T13:53:30Z</time>
      </trkpt>
      <trkpt lat="44.77891" lon="5.13912">
        <ele>388.51</ele>
        <time>2021-03-14T13:53:47Z</time>
      </trkpt>
      <trkpt lat="44.77877" lon="5.13934">
        <ele>386.59</ele>
        <time>2021-03-14T13:54:04Z</time>
      </trkpt>
      <trkpt lat="44.77866" lon="5.13952">
        <ele>383.22</ele>
        <time>2021-03-14T13:54:19Z</time>
      </trkpt>
      <trkpt lat="44.77855" lon="5.13965">
        <ele>381.78</ele>
        <time>2021-03-14T13:54:35Z</time>
      </trkpt>
      <trkpt lat="44.77842" lon="5.1398">
        <ele>379.38</ele>
        <time>2021-03-14T13:54:50Z</time>
      </trkpt>
      <trkpt lat="44.77824" lon="5.13997">
        <ele>376.97</ele>
        <time>2021-03-14T13:55:09Z</time>
      </trkpt>
      <trkpt lat="44.77811" lon="5.14015">
        <ele>375.53</ele>
        <time>2021-03-14T13:55:26Z</time>
      </trkpt>
      <trkpt lat="44.77809" lon="5.14017">
        <ele>375.53</ele>
        <time>2021-03-14T13:55:28Z</time>
      </trkpt>
      <trkpt lat="44.77808" lon="5.14019">
        <ele>375.53</ele>
        <time>2021-03-14T13:55:30Z</time>
      </trkpt>
      <trkpt lat="44.77795" lon="5.1404">
        <ele>374.09</ele>
        <time>2021-03-14T13:55:47Z</time>
      </trkpt>
      <trkpt lat="44.77786" lon="5.1406">
        <ele>373.61</ele>
        <time>2021-03-14T13:56:03Z</time>
      </trkpt>
      <trkpt lat="44.77777" lon="5.1408">
        <ele>373.13</ele>
        <time>2021-03-14T13:56:18Z</time>
      </trkpt>
      <trkpt lat="44.77771" lon="5.14105">
        <ele>372.17</ele>
        <time>2021-03-14T13:56:35Z</time>
      </trkpt>
      <trkpt lat="44.77766" lon="5.14129">
        <ele>371.69</ele>
        <time>2021-03-14T13:56:51Z</time>
      </trkpt>
      <trkpt lat="44.7776" lon="5.14151">
        <ele>370.73</ele>
        <time>2021-03-14T13:57:06Z</time>
      </trkpt>
      <trkpt lat="44.77755" lon="5.14167">
        <ele>370.24</ele>
        <time>2021-03-14T13:57:17Z</time>
      </trkpt>
      <trkpt lat="44.77753" lon="5.14188">
        <ele>369.28</ele>
        <time>2021-03-14T13:57:33Z</time>
      </trkpt>
      <trkpt lat="44.77756" lon="5.14205">
        <ele>369.28</ele>
        <time>2021-03-14T13:57:48Z</time>
      </trkpt>
      <trkpt lat="44.77762" lon="5.14221">
        <ele>368.8</ele>
        <time>2021-03-14T13:58:03Z</time>
      </trkpt>
      <trkpt lat="44.77764" lon="5.1423">
        <ele>369.76</ele>
        <time>2021-03-14T13:58:17Z</time>
      </trkpt>
      <trkpt lat="44.77766" lon="5.14252">
        <ele>370.24</ele>
        <time>2021-03-14T13:58:33Z</time>
      </trkpt>
      <trkpt lat="44.77769" lon="5.14257">
        <ele>370.24</ele>
        <time>2021-03-14T13:58:43Z</time>
      </trkpt>
      <trkpt lat="44.77785" lon="5.1426">
        <ele>371.69</ele>
        <time>2021-03-14T13:58:59Z</time>
      </trkpt>
      <trkpt lat="44.77804" lon="5.14261">
        <ele>372.17</ele>
        <time>2021-03-14T13:59:16Z</time>
      </trkpt>
      <trkpt lat="44.7782" lon="5.14269">
        <ele>372.65</ele>
        <time>2021-03-14T13:59:31Z</time>
      </trkpt>
      <trkpt lat="44.77835" lon="5.14279">
        <ele>372.65</ele>
        <time>2021-03-14T13:59:44Z</time>
      </trkpt>
      <trkpt lat="44.77845" lon="5.14286">
        <ele>374.09</ele>
        <time>2021-03-14T13:59:52Z</time>
      </trkpt>
      <trkpt lat="44.77863" lon="5.1429">
        <ele>374.57</ele>
        <time>2021-03-14T14:00:08Z</time>
      </trkpt>
      <trkpt lat="44.77878" lon="5.14291">
        <ele>375.53</ele>
        <time>2021-03-14T14:00:22Z</time>
      </trkpt>
      <trkpt lat="44.77889" lon="5.14293">
        <ele>376.01</ele>
        <time>2021-03-14T14:00:35Z</time>
      </trkpt>
    </trkseg>
  </trk>
</gpx>